<?xml version="1.0" encoding="UTF-8" standalone="no" ?>
<gpx xmlns="http://www.topografix.com/GPX/1/1" xmlns:xsi="http://www.w3.org/2001/XMLSchema-instance" xsi:schemaLocation="http://www.topografix.com/GPX/1/1 http://www.topografix.com/GPX/1/1/gpx.xsd" version="1.1" creator="VisuGPX - https://www.visugpx.com">
  <metadata>
    <name>Le tour des étangs de Bièvres </name>
    <desc><![CDATA[Jolie balade le long de la Bièvre et ses étangs  (22 km - facile)
A lire aussi aur [url]http://trekkingzone.wordpress.com[/url]]]></desc>
  </metadata>
  <trk>
    <name><![CDATA[17 févr. 2019 à 10:14:47]]></name>
    <cmt><![CDATA[17 févr. 2019 à 10:14:47]]></cmt>
    <trkseg>
      <trkpt lat="48.79483" lon="2.13553">
        <ele>135</ele>
        <time>2019-02-17T09:14:48Z</time>
      </trkpt>
      <trkpt lat="48.79512" lon="2.13549">
        <ele>135</ele>
        <time>2019-02-17T09:14:50Z</time>
      </trkpt>
      <trkpt lat="48.79519" lon="2.13551">
        <ele>135</ele>
        <time>2019-02-17T09:14:52Z</time>
      </trkpt>
      <trkpt lat="48.79516" lon="2.13567">
        <ele>134</ele>
        <time>2019-02-17T09:15:14Z</time>
      </trkpt>
      <trkpt lat="48.79522" lon="2.13585">
        <ele>139</ele>
        <time>2019-02-17T09:16:07Z</time>
      </trkpt>
      <trkpt lat="48.79527" lon="2.136">
        <ele>139</ele>
        <time>2019-02-17T09:16:22Z</time>
      </trkpt>
      <trkpt lat="48.7954" lon="2.13595">
        <ele>139</ele>
        <time>2019-02-17T09:17:22Z</time>
      </trkpt>
      <trkpt lat="48.79552" lon="2.13588">
        <ele>139</ele>
        <time>2019-02-17T09:17:37Z</time>
      </trkpt>
      <trkpt lat="48.79559" lon="2.13576">
        <ele>138</ele>
        <time>2019-02-17T09:17:55Z</time>
      </trkpt>
      <trkpt lat="48.79573" lon="2.13576">
        <ele>138</ele>
        <time>2019-02-17T09:18:12Z</time>
      </trkpt>
      <trkpt lat="48.79581" lon="2.13581">
        <ele>138</ele>
        <time>2019-02-17T09:18:25Z</time>
      </trkpt>
      <trkpt lat="48.7959" lon="2.13591">
        <ele>138</ele>
        <time>2019-02-17T09:18:39Z</time>
      </trkpt>
      <trkpt lat="48.79594" lon="2.1359">
        <ele>138</ele>
        <time>2019-02-17T09:18:45Z</time>
      </trkpt>
      <trkpt lat="48.79599" lon="2.13589">
        <ele>138</ele>
        <time>2019-02-17T09:18:50Z</time>
      </trkpt>
      <trkpt lat="48.79604" lon="2.13592">
        <ele>138</ele>
        <time>2019-02-17T09:19:22Z</time>
      </trkpt>
      <trkpt lat="48.79628" lon="2.13577">
        <ele>138</ele>
        <time>2019-02-17T09:21:34Z</time>
      </trkpt>
      <trkpt lat="48.79659" lon="2.13561">
        <ele>137</ele>
        <time>2019-02-17T09:22:06Z</time>
      </trkpt>
      <trkpt lat="48.79704" lon="2.13564">
        <ele>137</ele>
        <time>2019-02-17T09:22:51Z</time>
      </trkpt>
      <trkpt lat="48.79727" lon="2.13554">
        <ele>137</ele>
        <time>2019-02-17T09:23:12Z</time>
      </trkpt>
      <trkpt lat="48.79767" lon="2.13519">
        <ele>138</ele>
        <time>2019-02-17T09:23:53Z</time>
      </trkpt>
      <trkpt lat="48.79786" lon="2.13498">
        <ele>138</ele>
        <time>2019-02-17T09:24:12Z</time>
      </trkpt>
      <trkpt lat="48.79795" lon="2.13465">
        <ele>138</ele>
        <time>2019-02-17T09:24:33Z</time>
      </trkpt>
      <trkpt lat="48.79787" lon="2.13396">
        <ele>137</ele>
        <time>2019-02-17T09:25:10Z</time>
      </trkpt>
      <trkpt lat="48.79776" lon="2.13365">
        <ele>137</ele>
        <time>2019-02-17T09:25:30Z</time>
      </trkpt>
      <trkpt lat="48.79752" lon="2.13306">
        <ele>137</ele>
        <time>2019-02-17T09:26:05Z</time>
      </trkpt>
      <trkpt lat="48.79729" lon="2.13245">
        <ele>136</ele>
        <time>2019-02-17T09:26:41Z</time>
      </trkpt>
      <trkpt lat="48.79709" lon="2.13183">
        <ele>135</ele>
        <time>2019-02-17T09:27:20Z</time>
      </trkpt>
      <trkpt lat="48.79677" lon="2.13168">
        <ele>136</ele>
        <time>2019-02-17T09:28:11Z</time>
      </trkpt>
      <trkpt lat="48.79662" lon="2.13143">
        <ele>136</ele>
        <time>2019-02-17T09:28:31Z</time>
      </trkpt>
      <trkpt lat="48.79645" lon="2.13112">
        <ele>137</ele>
        <time>2019-02-17T09:29:02Z</time>
      </trkpt>
      <trkpt lat="48.79608" lon="2.13095">
        <ele>137</ele>
        <time>2019-02-17T09:29:32Z</time>
      </trkpt>
      <trkpt lat="48.79567" lon="2.13064">
        <ele>137</ele>
        <time>2019-02-17T09:30:09Z</time>
      </trkpt>
      <trkpt lat="48.79528" lon="2.13028">
        <ele>138</ele>
        <time>2019-02-17T09:30:47Z</time>
      </trkpt>
      <trkpt lat="48.79475" lon="2.12998">
        <ele>138</ele>
        <time>2019-02-17T09:31:35Z</time>
      </trkpt>
      <trkpt lat="48.79446" lon="2.12971">
        <ele>139</ele>
        <time>2019-02-17T09:31:56Z</time>
      </trkpt>
      <trkpt lat="48.79425" lon="2.12961">
        <ele>139</ele>
        <time>2019-02-17T09:32:15Z</time>
      </trkpt>
      <trkpt lat="48.79402" lon="2.12948">
        <ele>140</ele>
        <time>2019-02-17T09:32:55Z</time>
      </trkpt>
      <trkpt lat="48.79355" lon="2.12921">
        <ele>141</ele>
        <time>2019-02-17T09:33:37Z</time>
      </trkpt>
      <trkpt lat="48.79336" lon="2.12903">
        <ele>142</ele>
        <time>2019-02-17T09:33:59Z</time>
      </trkpt>
      <trkpt lat="48.79284" lon="2.12875">
        <ele>146</ele>
        <time>2019-02-17T09:34:44Z</time>
      </trkpt>
      <trkpt lat="48.79251" lon="2.12862">
        <ele>148</ele>
        <time>2019-02-17T09:35:15Z</time>
      </trkpt>
      <trkpt lat="48.7924" lon="2.12895">
        <ele>149</ele>
        <time>2019-02-17T09:35:57Z</time>
      </trkpt>
      <trkpt lat="48.79223" lon="2.12935">
        <ele>153</ele>
        <time>2019-02-17T09:36:43Z</time>
      </trkpt>
      <trkpt lat="48.79203" lon="2.12984">
        <ele>158</ele>
        <time>2019-02-17T09:37:22Z</time>
      </trkpt>
      <trkpt lat="48.79201" lon="2.1299">
        <ele>161</ele>
        <time>2019-02-17T09:37:34Z</time>
      </trkpt>
      <trkpt lat="48.79185" lon="2.13013">
        <ele>168</ele>
        <time>2019-02-17T09:38:06Z</time>
      </trkpt>
      <trkpt lat="48.79181" lon="2.13021">
        <ele>172</ele>
        <time>2019-02-17T09:38:24Z</time>
      </trkpt>
      <trkpt lat="48.79176" lon="2.13027">
        <ele>174</ele>
        <time>2019-02-17T09:38:36Z</time>
      </trkpt>
      <trkpt lat="48.79171" lon="2.13028">
        <ele>173</ele>
        <time>2019-02-17T09:38:48Z</time>
      </trkpt>
      <trkpt lat="48.79166" lon="2.13028">
        <ele>174</ele>
        <time>2019-02-17T09:38:54Z</time>
      </trkpt>
      <trkpt lat="48.79162" lon="2.13025">
        <ele>174</ele>
        <time>2019-02-17T09:39:06Z</time>
      </trkpt>
      <trkpt lat="48.79161" lon="2.13028">
        <ele>171</ele>
        <time>2019-02-17T09:44:57Z</time>
      </trkpt>
      <trkpt lat="48.79169" lon="2.13032">
        <ele>171</ele>
        <time>2019-02-17T09:45:56Z</time>
      </trkpt>
      <trkpt lat="48.79173" lon="2.13035">
        <ele>171</ele>
        <time>2019-02-17T09:46:00Z</time>
      </trkpt>
      <trkpt lat="48.79187" lon="2.13042">
        <ele>170</ele>
        <time>2019-02-17T09:46:15Z</time>
      </trkpt>
      <trkpt lat="48.79191" lon="2.13049">
        <ele>170</ele>
        <time>2019-02-17T09:46:19Z</time>
      </trkpt>
      <trkpt lat="48.79196" lon="2.13053">
        <ele>170</ele>
        <time>2019-02-17T09:46:23Z</time>
      </trkpt>
      <trkpt lat="48.79201" lon="2.13056">
        <ele>170</ele>
        <time>2019-02-17T09:46:27Z</time>
      </trkpt>
      <trkpt lat="48.79229" lon="2.13094">
        <ele>169</ele>
        <time>2019-02-17T09:47:02Z</time>
      </trkpt>
      <trkpt lat="48.79237" lon="2.13107">
        <ele>169</ele>
        <time>2019-02-17T09:47:11Z</time>
      </trkpt>
      <trkpt lat="48.79246" lon="2.13122">
        <ele>169</ele>
        <time>2019-02-17T09:47:23Z</time>
      </trkpt>
      <trkpt lat="48.79254" lon="2.13131">
        <ele>169</ele>
        <time>2019-02-17T09:47:31Z</time>
      </trkpt>
      <trkpt lat="48.79262" lon="2.13154">
        <ele>169</ele>
        <time>2019-02-17T09:47:45Z</time>
      </trkpt>
      <trkpt lat="48.79264" lon="2.13185">
        <ele>170</ele>
        <time>2019-02-17T09:48:00Z</time>
      </trkpt>
      <trkpt lat="48.79264" lon="2.13192">
        <ele>171</ele>
        <time>2019-02-17T09:48:04Z</time>
      </trkpt>
      <trkpt lat="48.79264" lon="2.13199">
        <ele>171</ele>
        <time>2019-02-17T09:48:08Z</time>
      </trkpt>
      <trkpt lat="48.79258" lon="2.13227">
        <ele>171</ele>
        <time>2019-02-17T09:48:24Z</time>
      </trkpt>
      <trkpt lat="48.79253" lon="2.13239">
        <ele>171</ele>
        <time>2019-02-17T09:48:34Z</time>
      </trkpt>
      <trkpt lat="48.79252" lon="2.13249">
        <ele>171</ele>
        <time>2019-02-17T09:48:41Z</time>
      </trkpt>
      <trkpt lat="48.7925" lon="2.13293">
        <ele>171</ele>
        <time>2019-02-17T09:49:14Z</time>
      </trkpt>
      <trkpt lat="48.79247" lon="2.13328">
        <ele>171</ele>
        <time>2019-02-17T09:49:35Z</time>
      </trkpt>
      <trkpt lat="48.79234" lon="2.13335">
        <ele>172</ele>
        <time>2019-02-17T09:49:48Z</time>
      </trkpt>
      <trkpt lat="48.79206" lon="2.13346">
        <ele>172</ele>
        <time>2019-02-17T09:50:15Z</time>
      </trkpt>
      <trkpt lat="48.79196" lon="2.13342">
        <ele>172</ele>
        <time>2019-02-17T09:50:28Z</time>
      </trkpt>
      <trkpt lat="48.79175" lon="2.13343">
        <ele>172</ele>
        <time>2019-02-17T09:50:44Z</time>
      </trkpt>
      <trkpt lat="48.7917" lon="2.13342">
        <ele>172</ele>
        <time>2019-02-17T09:50:49Z</time>
      </trkpt>
      <trkpt lat="48.79158" lon="2.13341">
        <ele>172</ele>
        <time>2019-02-17T09:51:01Z</time>
      </trkpt>
      <trkpt lat="48.79152" lon="2.13341">
        <ele>172</ele>
        <time>2019-02-17T09:51:05Z</time>
      </trkpt>
      <trkpt lat="48.79142" lon="2.13343">
        <ele>171</ele>
        <time>2019-02-17T09:51:15Z</time>
      </trkpt>
      <trkpt lat="48.79136" lon="2.13342">
        <ele>171</ele>
        <time>2019-02-17T09:51:19Z</time>
      </trkpt>
      <trkpt lat="48.79121" lon="2.13345">
        <ele>172</ele>
        <time>2019-02-17T09:51:31Z</time>
      </trkpt>
      <trkpt lat="48.79112" lon="2.13347">
        <ele>171</ele>
        <time>2019-02-17T09:51:37Z</time>
      </trkpt>
      <trkpt lat="48.79107" lon="2.13348">
        <ele>171</ele>
        <time>2019-02-17T09:51:41Z</time>
      </trkpt>
      <trkpt lat="48.79095" lon="2.13347">
        <ele>172</ele>
        <time>2019-02-17T09:51:53Z</time>
      </trkpt>
      <trkpt lat="48.79084" lon="2.13347">
        <ele>172</ele>
        <time>2019-02-17T09:52:02Z</time>
      </trkpt>
      <trkpt lat="48.79069" lon="2.13349">
        <ele>172</ele>
        <time>2019-02-17T09:52:13Z</time>
      </trkpt>
      <trkpt lat="48.79053" lon="2.13354">
        <ele>172</ele>
        <time>2019-02-17T09:52:25Z</time>
      </trkpt>
      <trkpt lat="48.79043" lon="2.13353">
        <ele>172</ele>
        <time>2019-02-17T09:52:33Z</time>
      </trkpt>
      <trkpt lat="48.79037" lon="2.13349">
        <ele>172</ele>
        <time>2019-02-17T09:52:41Z</time>
      </trkpt>
      <trkpt lat="48.79032" lon="2.13346">
        <ele>173</ele>
        <time>2019-02-17T09:52:46Z</time>
      </trkpt>
      <trkpt lat="48.79021" lon="2.13345">
        <ele>173</ele>
        <time>2019-02-17T09:52:54Z</time>
      </trkpt>
      <trkpt lat="48.78992" lon="2.13338">
        <ele>172</ele>
        <time>2019-02-17T09:53:17Z</time>
      </trkpt>
      <trkpt lat="48.78985" lon="2.1334">
        <ele>172</ele>
        <time>2019-02-17T09:53:23Z</time>
      </trkpt>
      <trkpt lat="48.7897" lon="2.1334">
        <ele>170</ele>
        <time>2019-02-17T09:53:33Z</time>
      </trkpt>
      <trkpt lat="48.78963" lon="2.13337">
        <ele>169</ele>
        <time>2019-02-17T09:53:43Z</time>
      </trkpt>
      <trkpt lat="48.7895" lon="2.13338">
        <ele>166</ele>
        <time>2019-02-17T09:53:58Z</time>
      </trkpt>
      <trkpt lat="48.78945" lon="2.13339">
        <ele>165</ele>
        <time>2019-02-17T09:54:11Z</time>
      </trkpt>
      <trkpt lat="48.78941" lon="2.13343">
        <ele>164</ele>
        <time>2019-02-17T09:54:17Z</time>
      </trkpt>
      <trkpt lat="48.78921" lon="2.13351">
        <ele>161</ele>
        <time>2019-02-17T09:54:33Z</time>
      </trkpt>
      <trkpt lat="48.78917" lon="2.13356">
        <ele>160</ele>
        <time>2019-02-17T09:54:37Z</time>
      </trkpt>
      <trkpt lat="48.7891" lon="2.13358">
        <ele>159</ele>
        <time>2019-02-17T09:54:45Z</time>
      </trkpt>
      <trkpt lat="48.78903" lon="2.13365">
        <ele>158</ele>
        <time>2019-02-17T09:54:57Z</time>
      </trkpt>
      <trkpt lat="48.78899" lon="2.13371">
        <ele>158</ele>
        <time>2019-02-17T09:55:01Z</time>
      </trkpt>
      <trkpt lat="48.78895" lon="2.13374">
        <ele>157</ele>
        <time>2019-02-17T09:55:05Z</time>
      </trkpt>
      <trkpt lat="48.78888" lon="2.13385">
        <ele>157</ele>
        <time>2019-02-17T09:55:19Z</time>
      </trkpt>
      <trkpt lat="48.78857" lon="2.13395">
        <ele>155</ele>
        <time>2019-02-17T09:55:49Z</time>
      </trkpt>
      <trkpt lat="48.78848" lon="2.13383">
        <ele>155</ele>
        <time>2019-02-17T09:55:52Z</time>
      </trkpt>
      <trkpt lat="48.78839" lon="2.13371">
        <ele>154</ele>
        <time>2019-02-17T09:55:57Z</time>
      </trkpt>
      <trkpt lat="48.78835" lon="2.13356">
        <ele>154</ele>
        <time>2019-02-17T09:56:05Z</time>
      </trkpt>
      <trkpt lat="48.78836" lon="2.13348">
        <ele>154</ele>
        <time>2019-02-17T09:56:10Z</time>
      </trkpt>
      <trkpt lat="48.78836" lon="2.13339">
        <ele>155</ele>
        <time>2019-02-17T09:56:20Z</time>
      </trkpt>
      <trkpt lat="48.78834" lon="2.13332">
        <ele>155</ele>
        <time>2019-02-17T09:56:25Z</time>
      </trkpt>
      <trkpt lat="48.78828" lon="2.13319">
        <ele>155</ele>
        <time>2019-02-17T09:56:34Z</time>
      </trkpt>
      <trkpt lat="48.78826" lon="2.13311">
        <ele>155</ele>
        <time>2019-02-17T09:56:39Z</time>
      </trkpt>
      <trkpt lat="48.78818" lon="2.13299">
        <ele>155</ele>
        <time>2019-02-17T09:56:50Z</time>
      </trkpt>
      <trkpt lat="48.78814" lon="2.13294">
        <ele>154</ele>
        <time>2019-02-17T09:56:55Z</time>
      </trkpt>
      <trkpt lat="48.78811" lon="2.13287">
        <ele>154</ele>
        <time>2019-02-17T09:57:00Z</time>
      </trkpt>
      <trkpt lat="48.78809" lon="2.13279">
        <ele>154</ele>
        <time>2019-02-17T09:57:10Z</time>
      </trkpt>
      <trkpt lat="48.78806" lon="2.13273">
        <ele>154</ele>
        <time>2019-02-17T09:57:22Z</time>
      </trkpt>
      <trkpt lat="48.78801" lon="2.13269">
        <ele>154</ele>
        <time>2019-02-17T09:57:40Z</time>
      </trkpt>
      <trkpt lat="48.78796" lon="2.13267">
        <ele>154</ele>
        <time>2019-02-17T09:57:45Z</time>
      </trkpt>
      <trkpt lat="48.78784" lon="2.13268">
        <ele>153</ele>
        <time>2019-02-17T09:57:58Z</time>
      </trkpt>
      <trkpt lat="48.78781" lon="2.13264">
        <ele>153</ele>
        <time>2019-02-17T09:58:02Z</time>
      </trkpt>
      <trkpt lat="48.78779" lon="2.13256">
        <ele>153</ele>
        <time>2019-02-17T09:58:07Z</time>
      </trkpt>
      <trkpt lat="48.78779" lon="2.13249">
        <ele>153</ele>
        <time>2019-02-17T09:58:11Z</time>
      </trkpt>
      <trkpt lat="48.78774" lon="2.13231">
        <ele>154</ele>
        <time>2019-02-17T09:58:24Z</time>
      </trkpt>
      <trkpt lat="48.78774" lon="2.13223">
        <ele>154</ele>
        <time>2019-02-17T09:58:28Z</time>
      </trkpt>
      <trkpt lat="48.78773" lon="2.13211">
        <ele>154</ele>
        <time>2019-02-17T09:58:37Z</time>
      </trkpt>
      <trkpt lat="48.7877" lon="2.1319">
        <ele>154</ele>
        <time>2019-02-17T09:58:51Z</time>
      </trkpt>
      <trkpt lat="48.78767" lon="2.13148">
        <ele>157</ele>
        <time>2019-02-17T09:59:19Z</time>
      </trkpt>
      <trkpt lat="48.78756" lon="2.13095">
        <ele>155</ele>
        <time>2019-02-17T09:59:50Z</time>
      </trkpt>
      <trkpt lat="48.78756" lon="2.13087">
        <ele>155</ele>
        <time>2019-02-17T09:59:54Z</time>
      </trkpt>
      <trkpt lat="48.78756" lon="2.1308">
        <ele>155</ele>
        <time>2019-02-17T09:59:57Z</time>
      </trkpt>
      <trkpt lat="48.78752" lon="2.13035">
        <ele>155</ele>
        <time>2019-02-17T10:00:22Z</time>
      </trkpt>
      <trkpt lat="48.7875" lon="2.13025">
        <ele>154</ele>
        <time>2019-02-17T10:00:29Z</time>
      </trkpt>
      <trkpt lat="48.78751" lon="2.13017">
        <ele>153</ele>
        <time>2019-02-17T10:00:32Z</time>
      </trkpt>
      <trkpt lat="48.78751" lon="2.1301">
        <ele>153</ele>
        <time>2019-02-17T10:00:37Z</time>
      </trkpt>
      <trkpt lat="48.78751" lon="2.13002">
        <ele>153</ele>
        <time>2019-02-17T10:00:41Z</time>
      </trkpt>
      <trkpt lat="48.78751" lon="2.12993">
        <ele>152</ele>
        <time>2019-02-17T10:00:46Z</time>
      </trkpt>
      <trkpt lat="48.78746" lon="2.12959">
        <ele>152</ele>
        <time>2019-02-17T10:01:06Z</time>
      </trkpt>
      <trkpt lat="48.78741" lon="2.1295">
        <ele>151</ele>
        <time>2019-02-17T10:01:14Z</time>
      </trkpt>
      <trkpt lat="48.78731" lon="2.12944">
        <ele>151</ele>
        <time>2019-02-17T10:01:28Z</time>
      </trkpt>
      <trkpt lat="48.78707" lon="2.12931">
        <ele>151</ele>
        <time>2019-02-17T10:01:51Z</time>
      </trkpt>
      <trkpt lat="48.78674" lon="2.12917">
        <ele>153</ele>
        <time>2019-02-17T10:02:21Z</time>
      </trkpt>
      <trkpt lat="48.78669" lon="2.12913">
        <ele>154</ele>
        <time>2019-02-17T10:02:26Z</time>
      </trkpt>
      <trkpt lat="48.78665" lon="2.12911">
        <ele>155</ele>
        <time>2019-02-17T10:02:34Z</time>
      </trkpt>
      <trkpt lat="48.7866" lon="2.12906">
        <ele>156</ele>
        <time>2019-02-17T10:02:40Z</time>
      </trkpt>
      <trkpt lat="48.78637" lon="2.1289">
        <ele>159</ele>
        <time>2019-02-17T10:03:02Z</time>
      </trkpt>
      <trkpt lat="48.78631" lon="2.12884">
        <ele>160</ele>
        <time>2019-02-17T10:03:10Z</time>
      </trkpt>
      <trkpt lat="48.78617" lon="2.1288">
        <ele>162</ele>
        <time>2019-02-17T10:03:22Z</time>
      </trkpt>
      <trkpt lat="48.78594" lon="2.12862">
        <ele>166</ele>
        <time>2019-02-17T10:03:51Z</time>
      </trkpt>
      <trkpt lat="48.78575" lon="2.12857">
        <ele>167</ele>
        <time>2019-02-17T10:04:10Z</time>
      </trkpt>
      <trkpt lat="48.78564" lon="2.12851">
        <ele>168</ele>
        <time>2019-02-17T10:04:22Z</time>
      </trkpt>
      <trkpt lat="48.78549" lon="2.12846">
        <ele>170</ele>
        <time>2019-02-17T10:04:36Z</time>
      </trkpt>
      <trkpt lat="48.78539" lon="2.12842">
        <ele>170</ele>
        <time>2019-02-17T10:04:44Z</time>
      </trkpt>
      <trkpt lat="48.78536" lon="2.12837">
        <ele>171</ele>
        <time>2019-02-17T10:04:48Z</time>
      </trkpt>
      <trkpt lat="48.78497" lon="2.1283">
        <ele>172</ele>
        <time>2019-02-17T10:05:20Z</time>
      </trkpt>
      <trkpt lat="48.78461" lon="2.12811">
        <ele>172</ele>
        <time>2019-02-17T10:05:53Z</time>
      </trkpt>
      <trkpt lat="48.78457" lon="2.12807">
        <ele>172</ele>
        <time>2019-02-17T10:05:57Z</time>
      </trkpt>
      <trkpt lat="48.78451" lon="2.12806">
        <ele>172</ele>
        <time>2019-02-17T10:06:01Z</time>
      </trkpt>
      <trkpt lat="48.78441" lon="2.128">
        <ele>173</ele>
        <time>2019-02-17T10:06:10Z</time>
      </trkpt>
      <trkpt lat="48.78431" lon="2.12797">
        <ele>173</ele>
        <time>2019-02-17T10:06:19Z</time>
      </trkpt>
      <trkpt lat="48.78425" lon="2.12797">
        <ele>173</ele>
        <time>2019-02-17T10:06:24Z</time>
      </trkpt>
      <trkpt lat="48.78421" lon="2.12797">
        <ele>173</ele>
        <time>2019-02-17T10:06:27Z</time>
      </trkpt>
      <trkpt lat="48.78417" lon="2.12793">
        <ele>173</ele>
        <time>2019-02-17T10:06:32Z</time>
      </trkpt>
      <trkpt lat="48.78398" lon="2.12783">
        <ele>173</ele>
        <time>2019-02-17T10:06:49Z</time>
      </trkpt>
      <trkpt lat="48.78393" lon="2.1278">
        <ele>173</ele>
        <time>2019-02-17T10:06:53Z</time>
      </trkpt>
      <trkpt lat="48.78388" lon="2.12778">
        <ele>173</ele>
        <time>2019-02-17T10:06:57Z</time>
      </trkpt>
      <trkpt lat="48.78382" lon="2.12778">
        <ele>172</ele>
        <time>2019-02-17T10:07:01Z</time>
      </trkpt>
      <trkpt lat="48.78378" lon="2.12774">
        <ele>172</ele>
        <time>2019-02-17T10:07:05Z</time>
      </trkpt>
      <trkpt lat="48.78373" lon="2.12771">
        <ele>172</ele>
        <time>2019-02-17T10:07:09Z</time>
      </trkpt>
      <trkpt lat="48.7836" lon="2.12756">
        <ele>172</ele>
        <time>2019-02-17T10:07:22Z</time>
      </trkpt>
      <trkpt lat="48.78347" lon="2.1273">
        <ele>172</ele>
        <time>2019-02-17T10:07:42Z</time>
      </trkpt>
      <trkpt lat="48.78334" lon="2.12716">
        <ele>172</ele>
        <time>2019-02-17T10:07:53Z</time>
      </trkpt>
      <trkpt lat="48.78331" lon="2.1271">
        <ele>172</ele>
        <time>2019-02-17T10:07:57Z</time>
      </trkpt>
      <trkpt lat="48.7833" lon="2.12695">
        <ele>172</ele>
        <time>2019-02-17T10:08:04Z</time>
      </trkpt>
      <trkpt lat="48.78312" lon="2.12657">
        <ele>172</ele>
        <time>2019-02-17T10:08:28Z</time>
      </trkpt>
      <trkpt lat="48.78309" lon="2.12653">
        <ele>172</ele>
        <time>2019-02-17T10:08:32Z</time>
      </trkpt>
      <trkpt lat="48.783" lon="2.12646">
        <ele>171</ele>
        <time>2019-02-17T10:08:39Z</time>
      </trkpt>
      <trkpt lat="48.783" lon="2.12637">
        <ele>171</ele>
        <time>2019-02-17T10:08:42Z</time>
      </trkpt>
      <trkpt lat="48.78297" lon="2.1263">
        <ele>171</ele>
        <time>2019-02-17T10:08:46Z</time>
      </trkpt>
      <trkpt lat="48.78294" lon="2.12625">
        <ele>171</ele>
        <time>2019-02-17T10:08:51Z</time>
      </trkpt>
      <trkpt lat="48.78291" lon="2.12618">
        <ele>171</ele>
        <time>2019-02-17T10:08:55Z</time>
      </trkpt>
      <trkpt lat="48.78287" lon="2.12612">
        <ele>171</ele>
        <time>2019-02-17T10:09:00Z</time>
      </trkpt>
      <trkpt lat="48.78281" lon="2.12602">
        <ele>171</ele>
        <time>2019-02-17T10:09:07Z</time>
      </trkpt>
      <trkpt lat="48.78263" lon="2.12576">
        <ele>170</ele>
        <time>2019-02-17T10:09:25Z</time>
      </trkpt>
      <trkpt lat="48.78262" lon="2.12559">
        <ele>169</ele>
        <time>2019-02-17T10:09:32Z</time>
      </trkpt>
      <trkpt lat="48.7826" lon="2.12552">
        <ele>170</ele>
        <time>2019-02-17T10:09:36Z</time>
      </trkpt>
      <trkpt lat="48.78257" lon="2.12546">
        <ele>169</ele>
        <time>2019-02-17T10:09:40Z</time>
      </trkpt>
      <trkpt lat="48.78248" lon="2.12535">
        <ele>170</ele>
        <time>2019-02-17T10:09:50Z</time>
      </trkpt>
      <trkpt lat="48.78245" lon="2.12529">
        <ele>169</ele>
        <time>2019-02-17T10:09:54Z</time>
      </trkpt>
      <trkpt lat="48.78241" lon="2.12519">
        <ele>169</ele>
        <time>2019-02-17T10:10:03Z</time>
      </trkpt>
      <trkpt lat="48.78237" lon="2.12514">
        <ele>169</ele>
        <time>2019-02-17T10:10:07Z</time>
      </trkpt>
      <trkpt lat="48.78232" lon="2.12508">
        <ele>169</ele>
        <time>2019-02-17T10:10:11Z</time>
      </trkpt>
      <trkpt lat="48.78227" lon="2.12499">
        <ele>169</ele>
        <time>2019-02-17T10:10:19Z</time>
      </trkpt>
      <trkpt lat="48.78222" lon="2.12494">
        <ele>168</ele>
        <time>2019-02-17T10:10:30Z</time>
      </trkpt>
      <trkpt lat="48.78215" lon="2.12503">
        <ele>167</ele>
        <time>2019-02-17T10:10:42Z</time>
      </trkpt>
      <trkpt lat="48.78211" lon="2.1251">
        <ele>168</ele>
        <time>2019-02-17T10:10:51Z</time>
      </trkpt>
      <trkpt lat="48.7821" lon="2.12517">
        <ele>167</ele>
        <time>2019-02-17T10:10:57Z</time>
      </trkpt>
      <trkpt lat="48.78203" lon="2.12528">
        <ele>168</ele>
        <time>2019-02-17T10:11:07Z</time>
      </trkpt>
      <trkpt lat="48.78199" lon="2.12541">
        <ele>167</ele>
        <time>2019-02-17T10:11:18Z</time>
      </trkpt>
      <trkpt lat="48.78196" lon="2.12547">
        <ele>167</ele>
        <time>2019-02-17T10:11:22Z</time>
      </trkpt>
      <trkpt lat="48.78197" lon="2.12555">
        <ele>167</ele>
        <time>2019-02-17T10:11:25Z</time>
      </trkpt>
      <trkpt lat="48.78193" lon="2.12563">
        <ele>167</ele>
        <time>2019-02-17T10:11:29Z</time>
      </trkpt>
      <trkpt lat="48.78188" lon="2.12566">
        <ele>167</ele>
        <time>2019-02-17T10:11:33Z</time>
      </trkpt>
      <trkpt lat="48.78182" lon="2.1258">
        <ele>167</ele>
        <time>2019-02-17T10:11:45Z</time>
      </trkpt>
      <trkpt lat="48.7818" lon="2.12586">
        <ele>167</ele>
        <time>2019-02-17T10:11:50Z</time>
      </trkpt>
      <trkpt lat="48.78182" lon="2.12594">
        <ele>167</ele>
        <time>2019-02-17T10:11:55Z</time>
      </trkpt>
      <trkpt lat="48.78184" lon="2.12628">
        <ele>168</ele>
        <time>2019-02-17T10:12:19Z</time>
      </trkpt>
      <trkpt lat="48.78188" lon="2.12642">
        <ele>168</ele>
        <time>2019-02-17T10:12:29Z</time>
      </trkpt>
      <trkpt lat="48.78188" lon="2.12657">
        <ele>168</ele>
        <time>2019-02-17T10:12:37Z</time>
      </trkpt>
      <trkpt lat="48.78181" lon="2.12669">
        <ele>168</ele>
        <time>2019-02-17T10:12:45Z</time>
      </trkpt>
      <trkpt lat="48.78176" lon="2.12672">
        <ele>167</ele>
        <time>2019-02-17T10:12:52Z</time>
      </trkpt>
      <trkpt lat="48.78166" lon="2.1267">
        <ele>167</ele>
        <time>2019-02-17T10:13:01Z</time>
      </trkpt>
      <trkpt lat="48.78155" lon="2.12662">
        <ele>167</ele>
        <time>2019-02-17T10:13:11Z</time>
      </trkpt>
      <trkpt lat="48.7815" lon="2.12653">
        <ele>166</ele>
        <time>2019-02-17T10:13:18Z</time>
      </trkpt>
      <trkpt lat="48.78136" lon="2.12642">
        <ele>166</ele>
        <time>2019-02-17T10:13:33Z</time>
      </trkpt>
      <trkpt lat="48.78123" lon="2.12622">
        <ele>165</ele>
        <time>2019-02-17T10:13:51Z</time>
      </trkpt>
      <trkpt lat="48.78096" lon="2.12595">
        <ele>164</ele>
        <time>2019-02-17T10:14:15Z</time>
      </trkpt>
      <trkpt lat="48.78071" lon="2.12548">
        <ele>162</ele>
        <time>2019-02-17T10:14:54Z</time>
      </trkpt>
      <trkpt lat="48.78062" lon="2.1254">
        <ele>162</ele>
        <time>2019-02-17T10:15:03Z</time>
      </trkpt>
      <trkpt lat="48.78056" lon="2.1253">
        <ele>162</ele>
        <time>2019-02-17T10:15:09Z</time>
      </trkpt>
      <trkpt lat="48.78048" lon="2.12523">
        <ele>161</ele>
        <time>2019-02-17T10:15:16Z</time>
      </trkpt>
      <trkpt lat="48.7802" lon="2.12489">
        <ele>160</ele>
        <time>2019-02-17T10:15:45Z</time>
      </trkpt>
      <trkpt lat="48.78017" lon="2.12482">
        <ele>159</ele>
        <time>2019-02-17T10:15:50Z</time>
      </trkpt>
      <trkpt lat="48.78014" lon="2.12478">
        <ele>159</ele>
        <time>2019-02-17T10:15:55Z</time>
      </trkpt>
      <trkpt lat="48.7801" lon="2.12468">
        <ele>158</ele>
        <time>2019-02-17T10:16:15Z</time>
      </trkpt>
      <trkpt lat="48.78013" lon="2.12461">
        <ele>158</ele>
        <time>2019-02-17T10:16:21Z</time>
      </trkpt>
      <trkpt lat="48.78016" lon="2.12456">
        <ele>158</ele>
        <time>2019-02-17T10:16:25Z</time>
      </trkpt>
      <trkpt lat="48.78032" lon="2.12436">
        <ele>159</ele>
        <time>2019-02-17T10:16:46Z</time>
      </trkpt>
      <trkpt lat="48.78039" lon="2.12434">
        <ele>160</ele>
        <time>2019-02-17T10:16:54Z</time>
      </trkpt>
      <trkpt lat="48.78046" lon="2.12424">
        <ele>160</ele>
        <time>2019-02-17T10:17:04Z</time>
      </trkpt>
      <trkpt lat="48.78051" lon="2.12421">
        <ele>160</ele>
        <time>2019-02-17T10:17:09Z</time>
      </trkpt>
      <trkpt lat="48.78075" lon="2.12398">
        <ele>161</ele>
        <time>2019-02-17T10:17:36Z</time>
      </trkpt>
      <trkpt lat="48.78112" lon="2.12378">
        <ele>163</ele>
        <time>2019-02-17T10:18:13Z</time>
      </trkpt>
      <trkpt lat="48.78128" lon="2.12375">
        <ele>164</ele>
        <time>2019-02-17T10:18:27Z</time>
      </trkpt>
      <trkpt lat="48.78137" lon="2.12367">
        <ele>164</ele>
        <time>2019-02-17T10:18:40Z</time>
      </trkpt>
      <trkpt lat="48.78142" lon="2.12368">
        <ele>165</ele>
        <time>2019-02-17T10:18:52Z</time>
      </trkpt>
      <trkpt lat="48.78147" lon="2.1237">
        <ele>165</ele>
        <time>2019-02-17T10:19:08Z</time>
      </trkpt>
      <trkpt lat="48.78152" lon="2.12374">
        <ele>165</ele>
        <time>2019-02-17T10:19:28Z</time>
      </trkpt>
      <trkpt lat="48.78157" lon="2.12374">
        <ele>165</ele>
        <time>2019-02-17T10:19:50Z</time>
      </trkpt>
      <trkpt lat="48.78148" lon="2.12379">
        <ele>164</ele>
        <time>2019-02-17T10:20:51Z</time>
      </trkpt>
      <trkpt lat="48.78144" lon="2.12382">
        <ele>164</ele>
        <time>2019-02-17T10:20:57Z</time>
      </trkpt>
      <trkpt lat="48.78138" lon="2.12388">
        <ele>164</ele>
        <time>2019-02-17T10:21:05Z</time>
      </trkpt>
      <trkpt lat="48.78131" lon="2.12392">
        <ele>163</ele>
        <time>2019-02-17T10:21:14Z</time>
      </trkpt>
      <trkpt lat="48.78126" lon="2.12399">
        <ele>163</ele>
        <time>2019-02-17T10:21:20Z</time>
      </trkpt>
      <trkpt lat="48.78117" lon="2.12401">
        <ele>162</ele>
        <time>2019-02-17T10:21:29Z</time>
      </trkpt>
      <trkpt lat="48.78091" lon="2.12413">
        <ele>161</ele>
        <time>2019-02-17T10:21:54Z</time>
      </trkpt>
      <trkpt lat="48.78086" lon="2.12416">
        <ele>162</ele>
        <time>2019-02-17T10:21:59Z</time>
      </trkpt>
      <trkpt lat="48.78052" lon="2.12436">
        <ele>160</ele>
        <time>2019-02-17T10:22:28Z</time>
      </trkpt>
      <trkpt lat="48.78048" lon="2.1244">
        <ele>160</ele>
        <time>2019-02-17T10:22:33Z</time>
      </trkpt>
      <trkpt lat="48.78042" lon="2.12442">
        <ele>159</ele>
        <time>2019-02-17T10:22:37Z</time>
      </trkpt>
      <trkpt lat="48.78023" lon="2.12451">
        <ele>159</ele>
        <time>2019-02-17T10:22:53Z</time>
      </trkpt>
      <trkpt lat="48.78008" lon="2.12455">
        <ele>159</ele>
        <time>2019-02-17T10:23:04Z</time>
      </trkpt>
      <trkpt lat="48.78003" lon="2.12453">
        <ele>158</ele>
        <time>2019-02-17T10:23:08Z</time>
      </trkpt>
      <trkpt lat="48.78001" lon="2.12446">
        <ele>158</ele>
        <time>2019-02-17T10:23:13Z</time>
      </trkpt>
      <trkpt lat="48.77995" lon="2.12407">
        <ele>155</ele>
        <time>2019-02-17T10:23:42Z</time>
      </trkpt>
      <trkpt lat="48.77998" lon="2.12392">
        <ele>154</ele>
        <time>2019-02-17T10:23:51Z</time>
      </trkpt>
      <trkpt lat="48.78" lon="2.12345">
        <ele>155</ele>
        <time>2019-02-17T10:24:19Z</time>
      </trkpt>
      <trkpt lat="48.77999" lon="2.12338">
        <ele>155</ele>
        <time>2019-02-17T10:24:24Z</time>
      </trkpt>
      <trkpt lat="48.77998" lon="2.12314">
        <ele>156</ele>
        <time>2019-02-17T10:24:42Z</time>
      </trkpt>
      <trkpt lat="48.77994" lon="2.12306">
        <ele>155</ele>
        <time>2019-02-17T10:24:50Z</time>
      </trkpt>
      <trkpt lat="48.77992" lon="2.12299">
        <ele>155</ele>
        <time>2019-02-17T10:24:53Z</time>
      </trkpt>
      <trkpt lat="48.77989" lon="2.12283">
        <ele>156</ele>
        <time>2019-02-17T10:25:03Z</time>
      </trkpt>
      <trkpt lat="48.7799" lon="2.12268">
        <ele>156</ele>
        <time>2019-02-17T10:25:12Z</time>
      </trkpt>
      <trkpt lat="48.77989" lon="2.12261">
        <ele>155</ele>
        <time>2019-02-17T10:25:17Z</time>
      </trkpt>
      <trkpt lat="48.77984" lon="2.12256">
        <ele>156</ele>
        <time>2019-02-17T10:25:25Z</time>
      </trkpt>
      <trkpt lat="48.77985" lon="2.12247">
        <ele>156</ele>
        <time>2019-02-17T10:25:38Z</time>
      </trkpt>
      <trkpt lat="48.77983" lon="2.12241">
        <ele>156</ele>
        <time>2019-02-17T10:25:42Z</time>
      </trkpt>
      <trkpt lat="48.7798" lon="2.12234">
        <ele>156</ele>
        <time>2019-02-17T10:25:47Z</time>
      </trkpt>
      <trkpt lat="48.77976" lon="2.12231">
        <ele>156</ele>
        <time>2019-02-17T10:25:51Z</time>
      </trkpt>
      <trkpt lat="48.77973" lon="2.12225">
        <ele>156</ele>
        <time>2019-02-17T10:25:55Z</time>
      </trkpt>
      <trkpt lat="48.77968" lon="2.12219">
        <ele>156</ele>
        <time>2019-02-17T10:25:59Z</time>
      </trkpt>
      <trkpt lat="48.77958" lon="2.12216">
        <ele>156</ele>
        <time>2019-02-17T10:26:07Z</time>
      </trkpt>
      <trkpt lat="48.77953" lon="2.12215">
        <ele>156</ele>
        <time>2019-02-17T10:26:12Z</time>
      </trkpt>
      <trkpt lat="48.77948" lon="2.12216">
        <ele>155</ele>
        <time>2019-02-17T10:26:17Z</time>
      </trkpt>
      <trkpt lat="48.7794" lon="2.12213">
        <ele>154</ele>
        <time>2019-02-17T10:26:27Z</time>
      </trkpt>
      <trkpt lat="48.77933" lon="2.12207">
        <ele>154</ele>
        <time>2019-02-17T10:26:36Z</time>
      </trkpt>
      <trkpt lat="48.77921" lon="2.12201">
        <ele>154</ele>
        <time>2019-02-17T10:26:49Z</time>
      </trkpt>
      <trkpt lat="48.77911" lon="2.12195">
        <ele>154</ele>
        <time>2019-02-17T10:26:57Z</time>
      </trkpt>
      <trkpt lat="48.77908" lon="2.12189">
        <ele>153</ele>
        <time>2019-02-17T10:27:01Z</time>
      </trkpt>
      <trkpt lat="48.77905" lon="2.12181">
        <ele>153</ele>
        <time>2019-02-17T10:27:04Z</time>
      </trkpt>
      <trkpt lat="48.77901" lon="2.12176">
        <ele>153</ele>
        <time>2019-02-17T10:27:08Z</time>
      </trkpt>
      <trkpt lat="48.77896" lon="2.12177">
        <ele>153</ele>
        <time>2019-02-17T10:27:11Z</time>
      </trkpt>
      <trkpt lat="48.77884" lon="2.12159">
        <ele>151</ele>
        <time>2019-02-17T10:27:25Z</time>
      </trkpt>
      <trkpt lat="48.77875" lon="2.12135">
        <ele>148</ele>
        <time>2019-02-17T10:27:43Z</time>
      </trkpt>
      <trkpt lat="48.77873" lon="2.12109">
        <ele>145</ele>
        <time>2019-02-17T10:28:02Z</time>
      </trkpt>
      <trkpt lat="48.7787" lon="2.12103">
        <ele>145</ele>
        <time>2019-02-17T10:28:07Z</time>
      </trkpt>
      <trkpt lat="48.77868" lon="2.12097">
        <ele>144</ele>
        <time>2019-02-17T10:28:11Z</time>
      </trkpt>
      <trkpt lat="48.77859" lon="2.12088">
        <ele>142</ele>
        <time>2019-02-17T10:28:18Z</time>
      </trkpt>
      <trkpt lat="48.77854" lon="2.12076">
        <ele>139</ele>
        <time>2019-02-17T10:28:27Z</time>
      </trkpt>
      <trkpt lat="48.77843" lon="2.12035">
        <ele>134</ele>
        <time>2019-02-17T10:28:56Z</time>
      </trkpt>
      <trkpt lat="48.7784" lon="2.12029">
        <ele>133</ele>
        <time>2019-02-17T10:29:04Z</time>
      </trkpt>
      <trkpt lat="48.77835" lon="2.12024">
        <ele>132</ele>
        <time>2019-02-17T10:29:11Z</time>
      </trkpt>
      <trkpt lat="48.7783" lon="2.12008">
        <ele>129</ele>
        <time>2019-02-17T10:29:25Z</time>
      </trkpt>
      <trkpt lat="48.7782" lon="2.11963">
        <ele>121</ele>
        <time>2019-02-17T10:30:06Z</time>
      </trkpt>
      <trkpt lat="48.77815" lon="2.1195">
        <ele>118</ele>
        <time>2019-02-17T10:30:24Z</time>
      </trkpt>
      <trkpt lat="48.77788" lon="2.11936">
        <ele>113</ele>
        <time>2019-02-17T10:30:52Z</time>
      </trkpt>
      <trkpt lat="48.77784" lon="2.11931">
        <ele>112</ele>
        <time>2019-02-17T10:30:56Z</time>
      </trkpt>
      <trkpt lat="48.77774" lon="2.11923">
        <ele>111</ele>
        <time>2019-02-17T10:31:05Z</time>
      </trkpt>
      <trkpt lat="48.77772" lon="2.11917">
        <ele>111</ele>
        <time>2019-02-17T10:31:08Z</time>
      </trkpt>
      <trkpt lat="48.77768" lon="2.119">
        <ele>111</ele>
        <time>2019-02-17T10:31:14Z</time>
      </trkpt>
      <trkpt lat="48.77768" lon="2.11893">
        <ele>111</ele>
        <time>2019-02-17T10:31:17Z</time>
      </trkpt>
      <trkpt lat="48.7776" lon="2.1186">
        <ele>111</ele>
        <time>2019-02-17T10:31:34Z</time>
      </trkpt>
      <trkpt lat="48.7776" lon="2.11835">
        <ele>111</ele>
        <time>2019-02-17T10:31:47Z</time>
      </trkpt>
      <trkpt lat="48.77751" lon="2.11809">
        <ele>110</ele>
        <time>2019-02-17T10:32:09Z</time>
      </trkpt>
      <trkpt lat="48.77749" lon="2.11802">
        <ele>111</ele>
        <time>2019-02-17T10:32:13Z</time>
      </trkpt>
      <trkpt lat="48.77738" lon="2.1175">
        <ele>111</ele>
        <time>2019-02-17T10:32:39Z</time>
      </trkpt>
      <trkpt lat="48.77738" lon="2.11734">
        <ele>111</ele>
        <time>2019-02-17T10:32:46Z</time>
      </trkpt>
      <trkpt lat="48.77736" lon="2.11728">
        <ele>111</ele>
        <time>2019-02-17T10:32:50Z</time>
      </trkpt>
      <trkpt lat="48.77736" lon="2.11703">
        <ele>111</ele>
        <time>2019-02-17T10:33:03Z</time>
      </trkpt>
      <trkpt lat="48.77734" lon="2.11697">
        <ele>112</ele>
        <time>2019-02-17T10:33:07Z</time>
      </trkpt>
      <trkpt lat="48.77725" lon="2.11632">
        <ele>111</ele>
        <time>2019-02-17T10:33:42Z</time>
      </trkpt>
      <trkpt lat="48.77716" lon="2.11606">
        <ele>111</ele>
        <time>2019-02-17T10:33:58Z</time>
      </trkpt>
      <trkpt lat="48.77712" lon="2.11577">
        <ele>112</ele>
        <time>2019-02-17T10:34:12Z</time>
      </trkpt>
      <trkpt lat="48.77707" lon="2.11563">
        <ele>112</ele>
        <time>2019-02-17T10:34:20Z</time>
      </trkpt>
      <trkpt lat="48.77693" lon="2.11541">
        <ele>112</ele>
        <time>2019-02-17T10:34:35Z</time>
      </trkpt>
      <trkpt lat="48.77685" lon="2.11514">
        <ele>112</ele>
        <time>2019-02-17T10:34:49Z</time>
      </trkpt>
      <trkpt lat="48.77685" lon="2.11498">
        <ele>112</ele>
        <time>2019-02-17T10:34:56Z</time>
      </trkpt>
      <trkpt lat="48.77681" lon="2.11485">
        <ele>112</ele>
        <time>2019-02-17T10:35:03Z</time>
      </trkpt>
      <trkpt lat="48.77681" lon="2.1147">
        <ele>111</ele>
        <time>2019-02-17T10:35:10Z</time>
      </trkpt>
      <trkpt lat="48.77699" lon="2.11405">
        <ele>112</ele>
        <time>2019-02-17T10:35:46Z</time>
      </trkpt>
      <trkpt lat="48.777" lon="2.11391">
        <ele>113</ele>
        <time>2019-02-17T10:35:54Z</time>
      </trkpt>
      <trkpt lat="48.77698" lon="2.11377">
        <ele>113</ele>
        <time>2019-02-17T10:36:02Z</time>
      </trkpt>
      <trkpt lat="48.77697" lon="2.11348">
        <ele>113</ele>
        <time>2019-02-17T10:36:19Z</time>
      </trkpt>
      <trkpt lat="48.77698" lon="2.11317">
        <ele>113</ele>
        <time>2019-02-17T10:36:34Z</time>
      </trkpt>
      <trkpt lat="48.77705" lon="2.1129">
        <ele>114</ele>
        <time>2019-02-17T10:36:48Z</time>
      </trkpt>
      <trkpt lat="48.77705" lon="2.11277">
        <ele>115</ele>
        <time>2019-02-17T10:36:57Z</time>
      </trkpt>
      <trkpt lat="48.777" lon="2.11258">
        <ele>114</ele>
        <time>2019-02-17T10:37:11Z</time>
      </trkpt>
      <trkpt lat="48.77697" lon="2.11212">
        <ele>114</ele>
        <time>2019-02-17T10:37:34Z</time>
      </trkpt>
      <trkpt lat="48.77698" lon="2.11183">
        <ele>115</ele>
        <time>2019-02-17T10:37:48Z</time>
      </trkpt>
      <trkpt lat="48.77695" lon="2.11169">
        <ele>115</ele>
        <time>2019-02-17T10:37:56Z</time>
      </trkpt>
      <trkpt lat="48.77691" lon="2.11155">
        <ele>115</ele>
        <time>2019-02-17T10:38:04Z</time>
      </trkpt>
      <trkpt lat="48.77687" lon="2.11124">
        <ele>115</ele>
        <time>2019-02-17T10:38:18Z</time>
      </trkpt>
      <trkpt lat="48.77669" lon="2.11066">
        <ele>116</ele>
        <time>2019-02-17T10:38:55Z</time>
      </trkpt>
      <trkpt lat="48.77666" lon="2.11052">
        <ele>116</ele>
        <time>2019-02-17T10:39:04Z</time>
      </trkpt>
      <trkpt lat="48.7766" lon="2.11027">
        <ele>116</ele>
        <time>2019-02-17T10:39:18Z</time>
      </trkpt>
      <trkpt lat="48.77648" lon="2.11004">
        <ele>117</ele>
        <time>2019-02-17T10:39:32Z</time>
      </trkpt>
      <trkpt lat="48.77645" lon="2.10989">
        <ele>117</ele>
        <time>2019-02-17T10:39:39Z</time>
      </trkpt>
      <trkpt lat="48.77645" lon="2.10981">
        <ele>117</ele>
        <time>2019-02-17T10:39:42Z</time>
      </trkpt>
      <trkpt lat="48.77642" lon="2.10973">
        <ele>117</ele>
        <time>2019-02-17T10:39:47Z</time>
      </trkpt>
      <trkpt lat="48.77628" lon="2.10953">
        <ele>117</ele>
        <time>2019-02-17T10:40:02Z</time>
      </trkpt>
      <trkpt lat="48.77624" lon="2.1095">
        <ele>117</ele>
        <time>2019-02-17T10:40:05Z</time>
      </trkpt>
      <trkpt lat="48.7762" lon="2.10944">
        <ele>117</ele>
        <time>2019-02-17T10:40:10Z</time>
      </trkpt>
      <trkpt lat="48.77617" lon="2.10929">
        <ele>118</ele>
        <time>2019-02-17T10:40:18Z</time>
      </trkpt>
      <trkpt lat="48.77606" lon="2.1091">
        <ele>118</ele>
        <time>2019-02-17T10:40:32Z</time>
      </trkpt>
      <trkpt lat="48.77605" lon="2.10903">
        <ele>118</ele>
        <time>2019-02-17T10:40:36Z</time>
      </trkpt>
      <trkpt lat="48.77599" lon="2.10891">
        <ele>118</ele>
        <time>2019-02-17T10:40:43Z</time>
      </trkpt>
      <trkpt lat="48.77595" lon="2.10885">
        <ele>118</ele>
        <time>2019-02-17T10:40:47Z</time>
      </trkpt>
      <trkpt lat="48.77594" lon="2.10877">
        <ele>119</ele>
        <time>2019-02-17T10:40:51Z</time>
      </trkpt>
      <trkpt lat="48.77583" lon="2.10852">
        <ele>119</ele>
        <time>2019-02-17T10:41:06Z</time>
      </trkpt>
      <trkpt lat="48.77579" lon="2.10847">
        <ele>119</ele>
        <time>2019-02-17T10:41:13Z</time>
      </trkpt>
      <trkpt lat="48.77574" lon="2.10843">
        <ele>119</ele>
        <time>2019-02-17T10:41:19Z</time>
      </trkpt>
      <trkpt lat="48.77572" lon="2.10837">
        <ele>119</ele>
        <time>2019-02-17T10:41:31Z</time>
      </trkpt>
      <trkpt lat="48.77578" lon="2.10827">
        <ele>119</ele>
        <time>2019-02-17T10:42:28Z</time>
      </trkpt>
      <trkpt lat="48.77574" lon="2.10819">
        <ele>120</ele>
        <time>2019-02-17T10:43:18Z</time>
      </trkpt>
      <trkpt lat="48.77569" lon="2.10815">
        <ele>120</ele>
        <time>2019-02-17T10:43:22Z</time>
      </trkpt>
      <trkpt lat="48.77565" lon="2.10795">
        <ele>121</ele>
        <time>2019-02-17T10:43:36Z</time>
      </trkpt>
      <trkpt lat="48.77565" lon="2.10788">
        <ele>121</ele>
        <time>2019-02-17T10:43:41Z</time>
      </trkpt>
      <trkpt lat="48.77564" lon="2.1078">
        <ele>121</ele>
        <time>2019-02-17T10:43:46Z</time>
      </trkpt>
      <trkpt lat="48.77556" lon="2.10769">
        <ele>121</ele>
        <time>2019-02-17T10:44:00Z</time>
      </trkpt>
      <trkpt lat="48.77554" lon="2.10763">
        <ele>122</ele>
        <time>2019-02-17T10:44:05Z</time>
      </trkpt>
      <trkpt lat="48.77539" lon="2.10744">
        <ele>122</ele>
        <time>2019-02-17T10:44:28Z</time>
      </trkpt>
      <trkpt lat="48.77532" lon="2.10733">
        <ele>122</ele>
        <time>2019-02-17T10:44:38Z</time>
      </trkpt>
      <trkpt lat="48.7753" lon="2.10716">
        <ele>122</ele>
        <time>2019-02-17T10:44:46Z</time>
      </trkpt>
      <trkpt lat="48.77529" lon="2.10709">
        <ele>122</ele>
        <time>2019-02-17T10:44:51Z</time>
      </trkpt>
      <trkpt lat="48.77528" lon="2.10701">
        <ele>121</ele>
        <time>2019-02-17T10:44:55Z</time>
      </trkpt>
      <trkpt lat="48.77534" lon="2.10677">
        <ele>121</ele>
        <time>2019-02-17T10:45:04Z</time>
      </trkpt>
      <trkpt lat="48.77539" lon="2.10664">
        <ele>121</ele>
        <time>2019-02-17T10:45:10Z</time>
      </trkpt>
      <trkpt lat="48.77541" lon="2.10657">
        <ele>121</ele>
        <time>2019-02-17T10:45:13Z</time>
      </trkpt>
      <trkpt lat="48.77564" lon="2.10608">
        <ele>121</ele>
        <time>2019-02-17T10:45:45Z</time>
      </trkpt>
      <trkpt lat="48.7759" lon="2.1055">
        <ele>121</ele>
        <time>2019-02-17T10:46:19Z</time>
      </trkpt>
      <trkpt lat="48.77599" lon="2.10509">
        <ele>122</ele>
        <time>2019-02-17T10:46:39Z</time>
      </trkpt>
      <trkpt lat="48.77614" lon="2.10439">
        <ele>121</ele>
        <time>2019-02-17T10:47:17Z</time>
      </trkpt>
      <trkpt lat="48.77618" lon="2.10422">
        <ele>120</ele>
        <time>2019-02-17T10:47:26Z</time>
      </trkpt>
      <trkpt lat="48.77617" lon="2.10394">
        <ele>121</ele>
        <time>2019-02-17T10:47:40Z</time>
      </trkpt>
      <trkpt lat="48.7762" lon="2.10351">
        <ele>121</ele>
        <time>2019-02-17T10:48:05Z</time>
      </trkpt>
      <trkpt lat="48.77619" lon="2.10337">
        <ele>121</ele>
        <time>2019-02-17T10:48:14Z</time>
      </trkpt>
      <trkpt lat="48.7761" lon="2.1028">
        <ele>121</ele>
        <time>2019-02-17T10:48:43Z</time>
      </trkpt>
      <trkpt lat="48.7761" lon="2.1025">
        <ele>121</ele>
        <time>2019-02-17T10:48:58Z</time>
      </trkpt>
      <trkpt lat="48.77608" lon="2.10207">
        <ele>121</ele>
        <time>2019-02-17T10:49:20Z</time>
      </trkpt>
      <trkpt lat="48.77613" lon="2.10177">
        <ele>121</ele>
        <time>2019-02-17T10:49:31Z</time>
      </trkpt>
      <trkpt lat="48.77613" lon="2.10163">
        <ele>121</ele>
        <time>2019-02-17T10:49:37Z</time>
      </trkpt>
      <trkpt lat="48.77618" lon="2.10119">
        <ele>121</ele>
        <time>2019-02-17T10:49:58Z</time>
      </trkpt>
      <trkpt lat="48.77617" lon="2.10105">
        <ele>121</ele>
        <time>2019-02-17T10:50:06Z</time>
      </trkpt>
      <trkpt lat="48.77625" lon="2.10068">
        <ele>122</ele>
        <time>2019-02-17T10:50:37Z</time>
      </trkpt>
      <trkpt lat="48.77625" lon="2.10061">
        <ele>122</ele>
        <time>2019-02-17T10:50:42Z</time>
      </trkpt>
      <trkpt lat="48.77628" lon="2.10054">
        <ele>122</ele>
        <time>2019-02-17T10:50:46Z</time>
      </trkpt>
      <trkpt lat="48.7764" lon="2.10029">
        <ele>121</ele>
        <time>2019-02-17T10:51:03Z</time>
      </trkpt>
      <trkpt lat="48.77654" lon="2.10018">
        <ele>121</ele>
        <time>2019-02-17T10:51:16Z</time>
      </trkpt>
      <trkpt lat="48.77687" lon="2.10005">
        <ele>121</ele>
        <time>2019-02-17T10:51:41Z</time>
      </trkpt>
      <trkpt lat="48.77715" lon="2.10005">
        <ele>122</ele>
        <time>2019-02-17T10:52:04Z</time>
      </trkpt>
      <trkpt lat="48.77724" lon="2.1">
        <ele>121</ele>
        <time>2019-02-17T10:52:13Z</time>
      </trkpt>
      <trkpt lat="48.77733" lon="2.09997">
        <ele>122</ele>
        <time>2019-02-17T10:52:21Z</time>
      </trkpt>
      <trkpt lat="48.77742" lon="2.09998">
        <ele>122</ele>
        <time>2019-02-17T10:52:28Z</time>
      </trkpt>
      <trkpt lat="48.77751" lon="2.09997">
        <ele>122</ele>
        <time>2019-02-17T10:52:38Z</time>
      </trkpt>
      <trkpt lat="48.7776" lon="2.10008">
        <ele>122</ele>
        <time>2019-02-17T10:52:43Z</time>
      </trkpt>
      <trkpt lat="48.77778" lon="2.10009">
        <ele>122</ele>
        <time>2019-02-17T10:52:58Z</time>
      </trkpt>
      <trkpt lat="48.77793" lon="2.09999">
        <ele>122</ele>
        <time>2019-02-17T10:53:18Z</time>
      </trkpt>
      <trkpt lat="48.77799" lon="2.09984">
        <ele>123</ele>
        <time>2019-02-17T10:53:37Z</time>
      </trkpt>
      <trkpt lat="48.77813" lon="2.09928">
        <ele>124</ele>
        <time>2019-02-17T10:54:04Z</time>
      </trkpt>
      <trkpt lat="48.7783" lon="2.09894">
        <ele>123</ele>
        <time>2019-02-17T10:54:26Z</time>
      </trkpt>
      <trkpt lat="48.77851" lon="2.09866">
        <ele>123</ele>
        <time>2019-02-17T10:54:51Z</time>
      </trkpt>
      <trkpt lat="48.77871" lon="2.0986">
        <ele>123</ele>
        <time>2019-02-17T10:55:04Z</time>
      </trkpt>
      <trkpt lat="48.77889" lon="2.09861">
        <ele>123</ele>
        <time>2019-02-17T10:55:16Z</time>
      </trkpt>
      <trkpt lat="48.77901" lon="2.09866">
        <ele>124</ele>
        <time>2019-02-17T10:55:26Z</time>
      </trkpt>
      <trkpt lat="48.77905" lon="2.09871">
        <ele>124</ele>
        <time>2019-02-17T10:55:33Z</time>
      </trkpt>
      <trkpt lat="48.77908" lon="2.09879">
        <ele>124</ele>
        <time>2019-02-17T10:55:37Z</time>
      </trkpt>
      <trkpt lat="48.77913" lon="2.09883">
        <ele>124</ele>
        <time>2019-02-17T10:55:40Z</time>
      </trkpt>
      <trkpt lat="48.77935" lon="2.09891">
        <ele>124</ele>
        <time>2019-02-17T10:55:55Z</time>
      </trkpt>
      <trkpt lat="48.77943" lon="2.09895">
        <ele>124</ele>
        <time>2019-02-17T10:56:04Z</time>
      </trkpt>
      <trkpt lat="48.77959" lon="2.09903">
        <ele>125</ele>
        <time>2019-02-17T10:56:16Z</time>
      </trkpt>
      <trkpt lat="48.77994" lon="2.09904">
        <ele>125</ele>
        <time>2019-02-17T10:56:44Z</time>
      </trkpt>
      <trkpt lat="48.7801" lon="2.09886">
        <ele>127</ele>
        <time>2019-02-17T10:57:00Z</time>
      </trkpt>
      <trkpt lat="48.78019" lon="2.09888">
        <ele>127</ele>
        <time>2019-02-17T10:57:09Z</time>
      </trkpt>
      <trkpt lat="48.78028" lon="2.09882">
        <ele>128</ele>
        <time>2019-02-17T10:57:19Z</time>
      </trkpt>
      <trkpt lat="48.78044" lon="2.09857">
        <ele>131</ele>
        <time>2019-02-17T10:57:40Z</time>
      </trkpt>
      <trkpt lat="48.78055" lon="2.09828">
        <ele>131</ele>
        <time>2019-02-17T10:58:00Z</time>
      </trkpt>
      <trkpt lat="48.78059" lon="2.09803">
        <ele>131</ele>
        <time>2019-02-17T10:58:15Z</time>
      </trkpt>
      <trkpt lat="48.78058" lon="2.09792">
        <ele>131</ele>
        <time>2019-02-17T10:58:23Z</time>
      </trkpt>
      <trkpt lat="48.78057" lon="2.09781">
        <ele>131</ele>
        <time>2019-02-17T10:58:31Z</time>
      </trkpt>
      <trkpt lat="48.78056" lon="2.09751">
        <ele>131</ele>
        <time>2019-02-17T10:58:46Z</time>
      </trkpt>
      <trkpt lat="48.78054" lon="2.09736">
        <ele>131</ele>
        <time>2019-02-17T10:58:56Z</time>
      </trkpt>
      <trkpt lat="48.78033" lon="2.09687">
        <ele>130</ele>
        <time>2019-02-17T10:59:25Z</time>
      </trkpt>
      <trkpt lat="48.7803" lon="2.09669">
        <ele>130</ele>
        <time>2019-02-17T10:59:35Z</time>
      </trkpt>
      <trkpt lat="48.7803" lon="2.09599">
        <ele>132</ele>
        <time>2019-02-17T11:00:03Z</time>
      </trkpt>
      <trkpt lat="48.78029" lon="2.09575">
        <ele>134</ele>
        <time>2019-02-17T11:00:23Z</time>
      </trkpt>
      <trkpt lat="48.78037" lon="2.09567">
        <ele>135</ele>
        <time>2019-02-17T11:00:32Z</time>
      </trkpt>
      <trkpt lat="48.78042" lon="2.09553">
        <ele>135</ele>
        <time>2019-02-17T11:01:01Z</time>
      </trkpt>
      <trkpt lat="48.7804" lon="2.09548">
        <ele>135</ele>
        <time>2019-02-17T11:01:06Z</time>
      </trkpt>
      <trkpt lat="48.78038" lon="2.0954">
        <ele>136</ele>
        <time>2019-02-17T11:01:26Z</time>
      </trkpt>
      <trkpt lat="48.78039" lon="2.09532">
        <ele>136</ele>
        <time>2019-02-17T11:01:38Z</time>
      </trkpt>
      <trkpt lat="48.78039" lon="2.09524">
        <ele>136</ele>
        <time>2019-02-17T11:01:50Z</time>
      </trkpt>
      <trkpt lat="48.78038" lon="2.09517">
        <ele>136</ele>
        <time>2019-02-17T11:01:56Z</time>
      </trkpt>
      <trkpt lat="48.7803" lon="2.09498">
        <ele>133</ele>
        <time>2019-02-17T11:02:10Z</time>
      </trkpt>
      <trkpt lat="48.78028" lon="2.0949">
        <ele>132</ele>
        <time>2019-02-17T11:02:15Z</time>
      </trkpt>
      <trkpt lat="48.78025" lon="2.0947">
        <ele>132</ele>
        <time>2019-02-17T11:02:28Z</time>
      </trkpt>
      <trkpt lat="48.78026" lon="2.09462">
        <ele>131</ele>
        <time>2019-02-17T11:02:33Z</time>
      </trkpt>
      <trkpt lat="48.78026" lon="2.09452">
        <ele>132</ele>
        <time>2019-02-17T11:02:37Z</time>
      </trkpt>
      <trkpt lat="48.78025" lon="2.09441">
        <ele>131</ele>
        <time>2019-02-17T11:03:05Z</time>
      </trkpt>
      <trkpt lat="48.78025" lon="2.09434">
        <ele>131</ele>
        <time>2019-02-17T11:03:09Z</time>
      </trkpt>
      <trkpt lat="48.78023" lon="2.09421">
        <ele>131</ele>
        <time>2019-02-17T11:03:18Z</time>
      </trkpt>
      <trkpt lat="48.78025" lon="2.09406">
        <ele>131</ele>
        <time>2019-02-17T11:03:24Z</time>
      </trkpt>
      <trkpt lat="48.78023" lon="2.09397">
        <ele>131</ele>
        <time>2019-02-17T11:03:33Z</time>
      </trkpt>
      <trkpt lat="48.78023" lon="2.09357">
        <ele>131</ele>
        <time>2019-02-17T11:04:02Z</time>
      </trkpt>
      <trkpt lat="48.78022" lon="2.0935">
        <ele>130</ele>
        <time>2019-02-17T11:04:07Z</time>
      </trkpt>
      <trkpt lat="48.78026" lon="2.09326">
        <ele>130</ele>
        <time>2019-02-17T11:04:19Z</time>
      </trkpt>
      <trkpt lat="48.78023" lon="2.09313">
        <ele>130</ele>
        <time>2019-02-17T11:04:28Z</time>
      </trkpt>
      <trkpt lat="48.78026" lon="2.09262">
        <ele>130</ele>
        <time>2019-02-17T11:04:59Z</time>
      </trkpt>
      <trkpt lat="48.78039" lon="2.09236">
        <ele>130</ele>
        <time>2019-02-17T11:05:13Z</time>
      </trkpt>
      <trkpt lat="48.78042" lon="2.09219">
        <ele>130</ele>
        <time>2019-02-17T11:05:25Z</time>
      </trkpt>
      <trkpt lat="48.78045" lon="2.09195">
        <ele>129</ele>
        <time>2019-02-17T11:05:37Z</time>
      </trkpt>
      <trkpt lat="48.78052" lon="2.09167">
        <ele>130</ele>
        <time>2019-02-17T11:05:50Z</time>
      </trkpt>
      <trkpt lat="48.78058" lon="2.09157">
        <ele>129</ele>
        <time>2019-02-17T11:06:00Z</time>
      </trkpt>
      <trkpt lat="48.78063" lon="2.09156">
        <ele>129</ele>
        <time>2019-02-17T11:06:04Z</time>
      </trkpt>
      <trkpt lat="48.78066" lon="2.09149">
        <ele>129</ele>
        <time>2019-02-17T11:06:08Z</time>
      </trkpt>
      <trkpt lat="48.7807" lon="2.09145">
        <ele>129</ele>
        <time>2019-02-17T11:06:12Z</time>
      </trkpt>
      <trkpt lat="48.78077" lon="2.09132">
        <ele>129</ele>
        <time>2019-02-17T11:06:21Z</time>
      </trkpt>
      <trkpt lat="48.78089" lon="2.0912">
        <ele>129</ele>
        <time>2019-02-17T11:06:35Z</time>
      </trkpt>
      <trkpt lat="48.78095" lon="2.09119">
        <ele>129</ele>
        <time>2019-02-17T11:06:43Z</time>
      </trkpt>
      <trkpt lat="48.781" lon="2.09119">
        <ele>130</ele>
        <time>2019-02-17T11:07:07Z</time>
      </trkpt>
      <trkpt lat="48.78104" lon="2.09114">
        <ele>129</ele>
        <time>2019-02-17T11:07:11Z</time>
      </trkpt>
      <trkpt lat="48.78112" lon="2.09106">
        <ele>129</ele>
        <time>2019-02-17T11:07:19Z</time>
      </trkpt>
      <trkpt lat="48.78116" lon="2.09101">
        <ele>129</ele>
        <time>2019-02-17T11:07:23Z</time>
      </trkpt>
      <trkpt lat="48.7812" lon="2.09097">
        <ele>129</ele>
        <time>2019-02-17T11:07:27Z</time>
      </trkpt>
      <trkpt lat="48.78124" lon="2.09091">
        <ele>129</ele>
        <time>2019-02-17T11:07:31Z</time>
      </trkpt>
      <trkpt lat="48.78133" lon="2.09083">
        <ele>129</ele>
        <time>2019-02-17T11:07:39Z</time>
      </trkpt>
      <trkpt lat="48.78137" lon="2.09077">
        <ele>129</ele>
        <time>2019-02-17T11:07:43Z</time>
      </trkpt>
      <trkpt lat="48.78141" lon="2.09076">
        <ele>129</ele>
        <time>2019-02-17T11:07:47Z</time>
      </trkpt>
      <trkpt lat="48.78149" lon="2.09064">
        <ele>128</ele>
        <time>2019-02-17T11:07:55Z</time>
      </trkpt>
      <trkpt lat="48.78154" lon="2.09061">
        <ele>128</ele>
        <time>2019-02-17T11:07:59Z</time>
      </trkpt>
      <trkpt lat="48.7816" lon="2.0906">
        <ele>128</ele>
        <time>2019-02-17T11:08:03Z</time>
      </trkpt>
      <trkpt lat="48.78164" lon="2.09055">
        <ele>128</ele>
        <time>2019-02-17T11:08:08Z</time>
      </trkpt>
      <trkpt lat="48.78168" lon="2.09051">
        <ele>128</ele>
        <time>2019-02-17T11:08:12Z</time>
      </trkpt>
      <trkpt lat="48.78172" lon="2.09043">
        <ele>128</ele>
        <time>2019-02-17T11:08:18Z</time>
      </trkpt>
      <trkpt lat="48.78178" lon="2.09039">
        <ele>128</ele>
        <time>2019-02-17T11:08:23Z</time>
      </trkpt>
      <trkpt lat="48.78181" lon="2.09035">
        <ele>129</ele>
        <time>2019-02-17T11:08:27Z</time>
      </trkpt>
      <trkpt lat="48.78185" lon="2.09032">
        <ele>129</ele>
        <time>2019-02-17T11:08:35Z</time>
      </trkpt>
      <trkpt lat="48.78188" lon="2.09022">
        <ele>129</ele>
        <time>2019-02-17T11:08:39Z</time>
      </trkpt>
      <trkpt lat="48.78191" lon="2.09015">
        <ele>128</ele>
        <time>2019-02-17T11:08:44Z</time>
      </trkpt>
      <trkpt lat="48.78196" lon="2.08987">
        <ele>128</ele>
        <time>2019-02-17T11:09:01Z</time>
      </trkpt>
      <trkpt lat="48.78189" lon="2.08977">
        <ele>128</ele>
        <time>2019-02-17T11:09:10Z</time>
      </trkpt>
      <trkpt lat="48.7818" lon="2.08972">
        <ele>128</ele>
        <time>2019-02-17T11:09:19Z</time>
      </trkpt>
      <trkpt lat="48.78171" lon="2.0896">
        <ele>128</ele>
        <time>2019-02-17T11:09:31Z</time>
      </trkpt>
      <trkpt lat="48.78155" lon="2.08946">
        <ele>128</ele>
        <time>2019-02-17T11:09:51Z</time>
      </trkpt>
      <trkpt lat="48.78153" lon="2.08939">
        <ele>128</ele>
        <time>2019-02-17T11:10:06Z</time>
      </trkpt>
      <trkpt lat="48.78149" lon="2.08935">
        <ele>128</ele>
        <time>2019-02-17T11:11:49Z</time>
      </trkpt>
      <trkpt lat="48.78144" lon="2.0893">
        <ele>128</ele>
        <time>2019-02-17T11:14:23Z</time>
      </trkpt>
      <trkpt lat="48.78151" lon="2.08926">
        <ele>127</ele>
        <time>2019-02-17T11:15:53Z</time>
      </trkpt>
      <trkpt lat="48.78158" lon="2.08934">
        <ele>127</ele>
        <time>2019-02-17T11:17:44Z</time>
      </trkpt>
      <trkpt lat="48.78164" lon="2.08942">
        <ele>127</ele>
        <time>2019-02-17T11:17:51Z</time>
      </trkpt>
      <trkpt lat="48.78171" lon="2.08946">
        <ele>127</ele>
        <time>2019-02-17T11:18:02Z</time>
      </trkpt>
      <trkpt lat="48.78175" lon="2.08949">
        <ele>127</ele>
        <time>2019-02-17T11:18:07Z</time>
      </trkpt>
      <trkpt lat="48.78205" lon="2.08974">
        <ele>127</ele>
        <time>2019-02-17T11:18:39Z</time>
      </trkpt>
      <trkpt lat="48.7821" lon="2.08982">
        <ele>131</ele>
        <time>2019-02-17T11:18:58Z</time>
      </trkpt>
      <trkpt lat="48.7822" lon="2.08981">
        <ele>134</ele>
        <time>2019-02-17T11:19:16Z</time>
      </trkpt>
      <trkpt lat="48.78224" lon="2.08943">
        <ele>133</ele>
        <time>2019-02-17T11:19:49Z</time>
      </trkpt>
      <trkpt lat="48.78229" lon="2.08914">
        <ele>133</ele>
        <time>2019-02-17T11:20:06Z</time>
      </trkpt>
      <trkpt lat="48.78233" lon="2.08902">
        <ele>133</ele>
        <time>2019-02-17T11:20:14Z</time>
      </trkpt>
      <trkpt lat="48.78232" lon="2.08884">
        <ele>133</ele>
        <time>2019-02-17T11:20:32Z</time>
      </trkpt>
      <trkpt lat="48.78237" lon="2.08854">
        <ele>132</ele>
        <time>2019-02-17T11:20:45Z</time>
      </trkpt>
      <trkpt lat="48.78236" lon="2.08825">
        <ele>132</ele>
        <time>2019-02-17T11:21:00Z</time>
      </trkpt>
      <trkpt lat="48.7824" lon="2.0881">
        <ele>131</ele>
        <time>2019-02-17T11:21:08Z</time>
      </trkpt>
      <trkpt lat="48.78237" lon="2.08795">
        <ele>131</ele>
        <time>2019-02-17T11:21:12Z</time>
      </trkpt>
      <trkpt lat="48.78235" lon="2.08777">
        <ele>131</ele>
        <time>2019-02-17T11:21:18Z</time>
      </trkpt>
      <trkpt lat="48.7824" lon="2.08764">
        <ele>131</ele>
        <time>2019-02-17T11:21:25Z</time>
      </trkpt>
      <trkpt lat="48.78247" lon="2.0872">
        <ele>133</ele>
        <time>2019-02-17T11:21:51Z</time>
      </trkpt>
      <trkpt lat="48.78252" lon="2.08708">
        <ele>133</ele>
        <time>2019-02-17T11:21:57Z</time>
      </trkpt>
      <trkpt lat="48.78261" lon="2.08639">
        <ele>133</ele>
        <time>2019-02-17T11:22:35Z</time>
      </trkpt>
      <trkpt lat="48.78268" lon="2.08611">
        <ele>133</ele>
        <time>2019-02-17T11:22:51Z</time>
      </trkpt>
      <trkpt lat="48.78287" lon="2.08589">
        <ele>133</ele>
        <time>2019-02-17T11:23:13Z</time>
      </trkpt>
      <trkpt lat="48.78296" lon="2.08586">
        <ele>133</ele>
        <time>2019-02-17T11:23:20Z</time>
      </trkpt>
      <trkpt lat="48.78305" lon="2.08579">
        <ele>134</ele>
        <time>2019-02-17T11:23:27Z</time>
      </trkpt>
      <trkpt lat="48.78311" lon="2.08569">
        <ele>133</ele>
        <time>2019-02-17T11:23:34Z</time>
      </trkpt>
      <trkpt lat="48.7832" lon="2.08562">
        <ele>133</ele>
        <time>2019-02-17T11:23:42Z</time>
      </trkpt>
      <trkpt lat="48.78332" lon="2.08542">
        <ele>133</ele>
        <time>2019-02-17T11:23:57Z</time>
      </trkpt>
      <trkpt lat="48.78339" lon="2.08532">
        <ele>134</ele>
        <time>2019-02-17T11:24:06Z</time>
      </trkpt>
      <trkpt lat="48.78346" lon="2.08522">
        <ele>134</ele>
        <time>2019-02-17T11:24:15Z</time>
      </trkpt>
      <trkpt lat="48.78356" lon="2.08493">
        <ele>135</ele>
        <time>2019-02-17T11:24:36Z</time>
      </trkpt>
      <trkpt lat="48.78366" lon="2.08473">
        <ele>134</ele>
        <time>2019-02-17T11:24:54Z</time>
      </trkpt>
      <trkpt lat="48.78387" lon="2.0843">
        <ele>134</ele>
        <time>2019-02-17T11:25:26Z</time>
      </trkpt>
      <trkpt lat="48.78391" lon="2.08425">
        <ele>134</ele>
        <time>2019-02-17T11:25:31Z</time>
      </trkpt>
      <trkpt lat="48.78395" lon="2.08409">
        <ele>134</ele>
        <time>2019-02-17T11:25:43Z</time>
      </trkpt>
      <trkpt lat="48.78408" lon="2.08378">
        <ele>134</ele>
        <time>2019-02-17T11:26:04Z</time>
      </trkpt>
      <trkpt lat="48.78414" lon="2.08368">
        <ele>134</ele>
        <time>2019-02-17T11:26:13Z</time>
      </trkpt>
      <trkpt lat="48.78429" lon="2.08351">
        <ele>135</ele>
        <time>2019-02-17T11:26:29Z</time>
      </trkpt>
      <trkpt lat="48.78438" lon="2.08349">
        <ele>134</ele>
        <time>2019-02-17T11:26:37Z</time>
      </trkpt>
      <trkpt lat="48.78447" lon="2.08342">
        <ele>134</ele>
        <time>2019-02-17T11:26:46Z</time>
      </trkpt>
      <trkpt lat="48.78483" lon="2.08327">
        <ele>135</ele>
        <time>2019-02-17T11:27:18Z</time>
      </trkpt>
      <trkpt lat="48.7851" lon="2.08315">
        <ele>135</ele>
        <time>2019-02-17T11:27:41Z</time>
      </trkpt>
      <trkpt lat="48.7852" lon="2.08315">
        <ele>134</ele>
        <time>2019-02-17T11:27:49Z</time>
      </trkpt>
      <trkpt lat="48.78558" lon="2.08294">
        <ele>134</ele>
        <time>2019-02-17T11:28:26Z</time>
      </trkpt>
      <trkpt lat="48.78595" lon="2.08278">
        <ele>134</ele>
        <time>2019-02-17T11:28:58Z</time>
      </trkpt>
      <trkpt lat="48.78603" lon="2.08275">
        <ele>134</ele>
        <time>2019-02-17T11:29:05Z</time>
      </trkpt>
      <trkpt lat="48.78613" lon="2.08275">
        <ele>134</ele>
        <time>2019-02-17T11:29:13Z</time>
      </trkpt>
      <trkpt lat="48.7864" lon="2.08261">
        <ele>135</ele>
        <time>2019-02-17T11:29:37Z</time>
      </trkpt>
      <trkpt lat="48.78648" lon="2.08252">
        <ele>135</ele>
        <time>2019-02-17T11:29:44Z</time>
      </trkpt>
      <trkpt lat="48.78683" lon="2.08224">
        <ele>135</ele>
        <time>2019-02-17T11:30:17Z</time>
      </trkpt>
      <trkpt lat="48.78691" lon="2.08217">
        <ele>135</ele>
        <time>2019-02-17T11:30:25Z</time>
      </trkpt>
      <trkpt lat="48.78719" lon="2.08206">
        <ele>135</ele>
        <time>2019-02-17T11:30:50Z</time>
      </trkpt>
      <trkpt lat="48.78739" lon="2.08213">
        <ele>135</ele>
        <time>2019-02-17T11:31:09Z</time>
      </trkpt>
      <trkpt lat="48.78748" lon="2.08211">
        <ele>135</ele>
        <time>2019-02-17T11:31:19Z</time>
      </trkpt>
      <trkpt lat="48.78762" lon="2.08199">
        <ele>136</ele>
        <time>2019-02-17T11:31:37Z</time>
      </trkpt>
      <trkpt lat="48.78763" lon="2.08206">
        <ele>136</ele>
        <time>2019-02-17T11:32:26Z</time>
      </trkpt>
      <trkpt lat="48.78764" lon="2.08205">
        <ele>136</ele>
        <time>2019-02-17T11:32:49Z</time>
      </trkpt>
      <trkpt lat="48.78767" lon="2.08198">
        <ele>136</ele>
        <time>2019-02-17T11:32:59Z</time>
      </trkpt>
      <trkpt lat="48.78772" lon="2.08194">
        <ele>136</ele>
        <time>2019-02-17T11:33:11Z</time>
      </trkpt>
      <trkpt lat="48.78778" lon="2.08192">
        <ele>136</ele>
        <time>2019-02-17T11:33:17Z</time>
      </trkpt>
      <trkpt lat="48.78783" lon="2.08189">
        <ele>135</ele>
        <time>2019-02-17T11:33:20Z</time>
      </trkpt>
      <trkpt lat="48.78787" lon="2.08183">
        <ele>136</ele>
        <time>2019-02-17T11:33:24Z</time>
      </trkpt>
      <trkpt lat="48.78788" lon="2.08176">
        <ele>136</ele>
        <time>2019-02-17T11:33:34Z</time>
      </trkpt>
      <trkpt lat="48.78783" lon="2.08175">
        <ele>137</ele>
        <time>2019-02-17T11:33:52Z</time>
      </trkpt>
      <trkpt lat="48.78778" lon="2.08173">
        <ele>138</ele>
        <time>2019-02-17T11:33:57Z</time>
      </trkpt>
      <trkpt lat="48.78772" lon="2.08172">
        <ele>138</ele>
        <time>2019-02-17T11:34:04Z</time>
      </trkpt>
      <trkpt lat="48.78762" lon="2.08165">
        <ele>138</ele>
        <time>2019-02-17T11:34:12Z</time>
      </trkpt>
      <trkpt lat="48.78747" lon="2.08149">
        <ele>137</ele>
        <time>2019-02-17T11:34:25Z</time>
      </trkpt>
      <trkpt lat="48.78743" lon="2.08135">
        <ele>137</ele>
        <time>2019-02-17T11:34:34Z</time>
      </trkpt>
      <trkpt lat="48.78737" lon="2.08126">
        <ele>137</ele>
        <time>2019-02-17T11:34:42Z</time>
      </trkpt>
      <trkpt lat="48.78714" lon="2.08123">
        <ele>137</ele>
        <time>2019-02-17T11:35:07Z</time>
      </trkpt>
      <trkpt lat="48.78706" lon="2.08125">
        <ele>136</ele>
        <time>2019-02-17T11:35:20Z</time>
      </trkpt>
      <trkpt lat="48.78696" lon="2.08128">
        <ele>136</ele>
        <time>2019-02-17T11:35:27Z</time>
      </trkpt>
      <trkpt lat="48.78687" lon="2.08124">
        <ele>136</ele>
        <time>2019-02-17T11:35:35Z</time>
      </trkpt>
      <trkpt lat="48.78658" lon="2.08134">
        <ele>137</ele>
        <time>2019-02-17T11:36:03Z</time>
      </trkpt>
      <trkpt lat="48.7865" lon="2.08142">
        <ele>138</ele>
        <time>2019-02-17T11:36:12Z</time>
      </trkpt>
      <trkpt lat="48.78621" lon="2.0815">
        <ele>140</ele>
        <time>2019-02-17T11:36:36Z</time>
      </trkpt>
      <trkpt lat="48.7861" lon="2.08152">
        <ele>141</ele>
        <time>2019-02-17T11:36:46Z</time>
      </trkpt>
      <trkpt lat="48.78592" lon="2.08145">
        <ele>142</ele>
        <time>2019-02-17T11:37:00Z</time>
      </trkpt>
      <trkpt lat="48.78574" lon="2.08131">
        <ele>142</ele>
        <time>2019-02-17T11:37:14Z</time>
      </trkpt>
      <trkpt lat="48.78566" lon="2.08121">
        <ele>140</ele>
        <time>2019-02-17T11:37:23Z</time>
      </trkpt>
      <trkpt lat="48.78557" lon="2.08114">
        <ele>140</ele>
        <time>2019-02-17T11:37:29Z</time>
      </trkpt>
      <trkpt lat="48.78554" lon="2.08107">
        <ele>139</ele>
        <time>2019-02-17T11:37:34Z</time>
      </trkpt>
      <trkpt lat="48.78551" lon="2.08101">
        <ele>139</ele>
        <time>2019-02-17T11:37:37Z</time>
      </trkpt>
      <trkpt lat="48.7855" lon="2.08094">
        <ele>139</ele>
        <time>2019-02-17T11:37:41Z</time>
      </trkpt>
      <trkpt lat="48.78546" lon="2.08088">
        <ele>140</ele>
        <time>2019-02-17T11:37:45Z</time>
      </trkpt>
      <trkpt lat="48.78541" lon="2.08084">
        <ele>140</ele>
        <time>2019-02-17T11:37:53Z</time>
      </trkpt>
      <trkpt lat="48.7853" lon="2.08069">
        <ele>138</ele>
        <time>2019-02-17T11:38:06Z</time>
      </trkpt>
      <trkpt lat="48.78522" lon="2.0806">
        <ele>139</ele>
        <time>2019-02-17T11:38:14Z</time>
      </trkpt>
      <trkpt lat="48.78501" lon="2.08017">
        <ele>140</ele>
        <time>2019-02-17T11:38:42Z</time>
      </trkpt>
      <trkpt lat="48.78496" lon="2.08002">
        <ele>139</ele>
        <time>2019-02-17T11:38:49Z</time>
      </trkpt>
      <trkpt lat="48.78488" lon="2.07991">
        <ele>138</ele>
        <time>2019-02-17T11:38:59Z</time>
      </trkpt>
      <trkpt lat="48.78483" lon="2.07981">
        <ele>138</ele>
        <time>2019-02-17T11:39:08Z</time>
      </trkpt>
      <trkpt lat="48.7848" lon="2.07976">
        <ele>138</ele>
        <time>2019-02-17T11:39:12Z</time>
      </trkpt>
      <trkpt lat="48.78471" lon="2.07944">
        <ele>140</ele>
        <time>2019-02-17T11:39:34Z</time>
      </trkpt>
      <trkpt lat="48.78468" lon="2.07938">
        <ele>141</ele>
        <time>2019-02-17T11:39:38Z</time>
      </trkpt>
      <trkpt lat="48.78464" lon="2.07934">
        <ele>141</ele>
        <time>2019-02-17T11:39:42Z</time>
      </trkpt>
      <trkpt lat="48.78461" lon="2.07927">
        <ele>141</ele>
        <time>2019-02-17T11:39:47Z</time>
      </trkpt>
      <trkpt lat="48.78447" lon="2.07892">
        <ele>138</ele>
        <time>2019-02-17T11:40:11Z</time>
      </trkpt>
      <trkpt lat="48.78436" lon="2.07876">
        <ele>138</ele>
        <time>2019-02-17T11:40:25Z</time>
      </trkpt>
      <trkpt lat="48.78432" lon="2.0787">
        <ele>138</ele>
        <time>2019-02-17T11:40:30Z</time>
      </trkpt>
      <trkpt lat="48.7843" lon="2.07863">
        <ele>138</ele>
        <time>2019-02-17T11:40:34Z</time>
      </trkpt>
      <trkpt lat="48.78428" lon="2.07858">
        <ele>138</ele>
        <time>2019-02-17T11:40:38Z</time>
      </trkpt>
      <trkpt lat="48.78424" lon="2.07853">
        <ele>138</ele>
        <time>2019-02-17T11:40:42Z</time>
      </trkpt>
      <trkpt lat="48.78419" lon="2.07839">
        <ele>137</ele>
        <time>2019-02-17T11:40:51Z</time>
      </trkpt>
      <trkpt lat="48.78418" lon="2.07831">
        <ele>137</ele>
        <time>2019-02-17T11:40:55Z</time>
      </trkpt>
      <trkpt lat="48.78417" lon="2.07823">
        <ele>138</ele>
        <time>2019-02-17T11:40:59Z</time>
      </trkpt>
      <trkpt lat="48.78415" lon="2.07816">
        <ele>138</ele>
        <time>2019-02-17T11:41:02Z</time>
      </trkpt>
      <trkpt lat="48.78414" lon="2.07808">
        <ele>138</ele>
        <time>2019-02-17T11:41:06Z</time>
      </trkpt>
      <trkpt lat="48.78409" lon="2.07795">
        <ele>138</ele>
        <time>2019-02-17T11:41:15Z</time>
      </trkpt>
      <trkpt lat="48.78408" lon="2.07787">
        <ele>138</ele>
        <time>2019-02-17T11:41:19Z</time>
      </trkpt>
      <trkpt lat="48.78398" lon="2.07776">
        <ele>138</ele>
        <time>2019-02-17T11:41:30Z</time>
      </trkpt>
      <trkpt lat="48.78391" lon="2.07761">
        <ele>137</ele>
        <time>2019-02-17T11:41:40Z</time>
      </trkpt>
      <trkpt lat="48.78389" lon="2.0775">
        <ele>136</ele>
        <time>2019-02-17T11:41:46Z</time>
      </trkpt>
      <trkpt lat="48.78386" lon="2.07743">
        <ele>136</ele>
        <time>2019-02-17T11:41:50Z</time>
      </trkpt>
      <trkpt lat="48.78383" lon="2.07737">
        <ele>136</ele>
        <time>2019-02-17T11:41:54Z</time>
      </trkpt>
      <trkpt lat="48.78381" lon="2.0773">
        <ele>136</ele>
        <time>2019-02-17T11:41:58Z</time>
      </trkpt>
      <trkpt lat="48.78376" lon="2.07719">
        <ele>136</ele>
        <time>2019-02-17T11:42:09Z</time>
      </trkpt>
      <trkpt lat="48.78359" lon="2.07705">
        <ele>137</ele>
        <time>2019-02-17T11:42:26Z</time>
      </trkpt>
      <trkpt lat="48.78352" lon="2.07692">
        <ele>137</ele>
        <time>2019-02-17T11:42:36Z</time>
      </trkpt>
      <trkpt lat="48.78346" lon="2.07686">
        <ele>138</ele>
        <time>2019-02-17T11:42:43Z</time>
      </trkpt>
      <trkpt lat="48.78342" lon="2.07681">
        <ele>137</ele>
        <time>2019-02-17T11:42:48Z</time>
      </trkpt>
      <trkpt lat="48.78338" lon="2.07675">
        <ele>137</ele>
        <time>2019-02-17T11:42:53Z</time>
      </trkpt>
      <trkpt lat="48.78325" lon="2.07659">
        <ele>136</ele>
        <time>2019-02-17T11:43:07Z</time>
      </trkpt>
      <trkpt lat="48.78316" lon="2.07648">
        <ele>136</ele>
        <time>2019-02-17T11:43:19Z</time>
      </trkpt>
      <trkpt lat="48.7831" lon="2.07646">
        <ele>136</ele>
        <time>2019-02-17T11:43:24Z</time>
      </trkpt>
      <trkpt lat="48.78298" lon="2.07634">
        <ele>136</ele>
        <time>2019-02-17T11:43:37Z</time>
      </trkpt>
      <trkpt lat="48.7829" lon="2.07624">
        <ele>136</ele>
        <time>2019-02-17T11:43:46Z</time>
      </trkpt>
      <trkpt lat="48.78275" lon="2.07612">
        <ele>136</ele>
        <time>2019-02-17T11:44:00Z</time>
      </trkpt>
      <trkpt lat="48.78266" lon="2.07603">
        <ele>136</ele>
        <time>2019-02-17T11:44:08Z</time>
      </trkpt>
      <trkpt lat="48.78262" lon="2.07601">
        <ele>136</ele>
        <time>2019-02-17T11:44:11Z</time>
      </trkpt>
      <trkpt lat="48.78246" lon="2.07583">
        <ele>136</ele>
        <time>2019-02-17T11:44:26Z</time>
      </trkpt>
      <trkpt lat="48.78216" lon="2.0754">
        <ele>136</ele>
        <time>2019-02-17T11:44:57Z</time>
      </trkpt>
      <trkpt lat="48.78213" lon="2.07534">
        <ele>136</ele>
        <time>2019-02-17T11:45:01Z</time>
      </trkpt>
      <trkpt lat="48.78209" lon="2.07519">
        <ele>136</ele>
        <time>2019-02-17T11:45:09Z</time>
      </trkpt>
      <trkpt lat="48.78203" lon="2.07499">
        <ele>137</ele>
        <time>2019-02-17T11:45:22Z</time>
      </trkpt>
      <trkpt lat="48.78203" lon="2.07474">
        <ele>137</ele>
        <time>2019-02-17T11:45:34Z</time>
      </trkpt>
      <trkpt lat="48.78204" lon="2.07468">
        <ele>137</ele>
        <time>2019-02-17T11:45:38Z</time>
      </trkpt>
      <trkpt lat="48.78205" lon="2.0746">
        <ele>137</ele>
        <time>2019-02-17T11:45:42Z</time>
      </trkpt>
      <trkpt lat="48.7821" lon="2.07446">
        <ele>136</ele>
        <time>2019-02-17T11:45:50Z</time>
      </trkpt>
      <trkpt lat="48.78211" lon="2.07431">
        <ele>136</ele>
        <time>2019-02-17T11:45:56Z</time>
      </trkpt>
      <trkpt lat="48.78206" lon="2.07414">
        <ele>135</ele>
        <time>2019-02-17T11:46:09Z</time>
      </trkpt>
      <trkpt lat="48.78202" lon="2.07409">
        <ele>135</ele>
        <time>2019-02-17T11:46:14Z</time>
      </trkpt>
      <trkpt lat="48.78194" lon="2.07399">
        <ele>136</ele>
        <time>2019-02-17T11:46:24Z</time>
      </trkpt>
      <trkpt lat="48.7819" lon="2.07394">
        <ele>136</ele>
        <time>2019-02-17T11:46:28Z</time>
      </trkpt>
      <trkpt lat="48.78183" lon="2.07374">
        <ele>136</ele>
        <time>2019-02-17T11:46:40Z</time>
      </trkpt>
      <trkpt lat="48.78182" lon="2.07334">
        <ele>137</ele>
        <time>2019-02-17T11:46:59Z</time>
      </trkpt>
      <trkpt lat="48.78182" lon="2.0732">
        <ele>137</ele>
        <time>2019-02-17T11:47:09Z</time>
      </trkpt>
      <trkpt lat="48.78182" lon="2.07312">
        <ele>137</ele>
        <time>2019-02-17T11:47:14Z</time>
      </trkpt>
      <trkpt lat="48.78181" lon="2.07304">
        <ele>137</ele>
        <time>2019-02-17T11:47:18Z</time>
      </trkpt>
      <trkpt lat="48.78182" lon="2.07248">
        <ele>137</ele>
        <time>2019-02-17T11:47:43Z</time>
      </trkpt>
      <trkpt lat="48.78181" lon="2.07231">
        <ele>138</ele>
        <time>2019-02-17T11:47:56Z</time>
      </trkpt>
      <trkpt lat="48.78183" lon="2.07223">
        <ele>138</ele>
        <time>2019-02-17T11:48:00Z</time>
      </trkpt>
      <trkpt lat="48.78184" lon="2.07217">
        <ele>138</ele>
        <time>2019-02-17T11:48:04Z</time>
      </trkpt>
      <trkpt lat="48.78187" lon="2.07201">
        <ele>139</ele>
        <time>2019-02-17T11:48:12Z</time>
      </trkpt>
      <trkpt lat="48.78188" lon="2.07194">
        <ele>137</ele>
        <time>2019-02-17T11:48:16Z</time>
      </trkpt>
      <trkpt lat="48.78191" lon="2.07172">
        <ele>136</ele>
        <time>2019-02-17T11:48:36Z</time>
      </trkpt>
      <trkpt lat="48.7819" lon="2.0716">
        <ele>137</ele>
        <time>2019-02-17T11:48:54Z</time>
      </trkpt>
      <trkpt lat="48.78193" lon="2.07147">
        <ele>138</ele>
        <time>2019-02-17T11:49:42Z</time>
      </trkpt>
      <trkpt lat="48.78201" lon="2.07147">
        <ele>142</ele>
        <time>2019-02-17T11:50:06Z</time>
      </trkpt>
      <trkpt lat="48.78205" lon="2.07143">
        <ele>145</ele>
        <time>2019-02-17T11:50:30Z</time>
      </trkpt>
      <trkpt lat="48.7821" lon="2.07151">
        <ele>148</ele>
        <time>2019-02-17T11:50:51Z</time>
      </trkpt>
      <trkpt lat="48.78213" lon="2.07157">
        <ele>147</ele>
        <time>2019-02-17T11:51:16Z</time>
      </trkpt>
      <trkpt lat="48.78209" lon="2.07167">
        <ele>147</ele>
        <time>2019-02-17T11:52:34Z</time>
      </trkpt>
      <trkpt lat="48.78206" lon="2.0716">
        <ele>147</ele>
        <time>2019-02-17T11:54:37Z</time>
      </trkpt>
      <trkpt lat="48.78212" lon="2.0716">
        <ele>146</ele>
        <time>2019-02-17T12:45:54Z</time>
      </trkpt>
      <trkpt lat="48.78212" lon="2.0716">
        <ele>146</ele>
        <time>2019-02-17T12:45:54Z</time>
      </trkpt>
      <trkpt lat="48.7821" lon="2.07161">
        <ele>140</ele>
        <time>2019-02-17T12:52:09Z</time>
      </trkpt>
      <trkpt lat="48.78204" lon="2.07156">
        <ele>140</ele>
        <time>2019-02-17T12:52:16Z</time>
      </trkpt>
      <trkpt lat="48.78198" lon="2.07145">
        <ele>140</ele>
        <time>2019-02-17T12:52:25Z</time>
      </trkpt>
      <trkpt lat="48.7819" lon="2.07133">
        <ele>139</ele>
        <time>2019-02-17T12:52:40Z</time>
      </trkpt>
      <trkpt lat="48.78187" lon="2.07125">
        <ele>139</ele>
        <time>2019-02-17T12:52:46Z</time>
      </trkpt>
      <trkpt lat="48.78186" lon="2.07118">
        <ele>138</ele>
        <time>2019-02-17T12:52:51Z</time>
      </trkpt>
      <trkpt lat="48.78188" lon="2.0711">
        <ele>138</ele>
        <time>2019-02-17T12:52:58Z</time>
      </trkpt>
      <trkpt lat="48.78187" lon="2.07101">
        <ele>138</ele>
        <time>2019-02-17T12:53:06Z</time>
      </trkpt>
      <trkpt lat="48.78184" lon="2.07095">
        <ele>138</ele>
        <time>2019-02-17T12:53:12Z</time>
      </trkpt>
      <trkpt lat="48.78177" lon="2.07087">
        <ele>137</ele>
        <time>2019-02-17T12:53:22Z</time>
      </trkpt>
      <trkpt lat="48.78178" lon="2.07075">
        <ele>136</ele>
        <time>2019-02-17T12:53:37Z</time>
      </trkpt>
      <trkpt lat="48.78183" lon="2.0707">
        <ele>137</ele>
        <time>2019-02-17T12:54:45Z</time>
      </trkpt>
      <trkpt lat="48.7818" lon="2.07056">
        <ele>136</ele>
        <time>2019-02-17T12:54:57Z</time>
      </trkpt>
      <trkpt lat="48.78178" lon="2.07047">
        <ele>137</ele>
        <time>2019-02-17T12:55:09Z</time>
      </trkpt>
      <trkpt lat="48.78172" lon="2.07035">
        <ele>136</ele>
        <time>2019-02-17T12:55:17Z</time>
      </trkpt>
      <trkpt lat="48.78169" lon="2.0703">
        <ele>136</ele>
        <time>2019-02-17T12:55:22Z</time>
      </trkpt>
      <trkpt lat="48.78165" lon="2.07025">
        <ele>136</ele>
        <time>2019-02-17T12:55:27Z</time>
      </trkpt>
      <trkpt lat="48.78162" lon="2.07019">
        <ele>136</ele>
        <time>2019-02-17T12:55:32Z</time>
      </trkpt>
      <trkpt lat="48.78169" lon="2.07009">
        <ele>135</ele>
        <time>2019-02-17T12:56:47Z</time>
      </trkpt>
      <trkpt lat="48.78174" lon="2.06998">
        <ele>135</ele>
        <time>2019-02-17T12:57:05Z</time>
      </trkpt>
      <trkpt lat="48.78167" lon="2.06996">
        <ele>134</ele>
        <time>2019-02-17T12:59:09Z</time>
      </trkpt>
      <trkpt lat="48.78163" lon="2.06988">
        <ele>134</ele>
        <time>2019-02-17T12:59:15Z</time>
      </trkpt>
      <trkpt lat="48.78159" lon="2.06981">
        <ele>134</ele>
        <time>2019-02-17T12:59:19Z</time>
      </trkpt>
      <trkpt lat="48.78157" lon="2.06975">
        <ele>134</ele>
        <time>2019-02-17T12:59:23Z</time>
      </trkpt>
      <trkpt lat="48.78136" lon="2.06955">
        <ele>134</ele>
        <time>2019-02-17T12:59:45Z</time>
      </trkpt>
      <trkpt lat="48.7813" lon="2.06946">
        <ele>133</ele>
        <time>2019-02-17T12:59:53Z</time>
      </trkpt>
      <trkpt lat="48.78123" lon="2.0694">
        <ele>133</ele>
        <time>2019-02-17T13:00:02Z</time>
      </trkpt>
      <trkpt lat="48.78119" lon="2.06935">
        <ele>134</ele>
        <time>2019-02-17T13:00:07Z</time>
      </trkpt>
      <trkpt lat="48.78104" lon="2.0691">
        <ele>134</ele>
        <time>2019-02-17T13:00:27Z</time>
      </trkpt>
      <trkpt lat="48.78088" lon="2.06894">
        <ele>133</ele>
        <time>2019-02-17T13:00:43Z</time>
      </trkpt>
      <trkpt lat="48.78084" lon="2.06888">
        <ele>133</ele>
        <time>2019-02-17T13:00:48Z</time>
      </trkpt>
      <trkpt lat="48.78079" lon="2.06882">
        <ele>133</ele>
        <time>2019-02-17T13:00:55Z</time>
      </trkpt>
      <trkpt lat="48.78075" lon="2.06881">
        <ele>134</ele>
        <time>2019-02-17T13:01:00Z</time>
      </trkpt>
      <trkpt lat="48.78075" lon="2.06871">
        <ele>134</ele>
        <time>2019-02-17T13:01:31Z</time>
      </trkpt>
      <trkpt lat="48.78074" lon="2.06862">
        <ele>134</ele>
        <time>2019-02-17T13:01:55Z</time>
      </trkpt>
      <trkpt lat="48.78064" lon="2.06872">
        <ele>133</ele>
        <time>2019-02-17T13:02:31Z</time>
      </trkpt>
      <trkpt lat="48.78062" lon="2.06879">
        <ele>133</ele>
        <time>2019-02-17T13:02:38Z</time>
      </trkpt>
      <trkpt lat="48.78059" lon="2.06891">
        <ele>133</ele>
        <time>2019-02-17T13:02:50Z</time>
      </trkpt>
      <trkpt lat="48.78057" lon="2.06902">
        <ele>133</ele>
        <time>2019-02-17T13:03:02Z</time>
      </trkpt>
      <trkpt lat="48.7806" lon="2.0691">
        <ele>133</ele>
        <time>2019-02-17T13:03:14Z</time>
      </trkpt>
      <trkpt lat="48.78064" lon="2.06914">
        <ele>133</ele>
        <time>2019-02-17T13:03:21Z</time>
      </trkpt>
      <trkpt lat="48.78069" lon="2.0692">
        <ele>133</ele>
        <time>2019-02-17T13:03:28Z</time>
      </trkpt>
      <trkpt lat="48.78071" lon="2.06927">
        <ele>133</ele>
        <time>2019-02-17T13:03:31Z</time>
      </trkpt>
      <trkpt lat="48.78075" lon="2.06933">
        <ele>133</ele>
        <time>2019-02-17T13:03:36Z</time>
      </trkpt>
      <trkpt lat="48.78084" lon="2.06943">
        <ele>133</ele>
        <time>2019-02-17T13:03:48Z</time>
      </trkpt>
      <trkpt lat="48.7811" lon="2.06991">
        <ele>134</ele>
        <time>2019-02-17T13:04:21Z</time>
      </trkpt>
      <trkpt lat="48.78113" lon="2.06998">
        <ele>134</ele>
        <time>2019-02-17T13:04:25Z</time>
      </trkpt>
      <trkpt lat="48.78116" lon="2.07005">
        <ele>134</ele>
        <time>2019-02-17T13:04:29Z</time>
      </trkpt>
      <trkpt lat="48.7812" lon="2.07011">
        <ele>134</ele>
        <time>2019-02-17T13:04:34Z</time>
      </trkpt>
      <trkpt lat="48.78127" lon="2.07038">
        <ele>134</ele>
        <time>2019-02-17T13:04:48Z</time>
      </trkpt>
      <trkpt lat="48.7813" lon="2.07061">
        <ele>134</ele>
        <time>2019-02-17T13:05:00Z</time>
      </trkpt>
      <trkpt lat="48.7813" lon="2.07075">
        <ele>134</ele>
        <time>2019-02-17T13:05:08Z</time>
      </trkpt>
      <trkpt lat="48.78133" lon="2.07097">
        <ele>134</ele>
        <time>2019-02-17T13:05:20Z</time>
      </trkpt>
      <trkpt lat="48.7813" lon="2.07153">
        <ele>135</ele>
        <time>2019-02-17T13:05:51Z</time>
      </trkpt>
      <trkpt lat="48.78128" lon="2.0719">
        <ele>135</ele>
        <time>2019-02-17T13:06:11Z</time>
      </trkpt>
      <trkpt lat="48.78124" lon="2.07213">
        <ele>135</ele>
        <time>2019-02-17T13:06:23Z</time>
      </trkpt>
      <trkpt lat="48.78124" lon="2.0722">
        <ele>135</ele>
        <time>2019-02-17T13:06:27Z</time>
      </trkpt>
      <trkpt lat="48.78122" lon="2.07235">
        <ele>135</ele>
        <time>2019-02-17T13:06:35Z</time>
      </trkpt>
      <trkpt lat="48.78123" lon="2.0725">
        <ele>135</ele>
        <time>2019-02-17T13:06:43Z</time>
      </trkpt>
      <trkpt lat="48.78122" lon="2.07257">
        <ele>135</ele>
        <time>2019-02-17T13:06:47Z</time>
      </trkpt>
      <trkpt lat="48.7812" lon="2.07288">
        <ele>136</ele>
        <time>2019-02-17T13:07:03Z</time>
      </trkpt>
      <trkpt lat="48.78123" lon="2.07304">
        <ele>136</ele>
        <time>2019-02-17T13:07:12Z</time>
      </trkpt>
      <trkpt lat="48.78122" lon="2.07312">
        <ele>136</ele>
        <time>2019-02-17T13:07:16Z</time>
      </trkpt>
      <trkpt lat="48.78121" lon="2.0732">
        <ele>136</ele>
        <time>2019-02-17T13:07:21Z</time>
      </trkpt>
      <trkpt lat="48.7812" lon="2.07345">
        <ele>136</ele>
        <time>2019-02-17T13:07:34Z</time>
      </trkpt>
      <trkpt lat="48.78121" lon="2.07372">
        <ele>136</ele>
        <time>2019-02-17T13:07:49Z</time>
      </trkpt>
      <trkpt lat="48.78123" lon="2.0738">
        <ele>136</ele>
        <time>2019-02-17T13:07:53Z</time>
      </trkpt>
      <trkpt lat="48.78123" lon="2.07388">
        <ele>136</ele>
        <time>2019-02-17T13:07:57Z</time>
      </trkpt>
      <trkpt lat="48.78122" lon="2.07402">
        <ele>136</ele>
        <time>2019-02-17T13:08:04Z</time>
      </trkpt>
      <trkpt lat="48.78122" lon="2.07409">
        <ele>136</ele>
        <time>2019-02-17T13:08:08Z</time>
      </trkpt>
      <trkpt lat="48.78125" lon="2.07434">
        <ele>136</ele>
        <time>2019-02-17T13:08:25Z</time>
      </trkpt>
      <trkpt lat="48.78124" lon="2.07442">
        <ele>136</ele>
        <time>2019-02-17T13:08:30Z</time>
      </trkpt>
      <trkpt lat="48.78128" lon="2.07469">
        <ele>136</ele>
        <time>2019-02-17T13:08:47Z</time>
      </trkpt>
      <trkpt lat="48.78135" lon="2.07491">
        <ele>136</ele>
        <time>2019-02-17T13:08:57Z</time>
      </trkpt>
      <trkpt lat="48.78135" lon="2.07499">
        <ele>136</ele>
        <time>2019-02-17T13:09:01Z</time>
      </trkpt>
      <trkpt lat="48.78137" lon="2.07505">
        <ele>136</ele>
        <time>2019-02-17T13:09:05Z</time>
      </trkpt>
      <trkpt lat="48.7814" lon="2.07524">
        <ele>137</ele>
        <time>2019-02-17T13:09:15Z</time>
      </trkpt>
      <trkpt lat="48.78141" lon="2.07533">
        <ele>137</ele>
        <time>2019-02-17T13:09:25Z</time>
      </trkpt>
      <trkpt lat="48.7814" lon="2.07548">
        <ele>137</ele>
        <time>2019-02-17T13:09:33Z</time>
      </trkpt>
      <trkpt lat="48.78142" lon="2.07571">
        <ele>137</ele>
        <time>2019-02-17T13:09:47Z</time>
      </trkpt>
      <trkpt lat="48.78156" lon="2.07593">
        <ele>137</ele>
        <time>2019-02-17T13:10:11Z</time>
      </trkpt>
      <trkpt lat="48.7816" lon="2.07597">
        <ele>137</ele>
        <time>2019-02-17T13:10:16Z</time>
      </trkpt>
      <trkpt lat="48.78163" lon="2.07602">
        <ele>137</ele>
        <time>2019-02-17T13:10:20Z</time>
      </trkpt>
      <trkpt lat="48.78192" lon="2.0764">
        <ele>137</ele>
        <time>2019-02-17T13:10:55Z</time>
      </trkpt>
      <trkpt lat="48.78199" lon="2.0765">
        <ele>136</ele>
        <time>2019-02-17T13:11:04Z</time>
      </trkpt>
      <trkpt lat="48.7821" lon="2.07665">
        <ele>137</ele>
        <time>2019-02-17T13:11:17Z</time>
      </trkpt>
      <trkpt lat="48.78217" lon="2.07677">
        <ele>136</ele>
        <time>2019-02-17T13:11:26Z</time>
      </trkpt>
      <trkpt lat="48.78234" lon="2.07703">
        <ele>137</ele>
        <time>2019-02-17T13:11:47Z</time>
      </trkpt>
      <trkpt lat="48.78239" lon="2.07707">
        <ele>137</ele>
        <time>2019-02-17T13:11:51Z</time>
      </trkpt>
      <trkpt lat="48.78263" lon="2.07722">
        <ele>137</ele>
        <time>2019-02-17T13:12:12Z</time>
      </trkpt>
      <trkpt lat="48.78279" lon="2.0774">
        <ele>137</ele>
        <time>2019-02-17T13:12:28Z</time>
      </trkpt>
      <trkpt lat="48.78304" lon="2.07789">
        <ele>137</ele>
        <time>2019-02-17T13:13:01Z</time>
      </trkpt>
      <trkpt lat="48.78321" lon="2.07834">
        <ele>138</ele>
        <time>2019-02-17T13:13:32Z</time>
      </trkpt>
      <trkpt lat="48.78343" lon="2.07873">
        <ele>138</ele>
        <time>2019-02-17T13:14:00Z</time>
      </trkpt>
      <trkpt lat="48.78351" lon="2.07894">
        <ele>138</ele>
        <time>2019-02-17T13:14:10Z</time>
      </trkpt>
      <trkpt lat="48.78356" lon="2.07918">
        <ele>137</ele>
        <time>2019-02-17T13:14:20Z</time>
      </trkpt>
      <trkpt lat="48.78358" lon="2.07932">
        <ele>137</ele>
        <time>2019-02-17T13:14:27Z</time>
      </trkpt>
      <trkpt lat="48.78366" lon="2.07965">
        <ele>137</ele>
        <time>2019-02-17T13:14:46Z</time>
      </trkpt>
      <trkpt lat="48.78374" lon="2.08021">
        <ele>137</ele>
        <time>2019-02-17T13:15:17Z</time>
      </trkpt>
      <trkpt lat="48.78381" lon="2.08052">
        <ele>136</ele>
        <time>2019-02-17T13:15:36Z</time>
      </trkpt>
      <trkpt lat="48.78387" lon="2.08064">
        <ele>136</ele>
        <time>2019-02-17T13:15:44Z</time>
      </trkpt>
      <trkpt lat="48.7839" lon="2.08068">
        <ele>136</ele>
        <time>2019-02-17T13:15:48Z</time>
      </trkpt>
      <trkpt lat="48.78395" lon="2.08076">
        <ele>136</ele>
        <time>2019-02-17T13:15:55Z</time>
      </trkpt>
      <trkpt lat="48.78399" lon="2.0808">
        <ele>136</ele>
        <time>2019-02-17T13:16:00Z</time>
      </trkpt>
      <trkpt lat="48.78406" lon="2.08092">
        <ele>136</ele>
        <time>2019-02-17T13:16:07Z</time>
      </trkpt>
      <trkpt lat="48.78411" lon="2.08107">
        <ele>136</ele>
        <time>2019-02-17T13:16:15Z</time>
      </trkpt>
      <trkpt lat="48.78419" lon="2.08138">
        <ele>137</ele>
        <time>2019-02-17T13:16:30Z</time>
      </trkpt>
      <trkpt lat="48.78419" lon="2.08146">
        <ele>137</ele>
        <time>2019-02-17T13:16:33Z</time>
      </trkpt>
      <trkpt lat="48.78417" lon="2.08161">
        <ele>136</ele>
        <time>2019-02-17T13:16:41Z</time>
      </trkpt>
      <trkpt lat="48.78413" lon="2.08168">
        <ele>137</ele>
        <time>2019-02-17T13:16:46Z</time>
      </trkpt>
      <trkpt lat="48.7841" lon="2.08171">
        <ele>137</ele>
        <time>2019-02-17T13:16:50Z</time>
      </trkpt>
      <trkpt lat="48.78393" lon="2.08185">
        <ele>136</ele>
        <time>2019-02-17T13:17:08Z</time>
      </trkpt>
      <trkpt lat="48.78387" lon="2.08186">
        <ele>136</ele>
        <time>2019-02-17T13:17:12Z</time>
      </trkpt>
      <trkpt lat="48.78376" lon="2.08184">
        <ele>137</ele>
        <time>2019-02-17T13:17:21Z</time>
      </trkpt>
      <trkpt lat="48.78372" lon="2.08182">
        <ele>136</ele>
        <time>2019-02-17T13:17:25Z</time>
      </trkpt>
      <trkpt lat="48.78367" lon="2.08181">
        <ele>136</ele>
        <time>2019-02-17T13:17:29Z</time>
      </trkpt>
      <trkpt lat="48.78354" lon="2.08182">
        <ele>137</ele>
        <time>2019-02-17T13:17:43Z</time>
      </trkpt>
      <trkpt lat="48.78349" lon="2.08187">
        <ele>137</ele>
        <time>2019-02-17T13:17:50Z</time>
      </trkpt>
      <trkpt lat="48.7834" lon="2.08203">
        <ele>138</ele>
        <time>2019-02-17T13:18:05Z</time>
      </trkpt>
      <trkpt lat="48.78334" lon="2.08217">
        <ele>138</ele>
        <time>2019-02-17T13:18:13Z</time>
      </trkpt>
      <trkpt lat="48.78324" lon="2.08234">
        <ele>137</ele>
        <time>2019-02-17T13:18:25Z</time>
      </trkpt>
      <trkpt lat="48.78299" lon="2.08279">
        <ele>137</ele>
        <time>2019-02-17T13:18:58Z</time>
      </trkpt>
      <trkpt lat="48.78291" lon="2.08291">
        <ele>137</ele>
        <time>2019-02-17T13:19:06Z</time>
      </trkpt>
      <trkpt lat="48.78288" lon="2.08296">
        <ele>137</ele>
        <time>2019-02-17T13:19:10Z</time>
      </trkpt>
      <trkpt lat="48.78286" lon="2.08304">
        <ele>137</ele>
        <time>2019-02-17T13:19:15Z</time>
      </trkpt>
      <trkpt lat="48.78282" lon="2.08309">
        <ele>137</ele>
        <time>2019-02-17T13:19:19Z</time>
      </trkpt>
      <trkpt lat="48.78276" lon="2.08323">
        <ele>137</ele>
        <time>2019-02-17T13:19:29Z</time>
      </trkpt>
      <trkpt lat="48.78273" lon="2.08329">
        <ele>137</ele>
        <time>2019-02-17T13:19:33Z</time>
      </trkpt>
      <trkpt lat="48.78256" lon="2.08367">
        <ele>137</ele>
        <time>2019-02-17T13:19:56Z</time>
      </trkpt>
      <trkpt lat="48.78252" lon="2.08372">
        <ele>137</ele>
        <time>2019-02-17T13:20:00Z</time>
      </trkpt>
      <trkpt lat="48.78246" lon="2.08384">
        <ele>137</ele>
        <time>2019-02-17T13:20:07Z</time>
      </trkpt>
      <trkpt lat="48.78239" lon="2.08394">
        <ele>137</ele>
        <time>2019-02-17T13:20:14Z</time>
      </trkpt>
      <trkpt lat="48.78218" lon="2.08439">
        <ele>137</ele>
        <time>2019-02-17T13:20:43Z</time>
      </trkpt>
      <trkpt lat="48.7821" lon="2.0845">
        <ele>137</ele>
        <time>2019-02-17T13:20:51Z</time>
      </trkpt>
      <trkpt lat="48.78203" lon="2.08463">
        <ele>138</ele>
        <time>2019-02-17T13:20:59Z</time>
      </trkpt>
      <trkpt lat="48.78193" lon="2.08481">
        <ele>137</ele>
        <time>2019-02-17T13:21:11Z</time>
      </trkpt>
      <trkpt lat="48.78189" lon="2.08487">
        <ele>138</ele>
        <time>2019-02-17T13:21:15Z</time>
      </trkpt>
      <trkpt lat="48.78183" lon="2.08498">
        <ele>138</ele>
        <time>2019-02-17T13:21:23Z</time>
      </trkpt>
      <trkpt lat="48.78161" lon="2.08529">
        <ele>137</ele>
        <time>2019-02-17T13:21:47Z</time>
      </trkpt>
      <trkpt lat="48.78134" lon="2.08577">
        <ele>137</ele>
        <time>2019-02-17T13:22:20Z</time>
      </trkpt>
      <trkpt lat="48.78123" lon="2.08592">
        <ele>137</ele>
        <time>2019-02-17T13:22:32Z</time>
      </trkpt>
      <trkpt lat="48.78119" lon="2.08596">
        <ele>138</ele>
        <time>2019-02-17T13:22:37Z</time>
      </trkpt>
      <trkpt lat="48.78103" lon="2.08629">
        <ele>138</ele>
        <time>2019-02-17T13:23:02Z</time>
      </trkpt>
      <trkpt lat="48.781" lon="2.08635">
        <ele>138</ele>
        <time>2019-02-17T13:23:07Z</time>
      </trkpt>
      <trkpt lat="48.78091" lon="2.08645">
        <ele>139</ele>
        <time>2019-02-17T13:23:15Z</time>
      </trkpt>
      <trkpt lat="48.78087" lon="2.08651">
        <ele>139</ele>
        <time>2019-02-17T13:23:19Z</time>
      </trkpt>
      <trkpt lat="48.78073" lon="2.08675">
        <ele>139</ele>
        <time>2019-02-17T13:23:34Z</time>
      </trkpt>
      <trkpt lat="48.78062" lon="2.08701">
        <ele>140</ele>
        <time>2019-02-17T13:23:51Z</time>
      </trkpt>
      <trkpt lat="48.78062" lon="2.08708">
        <ele>140</ele>
        <time>2019-02-17T13:23:56Z</time>
      </trkpt>
      <trkpt lat="48.78062" lon="2.08715">
        <ele>140</ele>
        <time>2019-02-17T13:24:00Z</time>
      </trkpt>
      <trkpt lat="48.7806" lon="2.08724">
        <ele>140</ele>
        <time>2019-02-17T13:24:08Z</time>
      </trkpt>
      <trkpt lat="48.78062" lon="2.08734">
        <ele>140</ele>
        <time>2019-02-17T13:24:16Z</time>
      </trkpt>
      <trkpt lat="48.78068" lon="2.08735">
        <ele>140</ele>
        <time>2019-02-17T13:24:21Z</time>
      </trkpt>
      <trkpt lat="48.78071" lon="2.0874">
        <ele>140</ele>
        <time>2019-02-17T13:24:26Z</time>
      </trkpt>
      <trkpt lat="48.78079" lon="2.08749">
        <ele>140</ele>
        <time>2019-02-17T13:24:36Z</time>
      </trkpt>
      <trkpt lat="48.78085" lon="2.08761">
        <ele>140</ele>
        <time>2019-02-17T13:24:45Z</time>
      </trkpt>
      <trkpt lat="48.78094" lon="2.08795">
        <ele>137</ele>
        <time>2019-02-17T13:25:01Z</time>
      </trkpt>
      <trkpt lat="48.78102" lon="2.08823">
        <ele>135</ele>
        <time>2019-02-17T13:25:16Z</time>
      </trkpt>
      <trkpt lat="48.78108" lon="2.08846">
        <ele>134</ele>
        <time>2019-02-17T13:25:28Z</time>
      </trkpt>
      <trkpt lat="48.7811" lon="2.08854">
        <ele>134</ele>
        <time>2019-02-17T13:25:31Z</time>
      </trkpt>
      <trkpt lat="48.78113" lon="2.08869">
        <ele>134</ele>
        <time>2019-02-17T13:25:37Z</time>
      </trkpt>
      <trkpt lat="48.78113" lon="2.08876">
        <ele>133</ele>
        <time>2019-02-17T13:25:41Z</time>
      </trkpt>
      <trkpt lat="48.78111" lon="2.08891">
        <ele>133</ele>
        <time>2019-02-17T13:25:48Z</time>
      </trkpt>
      <trkpt lat="48.78108" lon="2.08898">
        <ele>134</ele>
        <time>2019-02-17T13:25:51Z</time>
      </trkpt>
      <trkpt lat="48.78105" lon="2.08903">
        <ele>134</ele>
        <time>2019-02-17T13:25:54Z</time>
      </trkpt>
      <trkpt lat="48.78101" lon="2.0891">
        <ele>133</ele>
        <time>2019-02-17T13:25:58Z</time>
      </trkpt>
      <trkpt lat="48.78097" lon="2.08915">
        <ele>133</ele>
        <time>2019-02-17T13:26:01Z</time>
      </trkpt>
      <trkpt lat="48.78083" lon="2.08933">
        <ele>133</ele>
        <time>2019-02-17T13:26:19Z</time>
      </trkpt>
      <trkpt lat="48.7808" lon="2.08939">
        <ele>133</ele>
        <time>2019-02-17T13:26:24Z</time>
      </trkpt>
      <trkpt lat="48.78076" lon="2.08944">
        <ele>133</ele>
        <time>2019-02-17T13:26:38Z</time>
      </trkpt>
      <trkpt lat="48.78071" lon="2.08945">
        <ele>134</ele>
        <time>2019-02-17T13:27:02Z</time>
      </trkpt>
      <trkpt lat="48.78073" lon="2.08955">
        <ele>132</ele>
        <time>2019-02-17T13:27:12Z</time>
      </trkpt>
      <trkpt lat="48.78071" lon="2.08962">
        <ele>132</ele>
        <time>2019-02-17T13:27:17Z</time>
      </trkpt>
      <trkpt lat="48.78068" lon="2.08978">
        <ele>131</ele>
        <time>2019-02-17T13:27:25Z</time>
      </trkpt>
      <trkpt lat="48.78052" lon="2.09009">
        <ele>131</ele>
        <time>2019-02-17T13:27:50Z</time>
      </trkpt>
      <trkpt lat="48.78047" lon="2.09014">
        <ele>131</ele>
        <time>2019-02-17T13:27:55Z</time>
      </trkpt>
      <trkpt lat="48.78035" lon="2.09039">
        <ele>131</ele>
        <time>2019-02-17T13:28:14Z</time>
      </trkpt>
      <trkpt lat="48.78031" lon="2.09044">
        <ele>131</ele>
        <time>2019-02-17T13:28:18Z</time>
      </trkpt>
      <trkpt lat="48.78028" lon="2.0905">
        <ele>131</ele>
        <time>2019-02-17T13:28:23Z</time>
      </trkpt>
      <trkpt lat="48.78025" lon="2.09064">
        <ele>131</ele>
        <time>2019-02-17T13:28:29Z</time>
      </trkpt>
      <trkpt lat="48.78021" lon="2.0907">
        <ele>131</ele>
        <time>2019-02-17T13:28:33Z</time>
      </trkpt>
      <trkpt lat="48.78017" lon="2.09075">
        <ele>131</ele>
        <time>2019-02-17T13:28:37Z</time>
      </trkpt>
      <trkpt lat="48.78014" lon="2.0908">
        <ele>131</ele>
        <time>2019-02-17T13:28:40Z</time>
      </trkpt>
      <trkpt lat="48.78002" lon="2.09094">
        <ele>131</ele>
        <time>2019-02-17T13:28:54Z</time>
      </trkpt>
      <trkpt lat="48.77998" lon="2.09106">
        <ele>131</ele>
        <time>2019-02-17T13:29:03Z</time>
      </trkpt>
      <trkpt lat="48.77987" lon="2.09132">
        <ele>131</ele>
        <time>2019-02-17T13:29:21Z</time>
      </trkpt>
      <trkpt lat="48.77985" lon="2.0914">
        <ele>131</ele>
        <time>2019-02-17T13:29:25Z</time>
      </trkpt>
      <trkpt lat="48.77982" lon="2.09146">
        <ele>131</ele>
        <time>2019-02-17T13:29:29Z</time>
      </trkpt>
      <trkpt lat="48.77981" lon="2.09153">
        <ele>131</ele>
        <time>2019-02-17T13:29:34Z</time>
      </trkpt>
      <trkpt lat="48.77979" lon="2.09168">
        <ele>131</ele>
        <time>2019-02-17T13:29:42Z</time>
      </trkpt>
      <trkpt lat="48.77976" lon="2.09175">
        <ele>131</ele>
        <time>2019-02-17T13:29:47Z</time>
      </trkpt>
      <trkpt lat="48.77972" lon="2.09188">
        <ele>131</ele>
        <time>2019-02-17T13:29:55Z</time>
      </trkpt>
      <trkpt lat="48.77969" lon="2.09195">
        <ele>131</ele>
        <time>2019-02-17T13:30:00Z</time>
      </trkpt>
      <trkpt lat="48.77954" lon="2.0921">
        <ele>131</ele>
        <time>2019-02-17T13:30:13Z</time>
      </trkpt>
      <trkpt lat="48.77948" lon="2.09212">
        <ele>132</ele>
        <time>2019-02-17T13:30:17Z</time>
      </trkpt>
      <trkpt lat="48.77943" lon="2.09216">
        <ele>132</ele>
        <time>2019-02-17T13:30:21Z</time>
      </trkpt>
      <trkpt lat="48.77937" lon="2.09218">
        <ele>132</ele>
        <time>2019-02-17T13:30:25Z</time>
      </trkpt>
      <trkpt lat="48.77932" lon="2.09218">
        <ele>132</ele>
        <time>2019-02-17T13:30:29Z</time>
      </trkpt>
      <trkpt lat="48.77927" lon="2.09222">
        <ele>132</ele>
        <time>2019-02-17T13:30:34Z</time>
      </trkpt>
      <trkpt lat="48.77922" lon="2.09225">
        <ele>132</ele>
        <time>2019-02-17T13:30:39Z</time>
      </trkpt>
      <trkpt lat="48.77917" lon="2.0923">
        <ele>132</ele>
        <time>2019-02-17T13:30:46Z</time>
      </trkpt>
      <trkpt lat="48.77917" lon="2.09242">
        <ele>132</ele>
        <time>2019-02-17T13:30:56Z</time>
      </trkpt>
      <trkpt lat="48.77917" lon="2.09264">
        <ele>132</ele>
        <time>2019-02-17T13:31:09Z</time>
      </trkpt>
      <trkpt lat="48.77915" lon="2.0929">
        <ele>133</ele>
        <time>2019-02-17T13:31:22Z</time>
      </trkpt>
      <trkpt lat="48.77915" lon="2.09297">
        <ele>133</ele>
        <time>2019-02-17T13:31:26Z</time>
      </trkpt>
      <trkpt lat="48.77916" lon="2.09304">
        <ele>133</ele>
        <time>2019-02-17T13:31:31Z</time>
      </trkpt>
      <trkpt lat="48.77916" lon="2.09312">
        <ele>133</ele>
        <time>2019-02-17T13:31:36Z</time>
      </trkpt>
      <trkpt lat="48.77926" lon="2.09373">
        <ele>133</ele>
        <time>2019-02-17T13:32:10Z</time>
      </trkpt>
      <trkpt lat="48.77941" lon="2.0944">
        <ele>132</ele>
        <time>2019-02-17T13:32:43Z</time>
      </trkpt>
      <trkpt lat="48.77951" lon="2.09498">
        <ele>132</ele>
        <time>2019-02-17T13:33:17Z</time>
      </trkpt>
      <trkpt lat="48.77954" lon="2.09505">
        <ele>132</ele>
        <time>2019-02-17T13:33:22Z</time>
      </trkpt>
      <trkpt lat="48.77958" lon="2.09511">
        <ele>132</ele>
        <time>2019-02-17T13:33:30Z</time>
      </trkpt>
      <trkpt lat="48.77957" lon="2.0952">
        <ele>131</ele>
        <time>2019-02-17T13:34:06Z</time>
      </trkpt>
      <trkpt lat="48.77955" lon="2.09526">
        <ele>132</ele>
        <time>2019-02-17T13:34:42Z</time>
      </trkpt>
      <trkpt lat="48.77952" lon="2.09533">
        <ele>133</ele>
        <time>2019-02-17T13:34:47Z</time>
      </trkpt>
      <trkpt lat="48.77944" lon="2.09537">
        <ele>134</ele>
        <time>2019-02-17T13:35:36Z</time>
      </trkpt>
      <trkpt lat="48.77939" lon="2.09536">
        <ele>134</ele>
        <time>2019-02-17T13:35:40Z</time>
      </trkpt>
      <trkpt lat="48.77934" lon="2.09538">
        <ele>133</ele>
        <time>2019-02-17T13:35:45Z</time>
      </trkpt>
      <trkpt lat="48.77927" lon="2.09546">
        <ele>133</ele>
        <time>2019-02-17T13:35:53Z</time>
      </trkpt>
      <trkpt lat="48.77912" lon="2.09553">
        <ele>133</ele>
        <time>2019-02-17T13:36:06Z</time>
      </trkpt>
      <trkpt lat="48.77903" lon="2.09554">
        <ele>133</ele>
        <time>2019-02-17T13:36:12Z</time>
      </trkpt>
      <trkpt lat="48.77898" lon="2.09555">
        <ele>133</ele>
        <time>2019-02-17T13:36:15Z</time>
      </trkpt>
      <trkpt lat="48.77862" lon="2.09555">
        <ele>134</ele>
        <time>2019-02-17T13:36:42Z</time>
      </trkpt>
      <trkpt lat="48.77852" lon="2.09557">
        <ele>135</ele>
        <time>2019-02-17T13:36:50Z</time>
      </trkpt>
      <trkpt lat="48.77846" lon="2.09558">
        <ele>135</ele>
        <time>2019-02-17T13:36:54Z</time>
      </trkpt>
      <trkpt lat="48.77831" lon="2.09555">
        <ele>134</ele>
        <time>2019-02-17T13:37:05Z</time>
      </trkpt>
      <trkpt lat="48.77825" lon="2.09557">
        <ele>134</ele>
        <time>2019-02-17T13:37:08Z</time>
      </trkpt>
      <trkpt lat="48.77821" lon="2.0956">
        <ele>134</ele>
        <time>2019-02-17T13:37:12Z</time>
      </trkpt>
      <trkpt lat="48.77812" lon="2.09566">
        <ele>133</ele>
        <time>2019-02-17T13:37:20Z</time>
      </trkpt>
      <trkpt lat="48.77804" lon="2.09575">
        <ele>132</ele>
        <time>2019-02-17T13:37:28Z</time>
      </trkpt>
      <trkpt lat="48.77794" lon="2.09592">
        <ele>132</ele>
        <time>2019-02-17T13:37:47Z</time>
      </trkpt>
      <trkpt lat="48.77787" lon="2.09616">
        <ele>132</ele>
        <time>2019-02-17T13:37:56Z</time>
      </trkpt>
      <trkpt lat="48.77785" lon="2.09638">
        <ele>131</ele>
        <time>2019-02-17T13:38:05Z</time>
      </trkpt>
      <trkpt lat="48.77785" lon="2.09647">
        <ele>131</ele>
        <time>2019-02-17T13:38:09Z</time>
      </trkpt>
      <trkpt lat="48.77781" lon="2.09662">
        <ele>131</ele>
        <time>2019-02-17T13:38:17Z</time>
      </trkpt>
      <trkpt lat="48.77775" lon="2.09678">
        <ele>130</ele>
        <time>2019-02-17T13:38:28Z</time>
      </trkpt>
      <trkpt lat="48.7777" lon="2.09679">
        <ele>130</ele>
        <time>2019-02-17T13:38:32Z</time>
      </trkpt>
      <trkpt lat="48.77764" lon="2.0968">
        <ele>130</ele>
        <time>2019-02-17T13:38:36Z</time>
      </trkpt>
      <trkpt lat="48.77759" lon="2.09683">
        <ele>130</ele>
        <time>2019-02-17T13:38:40Z</time>
      </trkpt>
      <trkpt lat="48.77751" lon="2.09693">
        <ele>129</ele>
        <time>2019-02-17T13:38:48Z</time>
      </trkpt>
      <trkpt lat="48.77745" lon="2.09705">
        <ele>129</ele>
        <time>2019-02-17T13:38:55Z</time>
      </trkpt>
      <trkpt lat="48.7774" lon="2.09709">
        <ele>130</ele>
        <time>2019-02-17T13:39:00Z</time>
      </trkpt>
      <trkpt lat="48.77731" lon="2.09715">
        <ele>130</ele>
        <time>2019-02-17T13:39:08Z</time>
      </trkpt>
      <trkpt lat="48.77728" lon="2.0972">
        <ele>130</ele>
        <time>2019-02-17T13:39:12Z</time>
      </trkpt>
      <trkpt lat="48.77722" lon="2.09722">
        <ele>130</ele>
        <time>2019-02-17T13:39:18Z</time>
      </trkpt>
      <trkpt lat="48.77713" lon="2.09728">
        <ele>130</ele>
        <time>2019-02-17T13:39:26Z</time>
      </trkpt>
      <trkpt lat="48.7771" lon="2.09734">
        <ele>130</ele>
        <time>2019-02-17T13:39:30Z</time>
      </trkpt>
      <trkpt lat="48.77701" lon="2.09739">
        <ele>130</ele>
        <time>2019-02-17T13:39:37Z</time>
      </trkpt>
      <trkpt lat="48.77697" lon="2.09743">
        <ele>130</ele>
        <time>2019-02-17T13:39:40Z</time>
      </trkpt>
      <trkpt lat="48.77691" lon="2.09743">
        <ele>129</ele>
        <time>2019-02-17T13:41:13Z</time>
      </trkpt>
      <trkpt lat="48.77686" lon="2.09744">
        <ele>129</ele>
        <time>2019-02-17T13:41:16Z</time>
      </trkpt>
      <trkpt lat="48.77682" lon="2.09748">
        <ele>129</ele>
        <time>2019-02-17T13:41:20Z</time>
      </trkpt>
      <trkpt lat="48.77673" lon="2.09757">
        <ele>129</ele>
        <time>2019-02-17T13:41:29Z</time>
      </trkpt>
      <trkpt lat="48.77662" lon="2.0978">
        <ele>128</ele>
        <time>2019-02-17T13:41:54Z</time>
      </trkpt>
      <trkpt lat="48.77661" lon="2.0978">
        <ele>127</ele>
        <time>2019-02-17T13:43:50Z</time>
      </trkpt>
      <trkpt lat="48.77658" lon="2.0979">
        <ele>126</ele>
        <time>2019-02-17T13:48:56Z</time>
      </trkpt>
      <trkpt lat="48.77651" lon="2.098">
        <ele>125</ele>
        <time>2019-02-17T13:49:05Z</time>
      </trkpt>
      <trkpt lat="48.77649" lon="2.09811">
        <ele>125</ele>
        <time>2019-02-17T13:49:14Z</time>
      </trkpt>
      <trkpt lat="48.77637" lon="2.09838">
        <ele>123</ele>
        <time>2019-02-17T13:49:31Z</time>
      </trkpt>
      <trkpt lat="48.77619" lon="2.09868">
        <ele>122</ele>
        <time>2019-02-17T13:49:53Z</time>
      </trkpt>
      <trkpt lat="48.776" lon="2.09916">
        <ele>121</ele>
        <time>2019-02-17T13:50:25Z</time>
      </trkpt>
      <trkpt lat="48.77583" lon="2.09955">
        <ele>120</ele>
        <time>2019-02-17T13:50:48Z</time>
      </trkpt>
      <trkpt lat="48.77578" lon="2.09959">
        <ele>120</ele>
        <time>2019-02-17T13:50:52Z</time>
      </trkpt>
      <trkpt lat="48.77579" lon="2.09968">
        <ele>120</ele>
        <time>2019-02-17T13:51:00Z</time>
      </trkpt>
      <trkpt lat="48.77579" lon="2.09977">
        <ele>119</ele>
        <time>2019-02-17T13:51:11Z</time>
      </trkpt>
      <trkpt lat="48.77587" lon="2.09997">
        <ele>118</ele>
        <time>2019-02-17T13:51:28Z</time>
      </trkpt>
      <trkpt lat="48.77597" lon="2.10011">
        <ele>117</ele>
        <time>2019-02-17T13:51:39Z</time>
      </trkpt>
      <trkpt lat="48.77598" lon="2.1002">
        <ele>118</ele>
        <time>2019-02-17T13:52:06Z</time>
      </trkpt>
      <trkpt lat="48.77604" lon="2.10028">
        <ele>117</ele>
        <time>2019-02-17T13:52:24Z</time>
      </trkpt>
      <trkpt lat="48.77601" lon="2.10039">
        <ele>116</ele>
        <time>2019-02-17T13:52:43Z</time>
      </trkpt>
      <trkpt lat="48.77597" lon="2.10043">
        <ele>116</ele>
        <time>2019-02-17T13:52:47Z</time>
      </trkpt>
      <trkpt lat="48.77594" lon="2.10052">
        <ele>115</ele>
        <time>2019-02-17T13:52:57Z</time>
      </trkpt>
      <trkpt lat="48.77592" lon="2.1006">
        <ele>115</ele>
        <time>2019-02-17T13:53:15Z</time>
      </trkpt>
      <trkpt lat="48.77593" lon="2.10068">
        <ele>115</ele>
        <time>2019-02-17T13:53:27Z</time>
      </trkpt>
      <trkpt lat="48.7759" lon="2.10077">
        <ele>115</ele>
        <time>2019-02-17T13:53:39Z</time>
      </trkpt>
      <trkpt lat="48.77584" lon="2.10091">
        <ele>115</ele>
        <time>2019-02-17T13:53:53Z</time>
      </trkpt>
      <trkpt lat="48.77584" lon="2.10098">
        <ele>116</ele>
        <time>2019-02-17T13:53:59Z</time>
      </trkpt>
      <trkpt lat="48.77587" lon="2.10119">
        <ele>116</ele>
        <time>2019-02-17T13:54:13Z</time>
      </trkpt>
      <trkpt lat="48.77584" lon="2.10164">
        <ele>116</ele>
        <time>2019-02-17T13:54:45Z</time>
      </trkpt>
      <trkpt lat="48.77585" lon="2.10171">
        <ele>116</ele>
        <time>2019-02-17T13:54:49Z</time>
      </trkpt>
      <trkpt lat="48.77583" lon="2.10183">
        <ele>116</ele>
        <time>2019-02-17T13:54:58Z</time>
      </trkpt>
      <trkpt lat="48.77583" lon="2.102">
        <ele>116</ele>
        <time>2019-02-17T13:55:08Z</time>
      </trkpt>
      <trkpt lat="48.77581" lon="2.10207">
        <ele>116</ele>
        <time>2019-02-17T13:55:11Z</time>
      </trkpt>
      <trkpt lat="48.7758" lon="2.10218">
        <ele>116</ele>
        <time>2019-02-17T13:55:19Z</time>
      </trkpt>
      <trkpt lat="48.77581" lon="2.10225">
        <ele>116</ele>
        <time>2019-02-17T13:55:23Z</time>
      </trkpt>
      <trkpt lat="48.77581" lon="2.10232">
        <ele>116</ele>
        <time>2019-02-17T13:55:27Z</time>
      </trkpt>
      <trkpt lat="48.77579" lon="2.10263">
        <ele>115</ele>
        <time>2019-02-17T13:55:50Z</time>
      </trkpt>
      <trkpt lat="48.77581" lon="2.1027">
        <ele>115</ele>
        <time>2019-02-17T13:55:55Z</time>
      </trkpt>
      <trkpt lat="48.77584" lon="2.10277">
        <ele>116</ele>
        <time>2019-02-17T13:56:03Z</time>
      </trkpt>
      <trkpt lat="48.77581" lon="2.10296">
        <ele>116</ele>
        <time>2019-02-17T13:56:35Z</time>
      </trkpt>
      <trkpt lat="48.77582" lon="2.10304">
        <ele>116</ele>
        <time>2019-02-17T13:57:47Z</time>
      </trkpt>
      <trkpt lat="48.77581" lon="2.10311">
        <ele>117</ele>
        <time>2019-02-17T13:57:54Z</time>
      </trkpt>
      <trkpt lat="48.7758" lon="2.10318">
        <ele>117</ele>
        <time>2019-02-17T13:57:59Z</time>
      </trkpt>
      <trkpt lat="48.7758" lon="2.1033">
        <ele>117</ele>
        <time>2019-02-17T13:58:07Z</time>
      </trkpt>
      <trkpt lat="48.7758" lon="2.10346">
        <ele>117</ele>
        <time>2019-02-17T13:58:18Z</time>
      </trkpt>
      <trkpt lat="48.77581" lon="2.10357">
        <ele>116</ele>
        <time>2019-02-17T13:58:26Z</time>
      </trkpt>
      <trkpt lat="48.7758" lon="2.10365">
        <ele>116</ele>
        <time>2019-02-17T13:58:30Z</time>
      </trkpt>
      <trkpt lat="48.77579" lon="2.10372">
        <ele>116</ele>
        <time>2019-02-17T13:58:34Z</time>
      </trkpt>
      <trkpt lat="48.77578" lon="2.10394">
        <ele>116</ele>
        <time>2019-02-17T13:58:47Z</time>
      </trkpt>
      <trkpt lat="48.77579" lon="2.10409">
        <ele>115</ele>
        <time>2019-02-17T13:58:56Z</time>
      </trkpt>
      <trkpt lat="48.77575" lon="2.10434">
        <ele>116</ele>
        <time>2019-02-17T13:59:14Z</time>
      </trkpt>
      <trkpt lat="48.77572" lon="2.1044">
        <ele>116</ele>
        <time>2019-02-17T13:59:19Z</time>
      </trkpt>
      <trkpt lat="48.77569" lon="2.10468">
        <ele>116</ele>
        <time>2019-02-17T13:59:40Z</time>
      </trkpt>
      <trkpt lat="48.77569" lon="2.10487">
        <ele>116</ele>
        <time>2019-02-17T13:59:54Z</time>
      </trkpt>
      <trkpt lat="48.77567" lon="2.10494">
        <ele>116</ele>
        <time>2019-02-17T14:00:12Z</time>
      </trkpt>
      <trkpt lat="48.77564" lon="2.105">
        <ele>116</ele>
        <time>2019-02-17T14:00:54Z</time>
      </trkpt>
      <trkpt lat="48.77563" lon="2.10512">
        <ele>115</ele>
        <time>2019-02-17T14:01:54Z</time>
      </trkpt>
      <trkpt lat="48.77563" lon="2.1052">
        <ele>115</ele>
        <time>2019-02-17T14:01:58Z</time>
      </trkpt>
      <trkpt lat="48.77561" lon="2.10529">
        <ele>116</ele>
        <time>2019-02-17T14:02:06Z</time>
      </trkpt>
      <trkpt lat="48.77558" lon="2.10536">
        <ele>116</ele>
        <time>2019-02-17T14:02:10Z</time>
      </trkpt>
      <trkpt lat="48.77548" lon="2.10542">
        <ele>116</ele>
        <time>2019-02-17T14:02:17Z</time>
      </trkpt>
      <trkpt lat="48.77545" lon="2.10546">
        <ele>116</ele>
        <time>2019-02-17T14:02:21Z</time>
      </trkpt>
      <trkpt lat="48.77534" lon="2.10567">
        <ele>115</ele>
        <time>2019-02-17T14:02:39Z</time>
      </trkpt>
      <trkpt lat="48.77529" lon="2.10579">
        <ele>115</ele>
        <time>2019-02-17T14:02:48Z</time>
      </trkpt>
      <trkpt lat="48.77526" lon="2.10587">
        <ele>115</ele>
        <time>2019-02-17T14:02:55Z</time>
      </trkpt>
      <trkpt lat="48.77522" lon="2.10596">
        <ele>115</ele>
        <time>2019-02-17T14:03:02Z</time>
      </trkpt>
      <trkpt lat="48.77519" lon="2.10602">
        <ele>115</ele>
        <time>2019-02-17T14:03:06Z</time>
      </trkpt>
      <trkpt lat="48.77515" lon="2.10606">
        <ele>115</ele>
        <time>2019-02-17T14:03:11Z</time>
      </trkpt>
      <trkpt lat="48.77511" lon="2.10609">
        <ele>115</ele>
        <time>2019-02-17T14:03:15Z</time>
      </trkpt>
      <trkpt lat="48.77507" lon="2.10616">
        <ele>115</ele>
        <time>2019-02-17T14:03:23Z</time>
      </trkpt>
      <trkpt lat="48.77502" lon="2.10621">
        <ele>115</ele>
        <time>2019-02-17T14:03:27Z</time>
      </trkpt>
      <trkpt lat="48.775" lon="2.10628">
        <ele>115</ele>
        <time>2019-02-17T14:03:31Z</time>
      </trkpt>
      <trkpt lat="48.77497" lon="2.10635">
        <ele>114</ele>
        <time>2019-02-17T14:03:36Z</time>
      </trkpt>
      <trkpt lat="48.77492" lon="2.10642">
        <ele>114</ele>
        <time>2019-02-17T14:03:45Z</time>
      </trkpt>
      <trkpt lat="48.77488" lon="2.1065">
        <ele>115</ele>
        <time>2019-02-17T14:03:57Z</time>
      </trkpt>
      <trkpt lat="48.77483" lon="2.10656">
        <ele>115</ele>
        <time>2019-02-17T14:04:05Z</time>
      </trkpt>
      <trkpt lat="48.7748" lon="2.10662">
        <ele>116</ele>
        <time>2019-02-17T14:04:14Z</time>
      </trkpt>
      <trkpt lat="48.77472" lon="2.10668">
        <ele>116</ele>
        <time>2019-02-17T14:04:29Z</time>
      </trkpt>
      <trkpt lat="48.77468" lon="2.10671">
        <ele>116</ele>
        <time>2019-02-17T14:04:38Z</time>
      </trkpt>
      <trkpt lat="48.77462" lon="2.10669">
        <ele>116</ele>
        <time>2019-02-17T14:05:14Z</time>
      </trkpt>
      <trkpt lat="48.77462" lon="2.10668">
        <ele>116</ele>
        <time>2019-02-17T14:06:53Z</time>
      </trkpt>
      <trkpt lat="48.7746" lon="2.10677">
        <ele>115</ele>
        <time>2019-02-17T14:07:24Z</time>
      </trkpt>
      <trkpt lat="48.7746" lon="2.10684">
        <ele>115</ele>
        <time>2019-02-17T14:07:28Z</time>
      </trkpt>
      <trkpt lat="48.77456" lon="2.10707">
        <ele>114</ele>
        <time>2019-02-17T14:07:43Z</time>
      </trkpt>
      <trkpt lat="48.77454" lon="2.10713">
        <ele>114</ele>
        <time>2019-02-17T14:07:47Z</time>
      </trkpt>
      <trkpt lat="48.77451" lon="2.10729">
        <ele>115</ele>
        <time>2019-02-17T14:08:00Z</time>
      </trkpt>
      <trkpt lat="48.77452" lon="2.10737">
        <ele>114</ele>
        <time>2019-02-17T14:08:06Z</time>
      </trkpt>
      <trkpt lat="48.77454" lon="2.10744">
        <ele>115</ele>
        <time>2019-02-17T14:08:11Z</time>
      </trkpt>
      <trkpt lat="48.77454" lon="2.10754">
        <ele>114</ele>
        <time>2019-02-17T14:08:18Z</time>
      </trkpt>
      <trkpt lat="48.7745" lon="2.10773">
        <ele>115</ele>
        <time>2019-02-17T14:08:30Z</time>
      </trkpt>
      <trkpt lat="48.7745" lon="2.10795">
        <ele>114</ele>
        <time>2019-02-17T14:08:42Z</time>
      </trkpt>
      <trkpt lat="48.77449" lon="2.10802">
        <ele>114</ele>
        <time>2019-02-17T14:08:46Z</time>
      </trkpt>
      <trkpt lat="48.77451" lon="2.1081">
        <ele>114</ele>
        <time>2019-02-17T14:08:50Z</time>
      </trkpt>
      <trkpt lat="48.77453" lon="2.10818">
        <ele>114</ele>
        <time>2019-02-17T14:08:55Z</time>
      </trkpt>
      <trkpt lat="48.77456" lon="2.10826">
        <ele>114</ele>
        <time>2019-02-17T14:09:01Z</time>
      </trkpt>
      <trkpt lat="48.77459" lon="2.10835">
        <ele>114</ele>
        <time>2019-02-17T14:09:09Z</time>
      </trkpt>
      <trkpt lat="48.77458" lon="2.10875">
        <ele>114</ele>
        <time>2019-02-17T14:09:29Z</time>
      </trkpt>
      <trkpt lat="48.77461" lon="2.10886">
        <ele>114</ele>
        <time>2019-02-17T14:09:38Z</time>
      </trkpt>
      <trkpt lat="48.77458" lon="2.10894">
        <ele>114</ele>
        <time>2019-02-17T14:09:41Z</time>
      </trkpt>
      <trkpt lat="48.7746" lon="2.10903">
        <ele>114</ele>
        <time>2019-02-17T14:09:49Z</time>
      </trkpt>
      <trkpt lat="48.77462" lon="2.10909">
        <ele>114</ele>
        <time>2019-02-17T14:09:54Z</time>
      </trkpt>
      <trkpt lat="48.77469" lon="2.10912">
        <ele>114</ele>
        <time>2019-02-17T14:10:01Z</time>
      </trkpt>
      <trkpt lat="48.77474" lon="2.1091">
        <ele>114</ele>
        <time>2019-02-17T14:10:06Z</time>
      </trkpt>
      <trkpt lat="48.77479" lon="2.10908">
        <ele>114</ele>
        <time>2019-02-17T14:10:11Z</time>
      </trkpt>
      <trkpt lat="48.77491" lon="2.10907">
        <ele>114</ele>
        <time>2019-02-17T14:10:24Z</time>
      </trkpt>
      <trkpt lat="48.77495" lon="2.10904">
        <ele>114</ele>
        <time>2019-02-17T14:10:29Z</time>
      </trkpt>
      <trkpt lat="48.775" lon="2.10905">
        <ele>114</ele>
        <time>2019-02-17T14:10:33Z</time>
      </trkpt>
      <trkpt lat="48.77507" lon="2.10903">
        <ele>114</ele>
        <time>2019-02-17T14:10:44Z</time>
      </trkpt>
      <trkpt lat="48.77508" lon="2.1091">
        <ele>114</ele>
        <time>2019-02-17T14:10:48Z</time>
      </trkpt>
      <trkpt lat="48.77514" lon="2.10911">
        <ele>114</ele>
        <time>2019-02-17T14:10:53Z</time>
      </trkpt>
      <trkpt lat="48.77525" lon="2.10908">
        <ele>114</ele>
        <time>2019-02-17T14:11:01Z</time>
      </trkpt>
      <trkpt lat="48.7753" lon="2.10909">
        <ele>114</ele>
        <time>2019-02-17T14:11:05Z</time>
      </trkpt>
      <trkpt lat="48.77535" lon="2.10911">
        <ele>114</ele>
        <time>2019-02-17T14:11:10Z</time>
      </trkpt>
      <trkpt lat="48.77539" lon="2.10915">
        <ele>114</ele>
        <time>2019-02-17T14:11:14Z</time>
      </trkpt>
      <trkpt lat="48.7754" lon="2.10922">
        <ele>114</ele>
        <time>2019-02-17T14:11:18Z</time>
      </trkpt>
      <trkpt lat="48.77542" lon="2.10929">
        <ele>114</ele>
        <time>2019-02-17T14:11:22Z</time>
      </trkpt>
      <trkpt lat="48.77538" lon="2.10986">
        <ele>113</ele>
        <time>2019-02-17T14:11:55Z</time>
      </trkpt>
      <trkpt lat="48.77535" lon="2.10994">
        <ele>113</ele>
        <time>2019-02-17T14:12:00Z</time>
      </trkpt>
      <trkpt lat="48.77533" lon="2.11">
        <ele>114</ele>
        <time>2019-02-17T14:12:05Z</time>
      </trkpt>
      <trkpt lat="48.77526" lon="2.11014">
        <ele>113</ele>
        <time>2019-02-17T14:12:29Z</time>
      </trkpt>
      <trkpt lat="48.77522" lon="2.11028">
        <ele>113</ele>
        <time>2019-02-17T14:12:39Z</time>
      </trkpt>
      <trkpt lat="48.77523" lon="2.11035">
        <ele>113</ele>
        <time>2019-02-17T14:12:44Z</time>
      </trkpt>
      <trkpt lat="48.77521" lon="2.11044">
        <ele>113</ele>
        <time>2019-02-17T14:12:48Z</time>
      </trkpt>
      <trkpt lat="48.77521" lon="2.11051">
        <ele>113</ele>
        <time>2019-02-17T14:12:57Z</time>
      </trkpt>
      <trkpt lat="48.77529" lon="2.11057">
        <ele>113</ele>
        <time>2019-02-17T14:13:07Z</time>
      </trkpt>
      <trkpt lat="48.77535" lon="2.11059">
        <ele>112</ele>
        <time>2019-02-17T14:13:15Z</time>
      </trkpt>
      <trkpt lat="48.77543" lon="2.11067">
        <ele>112</ele>
        <time>2019-02-17T14:13:48Z</time>
      </trkpt>
      <trkpt lat="48.77548" lon="2.1107">
        <ele>112</ele>
        <time>2019-02-17T14:13:52Z</time>
      </trkpt>
      <trkpt lat="48.77557" lon="2.11081">
        <ele>112</ele>
        <time>2019-02-17T14:13:59Z</time>
      </trkpt>
      <trkpt lat="48.77572" lon="2.11091">
        <ele>112</ele>
        <time>2019-02-17T14:14:08Z</time>
      </trkpt>
      <trkpt lat="48.77575" lon="2.11098">
        <ele>112</ele>
        <time>2019-02-17T14:14:11Z</time>
      </trkpt>
      <trkpt lat="48.77577" lon="2.11105">
        <ele>112</ele>
        <time>2019-02-17T14:14:15Z</time>
      </trkpt>
      <trkpt lat="48.7758" lon="2.11111">
        <ele>112</ele>
        <time>2019-02-17T14:14:19Z</time>
      </trkpt>
      <trkpt lat="48.77583" lon="2.11117">
        <ele>112</ele>
        <time>2019-02-17T14:14:22Z</time>
      </trkpt>
      <trkpt lat="48.77597" lon="2.1116">
        <ele>113</ele>
        <time>2019-02-17T14:14:47Z</time>
      </trkpt>
      <trkpt lat="48.77594" lon="2.11185">
        <ele>113</ele>
        <time>2019-02-17T14:14:59Z</time>
      </trkpt>
      <trkpt lat="48.77597" lon="2.11201">
        <ele>113</ele>
        <time>2019-02-17T14:15:07Z</time>
      </trkpt>
      <trkpt lat="48.77597" lon="2.11208">
        <ele>112</ele>
        <time>2019-02-17T14:15:11Z</time>
      </trkpt>
      <trkpt lat="48.77601" lon="2.1123">
        <ele>112</ele>
        <time>2019-02-17T14:15:22Z</time>
      </trkpt>
      <trkpt lat="48.77604" lon="2.11243">
        <ele>112</ele>
        <time>2019-02-17T14:15:30Z</time>
      </trkpt>
      <trkpt lat="48.77605" lon="2.11306">
        <ele>112</ele>
        <time>2019-02-17T14:16:00Z</time>
      </trkpt>
      <trkpt lat="48.77606" lon="2.11352">
        <ele>112</ele>
        <time>2019-02-17T14:16:24Z</time>
      </trkpt>
      <trkpt lat="48.77608" lon="2.1136">
        <ele>112</ele>
        <time>2019-02-17T14:16:28Z</time>
      </trkpt>
      <trkpt lat="48.77607" lon="2.11375">
        <ele>113</ele>
        <time>2019-02-17T14:16:36Z</time>
      </trkpt>
      <trkpt lat="48.77609" lon="2.11383">
        <ele>112</ele>
        <time>2019-02-17T14:16:39Z</time>
      </trkpt>
      <trkpt lat="48.77608" lon="2.11391">
        <ele>112</ele>
        <time>2019-02-17T14:16:44Z</time>
      </trkpt>
      <trkpt lat="48.7761" lon="2.11399">
        <ele>113</ele>
        <time>2019-02-17T14:16:48Z</time>
      </trkpt>
      <trkpt lat="48.77612" lon="2.11407">
        <ele>112</ele>
        <time>2019-02-17T14:16:52Z</time>
      </trkpt>
      <trkpt lat="48.7761" lon="2.11471">
        <ele>112</ele>
        <time>2019-02-17T14:17:23Z</time>
      </trkpt>
      <trkpt lat="48.77612" lon="2.11486">
        <ele>112</ele>
        <time>2019-02-17T14:17:32Z</time>
      </trkpt>
      <trkpt lat="48.77611" lon="2.11518">
        <ele>112</ele>
        <time>2019-02-17T14:17:50Z</time>
      </trkpt>
      <trkpt lat="48.77611" lon="2.11524">
        <ele>112</ele>
        <time>2019-02-17T14:17:53Z</time>
      </trkpt>
      <trkpt lat="48.77608" lon="2.11547">
        <ele>112</ele>
        <time>2019-02-17T14:18:04Z</time>
      </trkpt>
      <trkpt lat="48.7761" lon="2.11562">
        <ele>112</ele>
        <time>2019-02-17T14:18:12Z</time>
      </trkpt>
      <trkpt lat="48.77609" lon="2.11577">
        <ele>112</ele>
        <time>2019-02-17T14:18:19Z</time>
      </trkpt>
      <trkpt lat="48.77614" lon="2.11614">
        <ele>113</ele>
        <time>2019-02-17T14:18:40Z</time>
      </trkpt>
      <trkpt lat="48.77622" lon="2.1164">
        <ele>113</ele>
        <time>2019-02-17T14:18:57Z</time>
      </trkpt>
      <trkpt lat="48.77627" lon="2.11687">
        <ele>113</ele>
        <time>2019-02-17T14:19:22Z</time>
      </trkpt>
      <trkpt lat="48.77626" lon="2.11694">
        <ele>113</ele>
        <time>2019-02-17T14:19:26Z</time>
      </trkpt>
      <trkpt lat="48.77632" lon="2.1173">
        <ele>114</ele>
        <time>2019-02-17T14:19:46Z</time>
      </trkpt>
      <trkpt lat="48.77628" lon="2.11735">
        <ele>114</ele>
        <time>2019-02-17T14:20:05Z</time>
      </trkpt>
      <trkpt lat="48.77627" lon="2.11748">
        <ele>114</ele>
        <time>2019-02-17T14:20:48Z</time>
      </trkpt>
      <trkpt lat="48.77634" lon="2.11763">
        <ele>114</ele>
        <time>2019-02-17T14:21:02Z</time>
      </trkpt>
      <trkpt lat="48.7764" lon="2.11765">
        <ele>114</ele>
        <time>2019-02-17T14:21:09Z</time>
      </trkpt>
      <trkpt lat="48.77643" lon="2.11771">
        <ele>114</ele>
        <time>2019-02-17T14:21:17Z</time>
      </trkpt>
      <trkpt lat="48.77644" lon="2.11781">
        <ele>113</ele>
        <time>2019-02-17T14:21:29Z</time>
      </trkpt>
      <trkpt lat="48.77657" lon="2.11789">
        <ele>111</ele>
        <time>2019-02-17T14:21:49Z</time>
      </trkpt>
      <trkpt lat="48.77662" lon="2.11788">
        <ele>110</ele>
        <time>2019-02-17T14:21:54Z</time>
      </trkpt>
      <trkpt lat="48.77672" lon="2.11785">
        <ele>110</ele>
        <time>2019-02-17T14:22:03Z</time>
      </trkpt>
      <trkpt lat="48.77677" lon="2.11785">
        <ele>110</ele>
        <time>2019-02-17T14:22:07Z</time>
      </trkpt>
      <trkpt lat="48.77681" lon="2.11789">
        <ele>110</ele>
        <time>2019-02-17T14:22:11Z</time>
      </trkpt>
      <trkpt lat="48.77684" lon="2.11795">
        <ele>109</ele>
        <time>2019-02-17T14:22:16Z</time>
      </trkpt>
      <trkpt lat="48.77689" lon="2.11818">
        <ele>109</ele>
        <time>2019-02-17T14:22:29Z</time>
      </trkpt>
      <trkpt lat="48.77694" lon="2.11864">
        <ele>109</ele>
        <time>2019-02-17T14:22:50Z</time>
      </trkpt>
      <trkpt lat="48.77694" lon="2.11877">
        <ele>108</ele>
        <time>2019-02-17T14:22:58Z</time>
      </trkpt>
      <trkpt lat="48.77695" lon="2.11886">
        <ele>108</ele>
        <time>2019-02-17T14:23:03Z</time>
      </trkpt>
      <trkpt lat="48.77698" lon="2.11891">
        <ele>108</ele>
        <time>2019-02-17T14:23:07Z</time>
      </trkpt>
      <trkpt lat="48.77699" lon="2.119">
        <ele>108</ele>
        <time>2019-02-17T14:23:14Z</time>
      </trkpt>
      <trkpt lat="48.77696" lon="2.11924">
        <ele>108</ele>
        <time>2019-02-17T14:23:28Z</time>
      </trkpt>
      <trkpt lat="48.77698" lon="2.11939">
        <ele>108</ele>
        <time>2019-02-17T14:23:36Z</time>
      </trkpt>
      <trkpt lat="48.77696" lon="2.11954">
        <ele>108</ele>
        <time>2019-02-17T14:23:44Z</time>
      </trkpt>
      <trkpt lat="48.77692" lon="2.11961">
        <ele>108</ele>
        <time>2019-02-17T14:23:48Z</time>
      </trkpt>
      <trkpt lat="48.77689" lon="2.11975">
        <ele>108</ele>
        <time>2019-02-17T14:23:54Z</time>
      </trkpt>
      <trkpt lat="48.77688" lon="2.11999">
        <ele>108</ele>
        <time>2019-02-17T14:24:06Z</time>
      </trkpt>
      <trkpt lat="48.77681" lon="2.12021">
        <ele>108</ele>
        <time>2019-02-17T14:24:18Z</time>
      </trkpt>
      <trkpt lat="48.77679" lon="2.12052">
        <ele>107</ele>
        <time>2019-02-17T14:24:32Z</time>
      </trkpt>
      <trkpt lat="48.77672" lon="2.12072">
        <ele>108</ele>
        <time>2019-02-17T14:24:41Z</time>
      </trkpt>
      <trkpt lat="48.77663" lon="2.12093">
        <ele>107</ele>
        <time>2019-02-17T14:24:51Z</time>
      </trkpt>
      <trkpt lat="48.77654" lon="2.12111">
        <ele>107</ele>
        <time>2019-02-17T14:25:01Z</time>
      </trkpt>
      <trkpt lat="48.77652" lon="2.12117">
        <ele>107</ele>
        <time>2019-02-17T14:25:05Z</time>
      </trkpt>
      <trkpt lat="48.7764" lon="2.12153">
        <ele>108</ele>
        <time>2019-02-17T14:25:26Z</time>
      </trkpt>
      <trkpt lat="48.77633" lon="2.12182">
        <ele>107</ele>
        <time>2019-02-17T14:25:41Z</time>
      </trkpt>
      <trkpt lat="48.77622" lon="2.12207">
        <ele>107</ele>
        <time>2019-02-17T14:25:55Z</time>
      </trkpt>
      <trkpt lat="48.7762" lon="2.12213">
        <ele>106</ele>
        <time>2019-02-17T14:26:00Z</time>
      </trkpt>
      <trkpt lat="48.7762" lon="2.12222">
        <ele>106</ele>
        <time>2019-02-17T14:26:04Z</time>
      </trkpt>
      <trkpt lat="48.77618" lon="2.12229">
        <ele>106</ele>
        <time>2019-02-17T14:26:07Z</time>
      </trkpt>
      <trkpt lat="48.77617" lon="2.12237">
        <ele>107</ele>
        <time>2019-02-17T14:26:11Z</time>
      </trkpt>
      <trkpt lat="48.77611" lon="2.12267">
        <ele>106</ele>
        <time>2019-02-17T14:26:26Z</time>
      </trkpt>
      <trkpt lat="48.77609" lon="2.12273">
        <ele>106</ele>
        <time>2019-02-17T14:26:31Z</time>
      </trkpt>
      <trkpt lat="48.77589" lon="2.12291">
        <ele>107</ele>
        <time>2019-02-17T14:26:45Z</time>
      </trkpt>
      <trkpt lat="48.77586" lon="2.12297">
        <ele>107</ele>
        <time>2019-02-17T14:26:48Z</time>
      </trkpt>
      <trkpt lat="48.77584" lon="2.12305">
        <ele>107</ele>
        <time>2019-02-17T14:26:52Z</time>
      </trkpt>
      <trkpt lat="48.77582" lon="2.12311">
        <ele>107</ele>
        <time>2019-02-17T14:26:56Z</time>
      </trkpt>
      <trkpt lat="48.77562" lon="2.12323">
        <ele>108</ele>
        <time>2019-02-17T14:27:11Z</time>
      </trkpt>
      <trkpt lat="48.77559" lon="2.12328">
        <ele>108</ele>
        <time>2019-02-17T14:27:15Z</time>
      </trkpt>
      <trkpt lat="48.77555" lon="2.12333">
        <ele>107</ele>
        <time>2019-02-17T14:27:19Z</time>
      </trkpt>
      <trkpt lat="48.77555" lon="2.12346">
        <ele>107</ele>
        <time>2019-02-17T14:27:30Z</time>
      </trkpt>
      <trkpt lat="48.77556" lon="2.12354">
        <ele>107</ele>
        <time>2019-02-17T14:27:35Z</time>
      </trkpt>
      <trkpt lat="48.77557" lon="2.12362">
        <ele>107</ele>
        <time>2019-02-17T14:27:40Z</time>
      </trkpt>
      <trkpt lat="48.77557" lon="2.12369">
        <ele>107</ele>
        <time>2019-02-17T14:27:44Z</time>
      </trkpt>
      <trkpt lat="48.77556" lon="2.12386">
        <ele>107</ele>
        <time>2019-02-17T14:27:51Z</time>
      </trkpt>
      <trkpt lat="48.77554" lon="2.12392">
        <ele>106</ele>
        <time>2019-02-17T14:27:54Z</time>
      </trkpt>
      <trkpt lat="48.77551" lon="2.12399">
        <ele>106</ele>
        <time>2019-02-17T14:27:57Z</time>
      </trkpt>
      <trkpt lat="48.77547" lon="2.12403">
        <ele>106</ele>
        <time>2019-02-17T14:28:00Z</time>
      </trkpt>
      <trkpt lat="48.7754" lon="2.12416">
        <ele>106</ele>
        <time>2019-02-17T14:28:08Z</time>
      </trkpt>
      <trkpt lat="48.77529" lon="2.12441">
        <ele>106</ele>
        <time>2019-02-17T14:28:23Z</time>
      </trkpt>
      <trkpt lat="48.7753" lon="2.12453">
        <ele>107</ele>
        <time>2019-02-17T14:28:36Z</time>
      </trkpt>
      <trkpt lat="48.7753" lon="2.12461">
        <ele>107</ele>
        <time>2019-02-17T14:28:41Z</time>
      </trkpt>
      <trkpt lat="48.77525" lon="2.12463">
        <ele>107</ele>
        <time>2019-02-17T14:28:57Z</time>
      </trkpt>
      <trkpt lat="48.77527" lon="2.12469">
        <ele>107</ele>
        <time>2019-02-17T14:30:27Z</time>
      </trkpt>
      <trkpt lat="48.77523" lon="2.12474">
        <ele>107</ele>
        <time>2019-02-17T14:30:33Z</time>
      </trkpt>
      <trkpt lat="48.7752" lon="2.12487">
        <ele>107</ele>
        <time>2019-02-17T14:30:44Z</time>
      </trkpt>
      <trkpt lat="48.77506" lon="2.125">
        <ele>107</ele>
        <time>2019-02-17T14:30:54Z</time>
      </trkpt>
      <trkpt lat="48.77504" lon="2.12506">
        <ele>108</ele>
        <time>2019-02-17T14:30:59Z</time>
      </trkpt>
      <trkpt lat="48.77501" lon="2.12522">
        <ele>108</ele>
        <time>2019-02-17T14:31:09Z</time>
      </trkpt>
      <trkpt lat="48.77497" lon="2.12582">
        <ele>108</ele>
        <time>2019-02-17T14:31:42Z</time>
      </trkpt>
      <trkpt lat="48.77497" lon="2.12591">
        <ele>108</ele>
        <time>2019-02-17T14:31:46Z</time>
      </trkpt>
      <trkpt lat="48.77494" lon="2.12604">
        <ele>108</ele>
        <time>2019-02-17T14:31:53Z</time>
      </trkpt>
      <trkpt lat="48.77494" lon="2.12612">
        <ele>108</ele>
        <time>2019-02-17T14:31:57Z</time>
      </trkpt>
      <trkpt lat="48.77496" lon="2.12619">
        <ele>108</ele>
        <time>2019-02-17T14:32:01Z</time>
      </trkpt>
      <trkpt lat="48.77498" lon="2.12626">
        <ele>108</ele>
        <time>2019-02-17T14:32:05Z</time>
      </trkpt>
      <trkpt lat="48.77497" lon="2.12642">
        <ele>109</ele>
        <time>2019-02-17T14:32:15Z</time>
      </trkpt>
      <trkpt lat="48.77499" lon="2.12649">
        <ele>109</ele>
        <time>2019-02-17T14:32:19Z</time>
      </trkpt>
      <trkpt lat="48.77501" lon="2.12664">
        <ele>108</ele>
        <time>2019-02-17T14:32:27Z</time>
      </trkpt>
      <trkpt lat="48.77501" lon="2.1268">
        <ele>108</ele>
        <time>2019-02-17T14:32:35Z</time>
      </trkpt>
      <trkpt lat="48.77497" lon="2.12703">
        <ele>108</ele>
        <time>2019-02-17T14:32:46Z</time>
      </trkpt>
      <trkpt lat="48.77493" lon="2.12706">
        <ele>108</ele>
        <time>2019-02-17T14:32:50Z</time>
      </trkpt>
      <trkpt lat="48.77485" lon="2.12739">
        <ele>109</ele>
        <time>2019-02-17T14:33:14Z</time>
      </trkpt>
      <trkpt lat="48.77484" lon="2.12745">
        <ele>109</ele>
        <time>2019-02-17T14:33:18Z</time>
      </trkpt>
      <trkpt lat="48.77482" lon="2.12753">
        <ele>109</ele>
        <time>2019-02-17T14:33:23Z</time>
      </trkpt>
      <trkpt lat="48.77483" lon="2.12761">
        <ele>109</ele>
        <time>2019-02-17T14:33:27Z</time>
      </trkpt>
      <trkpt lat="48.77485" lon="2.12767">
        <ele>109</ele>
        <time>2019-02-17T14:33:31Z</time>
      </trkpt>
      <trkpt lat="48.77487" lon="2.12804">
        <ele>109</ele>
        <time>2019-02-17T14:33:48Z</time>
      </trkpt>
      <trkpt lat="48.77486" lon="2.12812">
        <ele>108</ele>
        <time>2019-02-17T14:33:52Z</time>
      </trkpt>
      <trkpt lat="48.7748" lon="2.12836">
        <ele>108</ele>
        <time>2019-02-17T14:34:04Z</time>
      </trkpt>
      <trkpt lat="48.77479" lon="2.12844">
        <ele>108</ele>
        <time>2019-02-17T14:34:09Z</time>
      </trkpt>
      <trkpt lat="48.77484" lon="2.1285">
        <ele>107</ele>
        <time>2019-02-17T14:34:23Z</time>
      </trkpt>
      <trkpt lat="48.77491" lon="2.12852">
        <ele>106</ele>
        <time>2019-02-17T14:34:33Z</time>
      </trkpt>
      <trkpt lat="48.77501" lon="2.12864">
        <ele>105</ele>
        <time>2019-02-17T14:34:41Z</time>
      </trkpt>
      <trkpt lat="48.77521" lon="2.12888">
        <ele>105</ele>
        <time>2019-02-17T14:34:59Z</time>
      </trkpt>
      <trkpt lat="48.77524" lon="2.12897">
        <ele>104</ele>
        <time>2019-02-17T14:35:08Z</time>
      </trkpt>
      <trkpt lat="48.77518" lon="2.12909">
        <ele>104</ele>
        <time>2019-02-17T14:35:17Z</time>
      </trkpt>
      <trkpt lat="48.77516" lon="2.12916">
        <ele>103</ele>
        <time>2019-02-17T14:35:22Z</time>
      </trkpt>
      <trkpt lat="48.77507" lon="2.12958">
        <ele>104</ele>
        <time>2019-02-17T14:35:51Z</time>
      </trkpt>
      <trkpt lat="48.77505" lon="2.12973">
        <ele>104</ele>
        <time>2019-02-17T14:36:01Z</time>
      </trkpt>
      <trkpt lat="48.77495" lon="2.13">
        <ele>104</ele>
        <time>2019-02-17T14:36:17Z</time>
      </trkpt>
      <trkpt lat="48.77494" lon="2.13007">
        <ele>104</ele>
        <time>2019-02-17T14:36:22Z</time>
      </trkpt>
      <trkpt lat="48.77488" lon="2.13027">
        <ele>104</ele>
        <time>2019-02-17T14:36:35Z</time>
      </trkpt>
      <trkpt lat="48.77485" lon="2.1305">
        <ele>104</ele>
        <time>2019-02-17T14:36:49Z</time>
      </trkpt>
      <trkpt lat="48.77481" lon="2.13064">
        <ele>104</ele>
        <time>2019-02-17T14:36:56Z</time>
      </trkpt>
      <trkpt lat="48.77472" lon="2.13084">
        <ele>104</ele>
        <time>2019-02-17T14:37:08Z</time>
      </trkpt>
      <trkpt lat="48.77464" lon="2.13092">
        <ele>104</ele>
        <time>2019-02-17T14:37:16Z</time>
      </trkpt>
      <trkpt lat="48.77429" lon="2.13112">
        <ele>105</ele>
        <time>2019-02-17T14:37:50Z</time>
      </trkpt>
      <trkpt lat="48.77424" lon="2.13114">
        <ele>105</ele>
        <time>2019-02-17T14:37:53Z</time>
      </trkpt>
      <trkpt lat="48.77419" lon="2.13113">
        <ele>105</ele>
        <time>2019-02-17T14:37:58Z</time>
      </trkpt>
      <trkpt lat="48.77413" lon="2.13109">
        <ele>105</ele>
        <time>2019-02-17T14:38:02Z</time>
      </trkpt>
      <trkpt lat="48.77408" lon="2.13111">
        <ele>105</ele>
        <time>2019-02-17T14:38:07Z</time>
      </trkpt>
      <trkpt lat="48.77403" lon="2.1311">
        <ele>105</ele>
        <time>2019-02-17T14:38:15Z</time>
      </trkpt>
      <trkpt lat="48.77388" lon="2.13119">
        <ele>105</ele>
        <time>2019-02-17T14:38:30Z</time>
      </trkpt>
      <trkpt lat="48.77376" lon="2.13132">
        <ele>105</ele>
        <time>2019-02-17T14:38:43Z</time>
      </trkpt>
      <trkpt lat="48.77361" lon="2.13162">
        <ele>105</ele>
        <time>2019-02-17T14:39:05Z</time>
      </trkpt>
      <trkpt lat="48.77358" lon="2.1317">
        <ele>105</ele>
        <time>2019-02-17T14:39:09Z</time>
      </trkpt>
      <trkpt lat="48.7735" lon="2.1318">
        <ele>105</ele>
        <time>2019-02-17T14:39:17Z</time>
      </trkpt>
      <trkpt lat="48.77317" lon="2.1321">
        <ele>107</ele>
        <time>2019-02-17T14:39:50Z</time>
      </trkpt>
      <trkpt lat="48.77312" lon="2.13213">
        <ele>107</ele>
        <time>2019-02-17T14:39:55Z</time>
      </trkpt>
      <trkpt lat="48.77304" lon="2.13215">
        <ele>108</ele>
        <time>2019-02-17T14:40:03Z</time>
      </trkpt>
      <trkpt lat="48.77299" lon="2.13217">
        <ele>108</ele>
        <time>2019-02-17T14:40:07Z</time>
      </trkpt>
      <trkpt lat="48.77283" lon="2.13218">
        <ele>110</ele>
        <time>2019-02-17T14:40:19Z</time>
      </trkpt>
      <trkpt lat="48.77262" lon="2.13213">
        <ele>110</ele>
        <time>2019-02-17T14:40:32Z</time>
      </trkpt>
      <trkpt lat="48.77252" lon="2.13202">
        <ele>111</ele>
        <time>2019-02-17T14:40:41Z</time>
      </trkpt>
      <trkpt lat="48.77247" lon="2.13187">
        <ele>111</ele>
        <time>2019-02-17T14:40:48Z</time>
      </trkpt>
      <trkpt lat="48.77233" lon="2.1317">
        <ele>112</ele>
        <time>2019-02-17T14:41:02Z</time>
      </trkpt>
      <trkpt lat="48.77229" lon="2.1317">
        <ele>113</ele>
        <time>2019-02-17T14:41:07Z</time>
      </trkpt>
      <trkpt lat="48.77226" lon="2.13163">
        <ele>115</ele>
        <time>2019-02-17T14:41:16Z</time>
      </trkpt>
      <trkpt lat="48.77213" lon="2.13144">
        <ele>117</ele>
        <time>2019-02-17T14:41:30Z</time>
      </trkpt>
      <trkpt lat="48.77206" lon="2.1314">
        <ele>118</ele>
        <time>2019-02-17T14:41:36Z</time>
      </trkpt>
      <trkpt lat="48.77204" lon="2.13134">
        <ele>118</ele>
        <time>2019-02-17T14:41:39Z</time>
      </trkpt>
      <trkpt lat="48.77196" lon="2.13123">
        <ele>119</ele>
        <time>2019-02-17T14:41:48Z</time>
      </trkpt>
      <trkpt lat="48.77187" lon="2.13115">
        <ele>120</ele>
        <time>2019-02-17T14:41:56Z</time>
      </trkpt>
      <trkpt lat="48.77184" lon="2.13109">
        <ele>120</ele>
        <time>2019-02-17T14:42:00Z</time>
      </trkpt>
      <trkpt lat="48.77179" lon="2.13105">
        <ele>121</ele>
        <time>2019-02-17T14:42:04Z</time>
      </trkpt>
      <trkpt lat="48.7717" lon="2.13099">
        <ele>122</ele>
        <time>2019-02-17T14:42:12Z</time>
      </trkpt>
      <trkpt lat="48.77159" lon="2.13085">
        <ele>123</ele>
        <time>2019-02-17T14:42:24Z</time>
      </trkpt>
      <trkpt lat="48.77154" lon="2.13082">
        <ele>124</ele>
        <time>2019-02-17T14:42:29Z</time>
      </trkpt>
      <trkpt lat="48.7715" lon="2.13081">
        <ele>125</ele>
        <time>2019-02-17T14:42:34Z</time>
      </trkpt>
      <trkpt lat="48.77145" lon="2.13077">
        <ele>126</ele>
        <time>2019-02-17T14:42:44Z</time>
      </trkpt>
      <trkpt lat="48.77143" lon="2.1307">
        <ele>128</ele>
        <time>2019-02-17T14:42:56Z</time>
      </trkpt>
      <trkpt lat="48.77142" lon="2.13082">
        <ele>130</ele>
        <time>2019-02-17T14:43:26Z</time>
      </trkpt>
      <trkpt lat="48.77141" lon="2.13089">
        <ele>130</ele>
        <time>2019-02-17T14:43:32Z</time>
      </trkpt>
      <trkpt lat="48.77141" lon="2.13112">
        <ele>132</ele>
        <time>2019-02-17T14:43:44Z</time>
      </trkpt>
      <trkpt lat="48.77141" lon="2.13119">
        <ele>132</ele>
        <time>2019-02-17T14:43:48Z</time>
      </trkpt>
      <trkpt lat="48.77143" lon="2.13127">
        <ele>132</ele>
        <time>2019-02-17T14:43:52Z</time>
      </trkpt>
      <trkpt lat="48.77145" lon="2.13145">
        <ele>131</ele>
        <time>2019-02-17T14:44:03Z</time>
      </trkpt>
      <trkpt lat="48.77162" lon="2.13191">
        <ele>131</ele>
        <time>2019-02-17T14:44:30Z</time>
      </trkpt>
      <trkpt lat="48.77168" lon="2.13208">
        <ele>131</ele>
        <time>2019-02-17T14:44:53Z</time>
      </trkpt>
      <trkpt lat="48.77165" lon="2.13224">
        <ele>132</ele>
        <time>2019-02-17T14:45:17Z</time>
      </trkpt>
      <trkpt lat="48.77156" lon="2.13225">
        <ele>132</ele>
        <time>2019-02-17T14:45:28Z</time>
      </trkpt>
      <trkpt lat="48.77152" lon="2.13221">
        <ele>131</ele>
        <time>2019-02-17T14:45:37Z</time>
      </trkpt>
      <trkpt lat="48.77146" lon="2.13221">
        <ele>130</ele>
        <time>2019-02-17T14:45:49Z</time>
      </trkpt>
      <trkpt lat="48.77139" lon="2.13228">
        <ele>129</ele>
        <time>2019-02-17T14:46:09Z</time>
      </trkpt>
      <trkpt lat="48.77143" lon="2.13234">
        <ele>129</ele>
        <time>2019-02-17T14:46:14Z</time>
      </trkpt>
      <trkpt lat="48.77142" lon="2.13242">
        <ele>129</ele>
        <time>2019-02-17T14:46:19Z</time>
      </trkpt>
      <trkpt lat="48.77143" lon="2.13252">
        <ele>128</ele>
        <time>2019-02-17T14:46:26Z</time>
      </trkpt>
      <trkpt lat="48.77143" lon="2.13259">
        <ele>127</ele>
        <time>2019-02-17T14:46:31Z</time>
      </trkpt>
      <trkpt lat="48.77141" lon="2.13274">
        <ele>126</ele>
        <time>2019-02-17T14:46:38Z</time>
      </trkpt>
      <trkpt lat="48.77126" lon="2.1332">
        <ele>123</ele>
        <time>2019-02-17T14:47:05Z</time>
      </trkpt>
      <trkpt lat="48.77123" lon="2.13334">
        <ele>122</ele>
        <time>2019-02-17T14:47:14Z</time>
      </trkpt>
      <trkpt lat="48.77123" lon="2.13342">
        <ele>121</ele>
        <time>2019-02-17T14:47:19Z</time>
      </trkpt>
      <trkpt lat="48.77114" lon="2.13373">
        <ele>120</ele>
        <time>2019-02-17T14:47:36Z</time>
      </trkpt>
      <trkpt lat="48.77113" lon="2.13381">
        <ele>120</ele>
        <time>2019-02-17T14:47:39Z</time>
      </trkpt>
      <trkpt lat="48.77107" lon="2.13403">
        <ele>119</ele>
        <time>2019-02-17T14:47:50Z</time>
      </trkpt>
      <trkpt lat="48.77105" lon="2.13432">
        <ele>118</ele>
        <time>2019-02-17T14:48:05Z</time>
      </trkpt>
      <trkpt lat="48.77099" lon="2.13443">
        <ele>117</ele>
        <time>2019-02-17T14:48:12Z</time>
      </trkpt>
      <trkpt lat="48.77092" lon="2.13474">
        <ele>116</ele>
        <time>2019-02-17T14:48:27Z</time>
      </trkpt>
      <trkpt lat="48.77092" lon="2.13481">
        <ele>116</ele>
        <time>2019-02-17T14:48:31Z</time>
      </trkpt>
      <trkpt lat="48.77091" lon="2.13488">
        <ele>116</ele>
        <time>2019-02-17T14:48:36Z</time>
      </trkpt>
      <trkpt lat="48.77091" lon="2.13496">
        <ele>116</ele>
        <time>2019-02-17T14:48:40Z</time>
      </trkpt>
      <trkpt lat="48.77089" lon="2.13503">
        <ele>116</ele>
        <time>2019-02-17T14:48:44Z</time>
      </trkpt>
      <trkpt lat="48.77086" lon="2.13509">
        <ele>116</ele>
        <time>2019-02-17T14:48:48Z</time>
      </trkpt>
      <trkpt lat="48.77084" lon="2.13529">
        <ele>118</ele>
        <time>2019-02-17T14:49:06Z</time>
      </trkpt>
      <trkpt lat="48.7708" lon="2.13543">
        <ele>120</ele>
        <time>2019-02-17T14:49:15Z</time>
      </trkpt>
      <trkpt lat="48.7708" lon="2.13551">
        <ele>120</ele>
        <time>2019-02-17T14:49:19Z</time>
      </trkpt>
      <trkpt lat="48.77082" lon="2.13567">
        <ele>122</ele>
        <time>2019-02-17T14:49:30Z</time>
      </trkpt>
      <trkpt lat="48.77079" lon="2.13583">
        <ele>124</ele>
        <time>2019-02-17T14:49:39Z</time>
      </trkpt>
      <trkpt lat="48.77078" lon="2.13591">
        <ele>124</ele>
        <time>2019-02-17T14:49:43Z</time>
      </trkpt>
      <trkpt lat="48.77077" lon="2.13599">
        <ele>124</ele>
        <time>2019-02-17T14:49:47Z</time>
      </trkpt>
      <trkpt lat="48.77076" lon="2.13629">
        <ele>122</ele>
        <time>2019-02-17T14:50:03Z</time>
      </trkpt>
      <trkpt lat="48.77073" lon="2.13637">
        <ele>121</ele>
        <time>2019-02-17T14:50:06Z</time>
      </trkpt>
      <trkpt lat="48.77073" lon="2.13645">
        <ele>121</ele>
        <time>2019-02-17T14:50:10Z</time>
      </trkpt>
      <trkpt lat="48.77062" lon="2.13685">
        <ele>120</ele>
        <time>2019-02-17T14:50:29Z</time>
      </trkpt>
      <trkpt lat="48.77056" lon="2.13698">
        <ele>120</ele>
        <time>2019-02-17T14:50:36Z</time>
      </trkpt>
      <trkpt lat="48.77051" lon="2.13713">
        <ele>119</ele>
        <time>2019-02-17T14:50:45Z</time>
      </trkpt>
      <trkpt lat="48.77037" lon="2.13727">
        <ele>119</ele>
        <time>2019-02-17T14:50:55Z</time>
      </trkpt>
      <trkpt lat="48.77027" lon="2.1373">
        <ele>119</ele>
        <time>2019-02-17T14:51:02Z</time>
      </trkpt>
      <trkpt lat="48.77012" lon="2.13731">
        <ele>120</ele>
        <time>2019-02-17T14:51:20Z</time>
      </trkpt>
      <trkpt lat="48.77008" lon="2.13736">
        <ele>120</ele>
        <time>2019-02-17T14:51:24Z</time>
      </trkpt>
      <trkpt lat="48.76998" lon="2.13753">
        <ele>120</ele>
        <time>2019-02-17T14:51:37Z</time>
      </trkpt>
      <trkpt lat="48.76993" lon="2.13766">
        <ele>121</ele>
        <time>2019-02-17T14:51:48Z</time>
      </trkpt>
      <trkpt lat="48.76986" lon="2.13777">
        <ele>122</ele>
        <time>2019-02-17T14:51:56Z</time>
      </trkpt>
      <trkpt lat="48.76974" lon="2.13812">
        <ele>124</ele>
        <time>2019-02-17T14:52:16Z</time>
      </trkpt>
      <trkpt lat="48.76969" lon="2.13825">
        <ele>123</ele>
        <time>2019-02-17T14:52:25Z</time>
      </trkpt>
      <trkpt lat="48.76964" lon="2.13846">
        <ele>121</ele>
        <time>2019-02-17T14:52:37Z</time>
      </trkpt>
      <trkpt lat="48.76962" lon="2.13861">
        <ele>120</ele>
        <time>2019-02-17T14:52:44Z</time>
      </trkpt>
      <trkpt lat="48.76963" lon="2.13869">
        <ele>119</ele>
        <time>2019-02-17T14:52:48Z</time>
      </trkpt>
      <trkpt lat="48.76965" lon="2.13885">
        <ele>119</ele>
        <time>2019-02-17T14:52:55Z</time>
      </trkpt>
      <trkpt lat="48.76964" lon="2.139">
        <ele>118</ele>
        <time>2019-02-17T14:53:03Z</time>
      </trkpt>
      <trkpt lat="48.76962" lon="2.13907">
        <ele>117</ele>
        <time>2019-02-17T14:53:06Z</time>
      </trkpt>
      <trkpt lat="48.76958" lon="2.13912">
        <ele>117</ele>
        <time>2019-02-17T14:53:09Z</time>
      </trkpt>
      <trkpt lat="48.76958" lon="2.1392">
        <ele>116</ele>
        <time>2019-02-17T14:53:12Z</time>
      </trkpt>
      <trkpt lat="48.76958" lon="2.13928">
        <ele>116</ele>
        <time>2019-02-17T14:53:15Z</time>
      </trkpt>
      <trkpt lat="48.76964" lon="2.13941">
        <ele>115</ele>
        <time>2019-02-17T14:53:21Z</time>
      </trkpt>
      <trkpt lat="48.7698" lon="2.13962">
        <ele>112</ele>
        <time>2019-02-17T14:53:37Z</time>
      </trkpt>
      <trkpt lat="48.76987" lon="2.1397">
        <ele>112</ele>
        <time>2019-02-17T14:53:43Z</time>
      </trkpt>
      <trkpt lat="48.77007" lon="2.14011">
        <ele>108</ele>
        <time>2019-02-17T14:54:06Z</time>
      </trkpt>
      <trkpt lat="48.7701" lon="2.14015">
        <ele>108</ele>
        <time>2019-02-17T14:54:09Z</time>
      </trkpt>
      <trkpt lat="48.77014" lon="2.14017">
        <ele>107</ele>
        <time>2019-02-17T14:54:13Z</time>
      </trkpt>
      <trkpt lat="48.77025" lon="2.14032">
        <ele>106</ele>
        <time>2019-02-17T14:54:37Z</time>
      </trkpt>
      <trkpt lat="48.77032" lon="2.14043">
        <ele>105</ele>
        <time>2019-02-17T14:54:45Z</time>
      </trkpt>
      <trkpt lat="48.7704" lon="2.14053">
        <ele>104</ele>
        <time>2019-02-17T14:54:53Z</time>
      </trkpt>
      <trkpt lat="48.77055" lon="2.14078">
        <ele>103</ele>
        <time>2019-02-17T14:55:09Z</time>
      </trkpt>
      <trkpt lat="48.77072" lon="2.14097">
        <ele>102</ele>
        <time>2019-02-17T14:55:25Z</time>
      </trkpt>
      <trkpt lat="48.77078" lon="2.14109">
        <ele>102</ele>
        <time>2019-02-17T14:55:33Z</time>
      </trkpt>
      <trkpt lat="48.77082" lon="2.14113">
        <ele>102</ele>
        <time>2019-02-17T14:55:37Z</time>
      </trkpt>
      <trkpt lat="48.77086" lon="2.14108">
        <ele>102</ele>
        <time>2019-02-17T14:55:46Z</time>
      </trkpt>
      <trkpt lat="48.7709" lon="2.14119">
        <ele>102</ele>
        <time>2019-02-17T14:56:23Z</time>
      </trkpt>
      <trkpt lat="48.771" lon="2.14124">
        <ele>101</ele>
        <time>2019-02-17T14:56:31Z</time>
      </trkpt>
      <trkpt lat="48.77106" lon="2.14115">
        <ele>101</ele>
        <time>2019-02-17T14:56:44Z</time>
      </trkpt>
      <trkpt lat="48.77119" lon="2.14108">
        <ele>101</ele>
        <time>2019-02-17T14:56:57Z</time>
      </trkpt>
      <trkpt lat="48.77121" lon="2.14117">
        <ele>102</ele>
        <time>2019-02-17T14:57:06Z</time>
      </trkpt>
      <trkpt lat="48.77121" lon="2.14125">
        <ele>103</ele>
        <time>2019-02-17T14:57:13Z</time>
      </trkpt>
      <trkpt lat="48.77119" lon="2.14126">
        <ele>101</ele>
        <time>2019-02-17T14:58:50Z</time>
      </trkpt>
      <trkpt lat="48.77117" lon="2.14135">
        <ele>100</ele>
        <time>2019-02-17T15:04:38Z</time>
      </trkpt>
      <trkpt lat="48.77118" lon="2.14144">
        <ele>100</ele>
        <time>2019-02-17T15:04:49Z</time>
      </trkpt>
      <trkpt lat="48.77116" lon="2.14166">
        <ele>100</ele>
        <time>2019-02-17T15:05:00Z</time>
      </trkpt>
      <trkpt lat="48.77107" lon="2.14185">
        <ele>99</ele>
        <time>2019-02-17T15:05:11Z</time>
      </trkpt>
      <trkpt lat="48.77093" lon="2.1422">
        <ele>99</ele>
        <time>2019-02-17T15:05:30Z</time>
      </trkpt>
      <trkpt lat="48.77083" lon="2.14238">
        <ele>99</ele>
        <time>2019-02-17T15:05:42Z</time>
      </trkpt>
      <trkpt lat="48.77076" lon="2.14259">
        <ele>99</ele>
        <time>2019-02-17T15:05:54Z</time>
      </trkpt>
      <trkpt lat="48.77068" lon="2.14268">
        <ele>99</ele>
        <time>2019-02-17T15:06:01Z</time>
      </trkpt>
      <trkpt lat="48.77046" lon="2.14321">
        <ele>99</ele>
        <time>2019-02-17T15:06:34Z</time>
      </trkpt>
      <trkpt lat="48.77042" lon="2.14329">
        <ele>99</ele>
        <time>2019-02-17T15:06:39Z</time>
      </trkpt>
      <trkpt lat="48.7704" lon="2.14336">
        <ele>99</ele>
        <time>2019-02-17T15:06:43Z</time>
      </trkpt>
      <trkpt lat="48.77037" lon="2.14343">
        <ele>99</ele>
        <time>2019-02-17T15:06:47Z</time>
      </trkpt>
      <trkpt lat="48.77016" lon="2.14403">
        <ele>98</ele>
        <time>2019-02-17T15:07:21Z</time>
      </trkpt>
      <trkpt lat="48.7701" lon="2.14416">
        <ele>98</ele>
        <time>2019-02-17T15:07:29Z</time>
      </trkpt>
      <trkpt lat="48.77004" lon="2.14428">
        <ele>98</ele>
        <time>2019-02-17T15:07:35Z</time>
      </trkpt>
      <trkpt lat="48.76996" lon="2.14448">
        <ele>98</ele>
        <time>2019-02-17T15:07:49Z</time>
      </trkpt>
      <trkpt lat="48.76985" lon="2.14475">
        <ele>99</ele>
        <time>2019-02-17T15:08:05Z</time>
      </trkpt>
      <trkpt lat="48.76981" lon="2.14488">
        <ele>99</ele>
        <time>2019-02-17T15:08:14Z</time>
      </trkpt>
      <trkpt lat="48.76979" lon="2.14498">
        <ele>98</ele>
        <time>2019-02-17T15:09:34Z</time>
      </trkpt>
      <trkpt lat="48.76963" lon="2.14506">
        <ele>98</ele>
        <time>2019-02-17T15:09:52Z</time>
      </trkpt>
      <trkpt lat="48.76958" lon="2.14499">
        <ele>98</ele>
        <time>2019-02-17T15:09:59Z</time>
      </trkpt>
      <trkpt lat="48.76955" lon="2.14493">
        <ele>98</ele>
        <time>2019-02-17T15:10:04Z</time>
      </trkpt>
      <trkpt lat="48.76937" lon="2.14473">
        <ele>98</ele>
        <time>2019-02-17T15:10:23Z</time>
      </trkpt>
      <trkpt lat="48.76934" lon="2.14468">
        <ele>98</ele>
        <time>2019-02-17T15:10:27Z</time>
      </trkpt>
      <trkpt lat="48.76929" lon="2.14466">
        <ele>98</ele>
        <time>2019-02-17T15:10:31Z</time>
      </trkpt>
      <trkpt lat="48.76926" lon="2.1446">
        <ele>98</ele>
        <time>2019-02-17T15:10:35Z</time>
      </trkpt>
      <trkpt lat="48.76912" lon="2.14445">
        <ele>99</ele>
        <time>2019-02-17T15:10:47Z</time>
      </trkpt>
      <trkpt lat="48.76907" lon="2.14444">
        <ele>99</ele>
        <time>2019-02-17T15:10:51Z</time>
      </trkpt>
      <trkpt lat="48.76902" lon="2.14444">
        <ele>99</ele>
        <time>2019-02-17T15:10:55Z</time>
      </trkpt>
      <trkpt lat="48.76881" lon="2.1444">
        <ele>100</ele>
        <time>2019-02-17T15:11:11Z</time>
      </trkpt>
      <trkpt lat="48.7687" lon="2.14441">
        <ele>100</ele>
        <time>2019-02-17T15:11:19Z</time>
      </trkpt>
      <trkpt lat="48.76866" lon="2.14444">
        <ele>100</ele>
        <time>2019-02-17T15:11:23Z</time>
      </trkpt>
      <trkpt lat="48.76861" lon="2.14444">
        <ele>100</ele>
        <time>2019-02-17T15:11:26Z</time>
      </trkpt>
      <trkpt lat="48.76857" lon="2.14447">
        <ele>101</ele>
        <time>2019-02-17T15:11:30Z</time>
      </trkpt>
      <trkpt lat="48.76844" lon="2.14461">
        <ele>101</ele>
        <time>2019-02-17T15:11:42Z</time>
      </trkpt>
      <trkpt lat="48.76841" lon="2.14467">
        <ele>101</ele>
        <time>2019-02-17T15:11:46Z</time>
      </trkpt>
      <trkpt lat="48.76835" lon="2.14477">
        <ele>101</ele>
        <time>2019-02-17T15:11:54Z</time>
      </trkpt>
      <trkpt lat="48.76822" lon="2.14515">
        <ele>101</ele>
        <time>2019-02-17T15:12:17Z</time>
      </trkpt>
      <trkpt lat="48.76813" lon="2.14552">
        <ele>100</ele>
        <time>2019-02-17T15:12:37Z</time>
      </trkpt>
      <trkpt lat="48.76804" lon="2.14578">
        <ele>100</ele>
        <time>2019-02-17T15:12:54Z</time>
      </trkpt>
      <trkpt lat="48.768" lon="2.14592">
        <ele>100</ele>
        <time>2019-02-17T15:13:03Z</time>
      </trkpt>
      <trkpt lat="48.76799" lon="2.14607">
        <ele>100</ele>
        <time>2019-02-17T15:13:11Z</time>
      </trkpt>
      <trkpt lat="48.76791" lon="2.14627">
        <ele>100</ele>
        <time>2019-02-17T15:13:23Z</time>
      </trkpt>
      <trkpt lat="48.76778" lon="2.14689">
        <ele>100</ele>
        <time>2019-02-17T15:13:56Z</time>
      </trkpt>
      <trkpt lat="48.76762" lon="2.14733">
        <ele>99</ele>
        <time>2019-02-17T15:14:21Z</time>
      </trkpt>
      <trkpt lat="48.76755" lon="2.14747">
        <ele>99</ele>
        <time>2019-02-17T15:14:29Z</time>
      </trkpt>
      <trkpt lat="48.7675" lon="2.14761">
        <ele>100</ele>
        <time>2019-02-17T15:14:36Z</time>
      </trkpt>
      <trkpt lat="48.76747" lon="2.14766">
        <ele>100</ele>
        <time>2019-02-17T15:14:40Z</time>
      </trkpt>
      <trkpt lat="48.76742" lon="2.1477">
        <ele>100</ele>
        <time>2019-02-17T15:14:45Z</time>
      </trkpt>
      <trkpt lat="48.76713" lon="2.1481">
        <ele>100</ele>
        <time>2019-02-17T15:15:19Z</time>
      </trkpt>
      <trkpt lat="48.76682" lon="2.14849">
        <ele>101</ele>
        <time>2019-02-17T15:15:51Z</time>
      </trkpt>
      <trkpt lat="48.76653" lon="2.14885">
        <ele>102</ele>
        <time>2019-02-17T15:16:22Z</time>
      </trkpt>
      <trkpt lat="48.76626" lon="2.14911">
        <ele>106</ele>
        <time>2019-02-17T15:16:54Z</time>
      </trkpt>
      <trkpt lat="48.76622" lon="2.14916">
        <ele>107</ele>
        <time>2019-02-17T15:16:59Z</time>
      </trkpt>
      <trkpt lat="48.76605" lon="2.14965">
        <ele>111</ele>
        <time>2019-02-17T15:17:32Z</time>
      </trkpt>
      <trkpt lat="48.76599" lon="2.14974">
        <ele>112</ele>
        <time>2019-02-17T15:17:41Z</time>
      </trkpt>
      <trkpt lat="48.76596" lon="2.14984">
        <ele>112</ele>
        <time>2019-02-17T15:17:55Z</time>
      </trkpt>
      <trkpt lat="48.76593" lon="2.14989">
        <ele>112</ele>
        <time>2019-02-17T15:18:01Z</time>
      </trkpt>
      <trkpt lat="48.76588" lon="2.14987">
        <ele>112</ele>
        <time>2019-02-17T15:18:43Z</time>
      </trkpt>
      <trkpt lat="48.76591" lon="2.14981">
        <ele>112</ele>
        <time>2019-02-17T15:18:50Z</time>
      </trkpt>
      <trkpt lat="48.76595" lon="2.14979">
        <ele>112</ele>
        <time>2019-02-17T15:19:48Z</time>
      </trkpt>
      <trkpt lat="48.76602" lon="2.14982">
        <ele>113</ele>
        <time>2019-02-17T15:24:17Z</time>
      </trkpt>
      <trkpt lat="48.76607" lon="2.14979">
        <ele>111</ele>
        <time>2019-02-17T15:24:28Z</time>
      </trkpt>
      <trkpt lat="48.76621" lon="2.14985">
        <ele>109</ele>
        <time>2019-02-17T15:24:42Z</time>
      </trkpt>
      <trkpt lat="48.76628" lon="2.14992">
        <ele>108</ele>
        <time>2019-02-17T15:24:53Z</time>
      </trkpt>
      <trkpt lat="48.76632" lon="2.14997">
        <ele>107</ele>
        <time>2019-02-17T15:24:56Z</time>
      </trkpt>
      <trkpt lat="48.7664" lon="2.15005">
        <ele>105</ele>
        <time>2019-02-17T15:25:08Z</time>
      </trkpt>
      <trkpt lat="48.76646" lon="2.15006">
        <ele>104</ele>
        <time>2019-02-17T15:25:16Z</time>
      </trkpt>
      <trkpt lat="48.76651" lon="2.15008">
        <ele>104</ele>
        <time>2019-02-17T15:25:21Z</time>
      </trkpt>
      <trkpt lat="48.76656" lon="2.15008">
        <ele>103</ele>
        <time>2019-02-17T15:25:25Z</time>
      </trkpt>
      <trkpt lat="48.7667" lon="2.15013">
        <ele>102</ele>
        <time>2019-02-17T15:25:42Z</time>
      </trkpt>
      <trkpt lat="48.76675" lon="2.15014">
        <ele>102</ele>
        <time>2019-02-17T15:25:48Z</time>
      </trkpt>
      <trkpt lat="48.7668" lon="2.15016">
        <ele>102</ele>
        <time>2019-02-17T15:25:53Z</time>
      </trkpt>
      <trkpt lat="48.76684" lon="2.15017">
        <ele>102</ele>
        <time>2019-02-17T15:26:01Z</time>
      </trkpt>
      <trkpt lat="48.76693" lon="2.15023">
        <ele>102</ele>
        <time>2019-02-17T15:26:12Z</time>
      </trkpt>
      <trkpt lat="48.76698" lon="2.15025">
        <ele>101</ele>
        <time>2019-02-17T15:26:16Z</time>
      </trkpt>
      <trkpt lat="48.76726" lon="2.15048">
        <ele>98</ele>
        <time>2019-02-17T15:26:48Z</time>
      </trkpt>
      <trkpt lat="48.7673" lon="2.1505">
        <ele>98</ele>
        <time>2019-02-17T15:26:53Z</time>
      </trkpt>
      <trkpt lat="48.76736" lon="2.15054">
        <ele>97</ele>
        <time>2019-02-17T15:27:00Z</time>
      </trkpt>
      <trkpt lat="48.76752" lon="2.15061">
        <ele>97</ele>
        <time>2019-02-17T15:27:14Z</time>
      </trkpt>
      <trkpt lat="48.76754" lon="2.15067">
        <ele>97</ele>
        <time>2019-02-17T15:27:19Z</time>
      </trkpt>
      <trkpt lat="48.76754" lon="2.15074">
        <ele>97</ele>
        <time>2019-02-17T15:27:23Z</time>
      </trkpt>
      <trkpt lat="48.76756" lon="2.15082">
        <ele>97</ele>
        <time>2019-02-17T15:27:28Z</time>
      </trkpt>
      <trkpt lat="48.76758" lon="2.15091">
        <ele>97</ele>
        <time>2019-02-17T15:27:36Z</time>
      </trkpt>
      <trkpt lat="48.7676" lon="2.15123">
        <ele>97</ele>
        <time>2019-02-17T15:27:56Z</time>
      </trkpt>
      <trkpt lat="48.76755" lon="2.15144">
        <ele>97</ele>
        <time>2019-02-17T15:28:10Z</time>
      </trkpt>
      <trkpt lat="48.76756" lon="2.15154">
        <ele>97</ele>
        <time>2019-02-17T15:28:16Z</time>
      </trkpt>
      <trkpt lat="48.76755" lon="2.15168">
        <ele>97</ele>
        <time>2019-02-17T15:28:25Z</time>
      </trkpt>
      <trkpt lat="48.76755" lon="2.15179">
        <ele>97</ele>
        <time>2019-02-17T15:28:32Z</time>
      </trkpt>
      <trkpt lat="48.76753" lon="2.15194">
        <ele>97</ele>
        <time>2019-02-17T15:28:39Z</time>
      </trkpt>
      <trkpt lat="48.76751" lon="2.15202">
        <ele>97</ele>
        <time>2019-02-17T15:28:43Z</time>
      </trkpt>
      <trkpt lat="48.76732" lon="2.15243">
        <ele>97</ele>
        <time>2019-02-17T15:29:05Z</time>
      </trkpt>
      <trkpt lat="48.76729" lon="2.15259">
        <ele>97</ele>
        <time>2019-02-17T15:29:13Z</time>
      </trkpt>
      <trkpt lat="48.76727" lon="2.15266">
        <ele>98</ele>
        <time>2019-02-17T15:29:17Z</time>
      </trkpt>
      <trkpt lat="48.76722" lon="2.1528">
        <ele>98</ele>
        <time>2019-02-17T15:29:24Z</time>
      </trkpt>
      <trkpt lat="48.76714" lon="2.15318">
        <ele>97</ele>
        <time>2019-02-17T15:29:43Z</time>
      </trkpt>
      <trkpt lat="48.76712" lon="2.15325">
        <ele>97</ele>
        <time>2019-02-17T15:29:48Z</time>
      </trkpt>
      <trkpt lat="48.76709" lon="2.15331">
        <ele>97</ele>
        <time>2019-02-17T15:29:53Z</time>
      </trkpt>
      <trkpt lat="48.76708" lon="2.1534">
        <ele>96</ele>
        <time>2019-02-17T15:29:58Z</time>
      </trkpt>
      <trkpt lat="48.76701" lon="2.15358">
        <ele>96</ele>
        <time>2019-02-17T15:30:23Z</time>
      </trkpt>
      <trkpt lat="48.76691" lon="2.15377">
        <ele>96</ele>
        <time>2019-02-17T15:30:39Z</time>
      </trkpt>
      <trkpt lat="48.76685" lon="2.15384">
        <ele>96</ele>
        <time>2019-02-17T15:30:54Z</time>
      </trkpt>
      <trkpt lat="48.76682" lon="2.15391">
        <ele>96</ele>
        <time>2019-02-17T15:30:59Z</time>
      </trkpt>
      <trkpt lat="48.76676" lon="2.15411">
        <ele>96</ele>
        <time>2019-02-17T15:31:12Z</time>
      </trkpt>
      <trkpt lat="48.76672" lon="2.15417">
        <ele>96</ele>
        <time>2019-02-17T15:31:16Z</time>
      </trkpt>
      <trkpt lat="48.76656" lon="2.1544">
        <ele>97</ele>
        <time>2019-02-17T15:31:32Z</time>
      </trkpt>
      <trkpt lat="48.76653" lon="2.15445">
        <ele>97</ele>
        <time>2019-02-17T15:31:36Z</time>
      </trkpt>
      <trkpt lat="48.76647" lon="2.15466">
        <ele>97</ele>
        <time>2019-02-17T15:31:49Z</time>
      </trkpt>
      <trkpt lat="48.76648" lon="2.15481">
        <ele>97</ele>
        <time>2019-02-17T15:31:58Z</time>
      </trkpt>
      <trkpt lat="48.76653" lon="2.155">
        <ele>97</ele>
        <time>2019-02-17T15:32:13Z</time>
      </trkpt>
      <trkpt lat="48.76667" lon="2.15524">
        <ele>97</ele>
        <time>2019-02-17T15:32:30Z</time>
      </trkpt>
      <trkpt lat="48.76685" lon="2.15537">
        <ele>96</ele>
        <time>2019-02-17T15:32:47Z</time>
      </trkpt>
      <trkpt lat="48.76692" lon="2.15548">
        <ele>96</ele>
        <time>2019-02-17T15:32:53Z</time>
      </trkpt>
      <trkpt lat="48.76707" lon="2.15553">
        <ele>95</ele>
        <time>2019-02-17T15:33:03Z</time>
      </trkpt>
      <trkpt lat="48.7671" lon="2.15561">
        <ele>95</ele>
        <time>2019-02-17T15:33:06Z</time>
      </trkpt>
      <trkpt lat="48.76709" lon="2.15569">
        <ele>96</ele>
        <time>2019-02-17T15:33:11Z</time>
      </trkpt>
      <trkpt lat="48.76715" lon="2.1559">
        <ele>94</ele>
        <time>2019-02-17T15:33:24Z</time>
      </trkpt>
      <trkpt lat="48.76714" lon="2.15604">
        <ele>93</ele>
        <time>2019-02-17T15:33:32Z</time>
      </trkpt>
      <trkpt lat="48.76713" lon="2.15611">
        <ele>93</ele>
        <time>2019-02-17T15:33:36Z</time>
      </trkpt>
      <trkpt lat="48.76704" lon="2.15631">
        <ele>92</ele>
        <time>2019-02-17T15:33:48Z</time>
      </trkpt>
      <trkpt lat="48.76703" lon="2.15646">
        <ele>92</ele>
        <time>2019-02-17T15:33:56Z</time>
      </trkpt>
      <trkpt lat="48.76704" lon="2.15663">
        <ele>91</ele>
        <time>2019-02-17T15:34:05Z</time>
      </trkpt>
      <trkpt lat="48.76703" lon="2.15671">
        <ele>91</ele>
        <time>2019-02-17T15:34:09Z</time>
      </trkpt>
      <trkpt lat="48.76704" lon="2.15694">
        <ele>90</ele>
        <time>2019-02-17T15:34:23Z</time>
      </trkpt>
      <trkpt lat="48.76705" lon="2.15701">
        <ele>90</ele>
        <time>2019-02-17T15:34:27Z</time>
      </trkpt>
      <trkpt lat="48.76704" lon="2.15723">
        <ele>90</ele>
        <time>2019-02-17T15:34:39Z</time>
      </trkpt>
      <trkpt lat="48.76698" lon="2.15745">
        <ele>90</ele>
        <time>2019-02-17T15:34:51Z</time>
      </trkpt>
      <trkpt lat="48.76696" lon="2.15769">
        <ele>90</ele>
        <time>2019-02-17T15:35:05Z</time>
      </trkpt>
      <trkpt lat="48.7669" lon="2.15789">
        <ele>90</ele>
        <time>2019-02-17T15:35:17Z</time>
      </trkpt>
      <trkpt lat="48.76689" lon="2.15796">
        <ele>90</ele>
        <time>2019-02-17T15:35:21Z</time>
      </trkpt>
      <trkpt lat="48.76679" lon="2.15821">
        <ele>90</ele>
        <time>2019-02-17T15:35:35Z</time>
      </trkpt>
      <trkpt lat="48.76678" lon="2.15829">
        <ele>90</ele>
        <time>2019-02-17T15:35:38Z</time>
      </trkpt>
      <trkpt lat="48.76674" lon="2.15836">
        <ele>90</ele>
        <time>2019-02-17T15:35:42Z</time>
      </trkpt>
      <trkpt lat="48.76669" lon="2.15848">
        <ele>90</ele>
        <time>2019-02-17T15:35:50Z</time>
      </trkpt>
      <trkpt lat="48.76661" lon="2.15859">
        <ele>90</ele>
        <time>2019-02-17T15:35:59Z</time>
      </trkpt>
      <trkpt lat="48.76655" lon="2.15873">
        <ele>90</ele>
        <time>2019-02-17T15:36:08Z</time>
      </trkpt>
      <trkpt lat="48.76646" lon="2.15881">
        <ele>90</ele>
        <time>2019-02-17T15:36:15Z</time>
      </trkpt>
      <trkpt lat="48.76636" lon="2.15886">
        <ele>90</ele>
        <time>2019-02-17T15:36:23Z</time>
      </trkpt>
      <trkpt lat="48.76633" lon="2.15891">
        <ele>90</ele>
        <time>2019-02-17T15:36:28Z</time>
      </trkpt>
      <trkpt lat="48.76604" lon="2.15928">
        <ele>89</ele>
        <time>2019-02-17T15:36:59Z</time>
      </trkpt>
      <trkpt lat="48.76597" lon="2.15936">
        <ele>89</ele>
        <time>2019-02-17T15:37:06Z</time>
      </trkpt>
      <trkpt lat="48.76592" lon="2.15932">
        <ele>89</ele>
        <time>2019-02-17T15:37:13Z</time>
      </trkpt>
      <trkpt lat="48.76591" lon="2.15925">
        <ele>89</ele>
        <time>2019-02-17T15:37:17Z</time>
      </trkpt>
      <trkpt lat="48.76579" lon="2.15898">
        <ele>90</ele>
        <time>2019-02-17T15:37:34Z</time>
      </trkpt>
      <trkpt lat="48.76574" lon="2.15896">
        <ele>90</ele>
        <time>2019-02-17T15:37:39Z</time>
      </trkpt>
      <trkpt lat="48.7657" lon="2.15901">
        <ele>90</ele>
        <time>2019-02-17T15:37:43Z</time>
      </trkpt>
      <trkpt lat="48.76553" lon="2.15931">
        <ele>89</ele>
        <time>2019-02-17T15:38:03Z</time>
      </trkpt>
      <trkpt lat="48.76551" lon="2.1594">
        <ele>89</ele>
        <time>2019-02-17T15:38:11Z</time>
      </trkpt>
      <trkpt lat="48.76545" lon="2.1595">
        <ele>89</ele>
        <time>2019-02-17T15:38:18Z</time>
      </trkpt>
      <trkpt lat="48.76535" lon="2.15959">
        <ele>89</ele>
        <time>2019-02-17T15:38:26Z</time>
      </trkpt>
      <trkpt lat="48.76521" lon="2.15982">
        <ele>89</ele>
        <time>2019-02-17T15:38:41Z</time>
      </trkpt>
      <trkpt lat="48.76519" lon="2.15989">
        <ele>89</ele>
        <time>2019-02-17T15:38:45Z</time>
      </trkpt>
      <trkpt lat="48.76519" lon="2.15996">
        <ele>89</ele>
        <time>2019-02-17T15:38:49Z</time>
      </trkpt>
      <trkpt lat="48.76519" lon="2.16004">
        <ele>89</ele>
        <time>2019-02-17T15:38:54Z</time>
      </trkpt>
      <trkpt lat="48.76532" lon="2.16029">
        <ele>89</ele>
        <time>2019-02-17T15:39:16Z</time>
      </trkpt>
      <trkpt lat="48.76537" lon="2.16046">
        <ele>89</ele>
        <time>2019-02-17T15:39:46Z</time>
      </trkpt>
      <trkpt lat="48.7654" lon="2.16053">
        <ele>89</ele>
        <time>2019-02-17T15:39:58Z</time>
      </trkpt>
      <trkpt lat="48.7654" lon="2.16065">
        <ele>89</ele>
        <time>2019-02-17T15:40:16Z</time>
      </trkpt>
      <trkpt lat="48.76533" lon="2.16072">
        <ele>89</ele>
        <time>2019-02-17T15:40:28Z</time>
      </trkpt>
      <trkpt lat="48.76529" lon="2.16075">
        <ele>89</ele>
        <time>2019-02-17T15:40:34Z</time>
      </trkpt>
      <trkpt lat="48.76526" lon="2.16082">
        <ele>89</ele>
        <time>2019-02-17T15:40:39Z</time>
      </trkpt>
      <trkpt lat="48.76524" lon="2.16106">
        <ele>89</ele>
        <time>2019-02-17T15:40:56Z</time>
      </trkpt>
      <trkpt lat="48.76525" lon="2.16113">
        <ele>89</ele>
        <time>2019-02-17T15:41:01Z</time>
      </trkpt>
      <trkpt lat="48.76526" lon="2.1615">
        <ele>89</ele>
        <time>2019-02-17T15:41:21Z</time>
      </trkpt>
      <trkpt lat="48.76525" lon="2.16157">
        <ele>89</ele>
        <time>2019-02-17T15:41:25Z</time>
      </trkpt>
      <trkpt lat="48.76525" lon="2.16198">
        <ele>89</ele>
        <time>2019-02-17T15:41:53Z</time>
      </trkpt>
      <trkpt lat="48.76527" lon="2.1622">
        <ele>89</ele>
        <time>2019-02-17T15:42:05Z</time>
      </trkpt>
      <trkpt lat="48.76523" lon="2.16277">
        <ele>88</ele>
        <time>2019-02-17T15:42:38Z</time>
      </trkpt>
      <trkpt lat="48.76521" lon="2.16309">
        <ele>88</ele>
        <time>2019-02-17T15:42:57Z</time>
      </trkpt>
      <trkpt lat="48.76522" lon="2.16324">
        <ele>88</ele>
        <time>2019-02-17T15:43:05Z</time>
      </trkpt>
      <trkpt lat="48.76521" lon="2.16382">
        <ele>87</ele>
        <time>2019-02-17T15:43:39Z</time>
      </trkpt>
      <trkpt lat="48.76521" lon="2.16407">
        <ele>87</ele>
        <time>2019-02-17T15:44:01Z</time>
      </trkpt>
      <trkpt lat="48.76521" lon="2.16414">
        <ele>87</ele>
        <time>2019-02-17T15:44:06Z</time>
      </trkpt>
      <trkpt lat="48.76518" lon="2.1642">
        <ele>87</ele>
        <time>2019-02-17T15:44:10Z</time>
      </trkpt>
      <trkpt lat="48.76516" lon="2.16427">
        <ele>87</ele>
        <time>2019-02-17T15:44:24Z</time>
      </trkpt>
      <trkpt lat="48.76511" lon="2.16432">
        <ele>87</ele>
        <time>2019-02-17T15:45:30Z</time>
      </trkpt>
      <trkpt lat="48.76503" lon="2.16452">
        <ele>87</ele>
        <time>2019-02-17T15:45:44Z</time>
      </trkpt>
      <trkpt lat="48.76501" lon="2.16496">
        <ele>87</ele>
        <time>2019-02-17T15:46:19Z</time>
      </trkpt>
      <trkpt lat="48.76499" lon="2.16542">
        <ele>86</ele>
        <time>2019-02-17T15:46:46Z</time>
      </trkpt>
      <trkpt lat="48.76496" lon="2.16562">
        <ele>86</ele>
        <time>2019-02-17T15:46:59Z</time>
      </trkpt>
      <trkpt lat="48.76497" lon="2.16616">
        <ele>86</ele>
        <time>2019-02-17T15:47:32Z</time>
      </trkpt>
      <trkpt lat="48.76493" lon="2.16669">
        <ele>87</ele>
        <time>2019-02-17T15:48:02Z</time>
      </trkpt>
      <trkpt lat="48.76489" lon="2.16704">
        <ele>87</ele>
        <time>2019-02-17T15:48:22Z</time>
      </trkpt>
      <trkpt lat="48.76489" lon="2.16711">
        <ele>87</ele>
        <time>2019-02-17T15:48:27Z</time>
      </trkpt>
      <trkpt lat="48.76491" lon="2.16718">
        <ele>87</ele>
        <time>2019-02-17T15:48:32Z</time>
      </trkpt>
      <trkpt lat="48.76492" lon="2.16726">
        <ele>87</ele>
        <time>2019-02-17T15:48:36Z</time>
      </trkpt>
      <trkpt lat="48.7649" lon="2.16771">
        <ele>87</ele>
        <time>2019-02-17T15:49:01Z</time>
      </trkpt>
      <trkpt lat="48.76492" lon="2.16786">
        <ele>86</ele>
        <time>2019-02-17T15:49:09Z</time>
      </trkpt>
      <trkpt lat="48.7649" lon="2.16793">
        <ele>86</ele>
        <time>2019-02-17T15:49:13Z</time>
      </trkpt>
      <trkpt lat="48.76489" lon="2.16807">
        <ele>86</ele>
        <time>2019-02-17T15:49:21Z</time>
      </trkpt>
      <trkpt lat="48.76489" lon="2.16831">
        <ele>86</ele>
        <time>2019-02-17T15:49:36Z</time>
      </trkpt>
      <trkpt lat="48.76488" lon="2.16838">
        <ele>86</ele>
        <time>2019-02-17T15:49:40Z</time>
      </trkpt>
      <trkpt lat="48.7649" lon="2.16884">
        <ele>86</ele>
        <time>2019-02-17T15:50:09Z</time>
      </trkpt>
      <trkpt lat="48.76486" lon="2.16948">
        <ele>86</ele>
        <time>2019-02-17T15:50:43Z</time>
      </trkpt>
      <trkpt lat="48.76482" lon="2.16986">
        <ele>87</ele>
        <time>2019-02-17T15:51:04Z</time>
      </trkpt>
      <trkpt lat="48.76478" lon="2.1701">
        <ele>86</ele>
        <time>2019-02-17T15:51:18Z</time>
      </trkpt>
      <trkpt lat="48.76477" lon="2.17017">
        <ele>86</ele>
        <time>2019-02-17T15:51:22Z</time>
      </trkpt>
      <trkpt lat="48.76475" lon="2.17024">
        <ele>86</ele>
        <time>2019-02-17T15:51:26Z</time>
      </trkpt>
      <trkpt lat="48.76475" lon="2.17038">
        <ele>86</ele>
        <time>2019-02-17T15:51:35Z</time>
      </trkpt>
      <trkpt lat="48.76467" lon="2.17083">
        <ele>86</ele>
        <time>2019-02-17T15:52:00Z</time>
      </trkpt>
      <trkpt lat="48.7646" lon="2.17093">
        <ele>86</ele>
        <time>2019-02-17T15:52:09Z</time>
      </trkpt>
      <trkpt lat="48.76459" lon="2.17101">
        <ele>86</ele>
        <time>2019-02-17T15:52:14Z</time>
      </trkpt>
      <trkpt lat="48.76457" lon="2.17113">
        <ele>86</ele>
        <time>2019-02-17T15:52:22Z</time>
      </trkpt>
      <trkpt lat="48.76457" lon="2.17129">
        <ele>86</ele>
        <time>2019-02-17T15:52:30Z</time>
      </trkpt>
      <trkpt lat="48.76448" lon="2.17171">
        <ele>85</ele>
        <time>2019-02-17T15:52:54Z</time>
      </trkpt>
      <trkpt lat="48.7644" lon="2.17182">
        <ele>85</ele>
        <time>2019-02-17T15:53:02Z</time>
      </trkpt>
      <trkpt lat="48.76424" lon="2.17242">
        <ele>85</ele>
        <time>2019-02-17T15:53:33Z</time>
      </trkpt>
      <trkpt lat="48.76422" lon="2.1725">
        <ele>85</ele>
        <time>2019-02-17T15:53:38Z</time>
      </trkpt>
      <trkpt lat="48.76418" lon="2.17255">
        <ele>85</ele>
        <time>2019-02-17T15:53:42Z</time>
      </trkpt>
      <trkpt lat="48.76411" lon="2.17282">
        <ele>85</ele>
        <time>2019-02-17T15:53:55Z</time>
      </trkpt>
      <trkpt lat="48.76411" lon="2.1729">
        <ele>85</ele>
        <time>2019-02-17T15:54:00Z</time>
      </trkpt>
      <trkpt lat="48.76396" lon="2.17349">
        <ele>85</ele>
        <time>2019-02-17T15:54:31Z</time>
      </trkpt>
      <trkpt lat="48.76395" lon="2.17358">
        <ele>85</ele>
        <time>2019-02-17T15:54:36Z</time>
      </trkpt>
      <trkpt lat="48.76396" lon="2.17365">
        <ele>85</ele>
        <time>2019-02-17T15:54:40Z</time>
      </trkpt>
      <trkpt lat="48.764" lon="2.17379">
        <ele>85</ele>
        <time>2019-02-17T15:54:49Z</time>
      </trkpt>
      <trkpt lat="48.76402" lon="2.17386">
        <ele>85</ele>
        <time>2019-02-17T15:54:53Z</time>
      </trkpt>
      <trkpt lat="48.76401" lon="2.17393">
        <ele>85</ele>
        <time>2019-02-17T15:54:56Z</time>
      </trkpt>
      <trkpt lat="48.76386" lon="2.17436">
        <ele>85</ele>
        <time>2019-02-17T15:55:19Z</time>
      </trkpt>
      <trkpt lat="48.76381" lon="2.17464">
        <ele>84</ele>
        <time>2019-02-17T15:55:35Z</time>
      </trkpt>
      <trkpt lat="48.76378" lon="2.17472">
        <ele>84</ele>
        <time>2019-02-17T15:55:39Z</time>
      </trkpt>
      <trkpt lat="48.76377" lon="2.1748">
        <ele>84</ele>
        <time>2019-02-17T15:55:44Z</time>
      </trkpt>
      <trkpt lat="48.76371" lon="2.17491">
        <ele>84</ele>
        <time>2019-02-17T15:55:52Z</time>
      </trkpt>
      <trkpt lat="48.76367" lon="2.17507">
        <ele>84</ele>
        <time>2019-02-17T15:56:02Z</time>
      </trkpt>
      <trkpt lat="48.76362" lon="2.17516">
        <ele>84</ele>
        <time>2019-02-17T15:56:11Z</time>
      </trkpt>
      <trkpt lat="48.7636" lon="2.17543">
        <ele>85</ele>
        <time>2019-02-17T15:56:29Z</time>
      </trkpt>
      <trkpt lat="48.7636" lon="2.17551">
        <ele>85</ele>
        <time>2019-02-17T15:56:34Z</time>
      </trkpt>
      <trkpt lat="48.76351" lon="2.17601">
        <ele>85</ele>
        <time>2019-02-17T15:57:03Z</time>
      </trkpt>
      <trkpt lat="48.76349" lon="2.17606">
        <ele>85</ele>
        <time>2019-02-17T15:57:07Z</time>
      </trkpt>
      <trkpt lat="48.76338" lon="2.17655">
        <ele>86</ele>
        <time>2019-02-17T15:57:36Z</time>
      </trkpt>
      <trkpt lat="48.7634" lon="2.17663">
        <ele>86</ele>
        <time>2019-02-17T15:57:39Z</time>
      </trkpt>
      <trkpt lat="48.7634" lon="2.17672">
        <ele>85</ele>
        <time>2019-02-17T15:57:42Z</time>
      </trkpt>
      <trkpt lat="48.76333" lon="2.17684">
        <ele>85</ele>
        <time>2019-02-17T15:57:51Z</time>
      </trkpt>
      <trkpt lat="48.76323" lon="2.17743">
        <ele>84</ele>
        <time>2019-02-17T15:58:25Z</time>
      </trkpt>
      <trkpt lat="48.76315" lon="2.17773">
        <ele>84</ele>
        <time>2019-02-17T15:58:51Z</time>
      </trkpt>
      <trkpt lat="48.76314" lon="2.17794">
        <ele>83</ele>
        <time>2019-02-17T15:59:10Z</time>
      </trkpt>
      <trkpt lat="48.76313" lon="2.17801">
        <ele>83</ele>
        <time>2019-02-17T15:59:16Z</time>
      </trkpt>
      <trkpt lat="48.76311" lon="2.17812">
        <ele>83</ele>
        <time>2019-02-17T15:59:28Z</time>
      </trkpt>
      <trkpt lat="48.7631" lon="2.17826">
        <ele>83</ele>
        <time>2019-02-17T15:59:37Z</time>
      </trkpt>
      <trkpt lat="48.76306" lon="2.17837">
        <ele>82</ele>
        <time>2019-02-17T15:59:59Z</time>
      </trkpt>
      <trkpt lat="48.76304" lon="2.17845">
        <ele>82</ele>
        <time>2019-02-17T16:00:11Z</time>
      </trkpt>
      <trkpt lat="48.76305" lon="2.17854">
        <ele>82</ele>
        <time>2019-02-17T16:00:29Z</time>
      </trkpt>
      <trkpt lat="48.76303" lon="2.17864">
        <ele>82</ele>
        <time>2019-02-17T16:00:53Z</time>
      </trkpt>
      <trkpt lat="48.76305" lon="2.17871">
        <ele>82</ele>
        <time>2019-02-17T16:00:57Z</time>
      </trkpt>
      <trkpt lat="48.76296" lon="2.17915">
        <ele>82</ele>
        <time>2019-02-17T16:01:28Z</time>
      </trkpt>
      <trkpt lat="48.76292" lon="2.17942">
        <ele>82</ele>
        <time>2019-02-17T16:01:45Z</time>
      </trkpt>
      <trkpt lat="48.76292" lon="2.17949">
        <ele>82</ele>
        <time>2019-02-17T16:01:49Z</time>
      </trkpt>
      <trkpt lat="48.76273" lon="2.18006">
        <ele>82</ele>
        <time>2019-02-17T16:02:20Z</time>
      </trkpt>
      <trkpt lat="48.76269" lon="2.18021">
        <ele>83</ele>
        <time>2019-02-17T16:02:28Z</time>
      </trkpt>
      <trkpt lat="48.7626" lon="2.18077">
        <ele>84</ele>
        <time>2019-02-17T16:02:59Z</time>
      </trkpt>
      <trkpt lat="48.76252" lon="2.18122">
        <ele>85</ele>
        <time>2019-02-17T16:03:23Z</time>
      </trkpt>
      <trkpt lat="48.76244" lon="2.18177">
        <ele>85</ele>
        <time>2019-02-17T16:03:54Z</time>
      </trkpt>
      <trkpt lat="48.76241" lon="2.18192">
        <ele>85</ele>
        <time>2019-02-17T16:04:02Z</time>
      </trkpt>
      <trkpt lat="48.76238" lon="2.18208">
        <ele>84</ele>
        <time>2019-02-17T16:04:12Z</time>
      </trkpt>
      <trkpt lat="48.76234" lon="2.18223">
        <ele>85</ele>
        <time>2019-02-17T16:04:20Z</time>
      </trkpt>
      <trkpt lat="48.76233" lon="2.18229">
        <ele>84</ele>
        <time>2019-02-17T16:04:23Z</time>
      </trkpt>
      <trkpt lat="48.76218" lon="2.18285">
        <ele>85</ele>
        <time>2019-02-17T16:04:55Z</time>
      </trkpt>
      <trkpt lat="48.76211" lon="2.18305">
        <ele>85</ele>
        <time>2019-02-17T16:05:07Z</time>
      </trkpt>
      <trkpt lat="48.76205" lon="2.18317">
        <ele>85</ele>
        <time>2019-02-17T16:05:16Z</time>
      </trkpt>
      <trkpt lat="48.7619" lon="2.18375">
        <ele>85</ele>
        <time>2019-02-17T16:05:49Z</time>
      </trkpt>
      <trkpt lat="48.76185" lon="2.18398">
        <ele>85</ele>
        <time>2019-02-17T16:06:02Z</time>
      </trkpt>
      <trkpt lat="48.76179" lon="2.18411">
        <ele>85</ele>
        <time>2019-02-17T16:06:10Z</time>
      </trkpt>
      <trkpt lat="48.76164" lon="2.18465">
        <ele>85</ele>
        <time>2019-02-17T16:06:41Z</time>
      </trkpt>
      <trkpt lat="48.76147" lon="2.18521">
        <ele>84</ele>
        <time>2019-02-17T16:07:13Z</time>
      </trkpt>
      <trkpt lat="48.76132" lon="2.18576">
        <ele>82</ele>
        <time>2019-02-17T16:07:46Z</time>
      </trkpt>
      <trkpt lat="48.76119" lon="2.18634">
        <ele>80</ele>
        <time>2019-02-17T16:08:18Z</time>
      </trkpt>
      <trkpt lat="48.76114" lon="2.18654">
        <ele>80</ele>
        <time>2019-02-17T16:08:30Z</time>
      </trkpt>
      <trkpt lat="48.76106" lon="2.18674">
        <ele>80</ele>
        <time>2019-02-17T16:08:43Z</time>
      </trkpt>
      <trkpt lat="48.76098" lon="2.18695">
        <ele>81</ele>
        <time>2019-02-17T16:08:56Z</time>
      </trkpt>
      <trkpt lat="48.7609" lon="2.18723">
        <ele>80</ele>
        <time>2019-02-17T16:09:13Z</time>
      </trkpt>
      <trkpt lat="48.76089" lon="2.18731">
        <ele>80</ele>
        <time>2019-02-17T16:09:17Z</time>
      </trkpt>
      <trkpt lat="48.76087" lon="2.18738">
        <ele>80</ele>
        <time>2019-02-17T16:09:22Z</time>
      </trkpt>
      <trkpt lat="48.76082" lon="2.1875">
        <ele>80</ele>
        <time>2019-02-17T16:09:30Z</time>
      </trkpt>
      <trkpt lat="48.76072" lon="2.18777">
        <ele>80</ele>
        <time>2019-02-17T16:09:46Z</time>
      </trkpt>
      <trkpt lat="48.76057" lon="2.18833">
        <ele>80</ele>
        <time>2019-02-17T16:10:18Z</time>
      </trkpt>
      <trkpt lat="48.76041" lon="2.18887">
        <ele>79</ele>
        <time>2019-02-17T16:10:50Z</time>
      </trkpt>
      <trkpt lat="48.76039" lon="2.18894">
        <ele>79</ele>
        <time>2019-02-17T16:10:54Z</time>
      </trkpt>
      <trkpt lat="48.7603" lon="2.18931">
        <ele>79</ele>
        <time>2019-02-17T16:11:17Z</time>
      </trkpt>
      <trkpt lat="48.76025" lon="2.18944">
        <ele>80</ele>
        <time>2019-02-17T16:11:26Z</time>
      </trkpt>
      <trkpt lat="48.76008" lon="2.18991">
        <ele>80</ele>
        <time>2019-02-17T16:11:57Z</time>
      </trkpt>
      <trkpt lat="48.76004" lon="2.19005">
        <ele>81</ele>
        <time>2019-02-17T16:12:07Z</time>
      </trkpt>
      <trkpt lat="48.75995" lon="2.19033">
        <ele>80</ele>
        <time>2019-02-17T16:12:27Z</time>
      </trkpt>
      <trkpt lat="48.75992" lon="2.19052">
        <ele>80</ele>
        <time>2019-02-17T16:12:42Z</time>
      </trkpt>
      <trkpt lat="48.7599" lon="2.19061">
        <ele>80</ele>
        <time>2019-02-17T16:12:52Z</time>
      </trkpt>
      <trkpt lat="48.75993" lon="2.19069">
        <ele>79</ele>
        <time>2019-02-17T16:13:04Z</time>
      </trkpt>
      <trkpt lat="48.75999" lon="2.19074">
        <ele>79</ele>
        <time>2019-02-17T16:13:16Z</time>
      </trkpt>
      <trkpt lat="48.76006" lon="2.19078">
        <ele>79</ele>
        <time>2019-02-17T16:14:28Z</time>
      </trkpt>
      <trkpt lat="48.76011" lon="2.1908">
        <ele>78</ele>
        <time>2019-02-17T16:14:40Z</time>
      </trkpt>
      <trkpt lat="48.76016" lon="2.1908">
        <ele>78</ele>
        <time>2019-02-17T16:15:09Z</time>
      </trkpt>
      <trkpt lat="48.76024" lon="2.19083">
        <ele>77</ele>
        <time>2019-02-17T16:15:28Z</time>
      </trkpt>
      <trkpt lat="48.76031" lon="2.19082">
        <ele>77</ele>
        <time>2019-02-17T16:15:40Z</time>
      </trkpt>
      <trkpt lat="48.76036" lon="2.19084">
        <ele>77</ele>
        <time>2019-02-17T16:15:44Z</time>
      </trkpt>
      <trkpt lat="48.76043" lon="2.19084">
        <ele>77</ele>
        <time>2019-02-17T16:15:51Z</time>
      </trkpt>
      <trkpt lat="48.76049" lon="2.1909">
        <ele>77</ele>
        <time>2019-02-17T16:16:00Z</time>
      </trkpt>
      <trkpt lat="48.76048" lon="2.19105">
        <ele>77</ele>
        <time>2019-02-17T16:16:10Z</time>
      </trkpt>
      <trkpt lat="48.76046" lon="2.19111">
        <ele>78</ele>
        <time>2019-02-17T16:16:41Z</time>
      </trkpt>
      <trkpt lat="48.76043" lon="2.19119">
        <ele>78</ele>
        <time>2019-02-17T16:16:51Z</time>
      </trkpt>
      <trkpt lat="48.76044" lon="2.19127">
        <ele>78</ele>
        <time>2019-02-17T16:17:01Z</time>
      </trkpt>
      <trkpt lat="48.76038" lon="2.19132">
        <ele>77</ele>
        <time>2019-02-17T16:17:16Z</time>
      </trkpt>
      <trkpt lat="48.7603" lon="2.19133">
        <ele>77</ele>
        <time>2019-02-17T16:17:25Z</time>
      </trkpt>
      <trkpt lat="48.76026" lon="2.19133">
        <ele>77</ele>
        <time>2019-02-17T16:17:29Z</time>
      </trkpt>
      <trkpt lat="48.76018" lon="2.19125">
        <ele>78</ele>
        <time>2019-02-17T16:18:04Z</time>
      </trkpt>
      <trkpt lat="48.76013" lon="2.19123">
        <ele>78</ele>
        <time>2019-02-17T16:18:09Z</time>
      </trkpt>
      <trkpt lat="48.76008" lon="2.1912">
        <ele>78</ele>
        <time>2019-02-17T16:18:14Z</time>
      </trkpt>
      <trkpt lat="48.76004" lon="2.1912">
        <ele>78</ele>
        <time>2019-02-17T16:18:52Z</time>
      </trkpt>
      <trkpt lat="48.75999" lon="2.19117">
        <ele>79</ele>
        <time>2019-02-17T16:19:34Z</time>
      </trkpt>
      <trkpt lat="48.75993" lon="2.19116">
        <ele>80</ele>
        <time>2019-02-17T16:20:10Z</time>
      </trkpt>
      <trkpt lat="48.75992" lon="2.19109">
        <ele>80</ele>
        <time>2019-02-17T16:20:22Z</time>
      </trkpt>
      <trkpt lat="48.75992" lon="2.19101">
        <ele>81</ele>
        <time>2019-02-17T16:20:52Z</time>
      </trkpt>
      <trkpt lat="48.75986" lon="2.19099">
        <ele>80</ele>
        <time>2019-02-17T16:21:22Z</time>
      </trkpt>
      <trkpt lat="48.75984" lon="2.19106">
        <ele>81</ele>
        <time>2019-02-17T16:21:34Z</time>
      </trkpt>
      <trkpt lat="48.75981" lon="2.19115">
        <ele>81</ele>
        <time>2019-02-17T16:21:45Z</time>
      </trkpt>
      <trkpt lat="48.75975" lon="2.1913">
        <ele>81</ele>
        <time>2019-02-17T16:21:54Z</time>
      </trkpt>
      <trkpt lat="48.7597" lon="2.19159">
        <ele>79</ele>
        <time>2019-02-17T16:22:10Z</time>
      </trkpt>
      <trkpt lat="48.75969" lon="2.19175">
        <ele>80</ele>
        <time>2019-02-17T16:22:18Z</time>
      </trkpt>
      <trkpt lat="48.75964" lon="2.19205">
        <ele>79</ele>
        <time>2019-02-17T16:22:35Z</time>
      </trkpt>
      <trkpt lat="48.7596" lon="2.19217">
        <ele>79</ele>
        <time>2019-02-17T16:22:44Z</time>
      </trkpt>
      <trkpt lat="48.7596" lon="2.19224">
        <ele>79</ele>
        <time>2019-02-17T16:22:48Z</time>
      </trkpt>
      <trkpt lat="48.75958" lon="2.19232">
        <ele>79</ele>
        <time>2019-02-17T16:22:53Z</time>
      </trkpt>
      <trkpt lat="48.75955" lon="2.19228">
        <ele>80</ele>
        <time>2019-02-17T16:22:57Z</time>
      </trkpt>
      <trkpt lat="48.75942" lon="2.19211">
        <ele>82</ele>
        <time>2019-02-17T16:23:15Z</time>
      </trkpt>
      <trkpt lat="48.75937" lon="2.19212">
        <ele>83</ele>
        <time>2019-02-17T16:23:20Z</time>
      </trkpt>
      <trkpt lat="48.75937" lon="2.19212">
        <ele>83</ele>
        <time>2019-02-17T16:23:47Z</time>
      </trkpt>
      <trkpt lat="48.75934" lon="2.19212">
        <ele>83</ele>
        <time>2019-02-17T16:24:16Z</time>
      </trkpt>
      <trkpt lat="48.75929" lon="2.19216">
        <ele>83</ele>
        <time>2019-02-17T16:24:20Z</time>
      </trkpt>
      <trkpt lat="48.7592" lon="2.19236">
        <ele>84</ele>
        <time>2019-02-17T16:24:27Z</time>
      </trkpt>
      <trkpt lat="48.75917" lon="2.19246">
        <ele>84</ele>
        <time>2019-02-17T16:24:32Z</time>
      </trkpt>
      <trkpt lat="48.75909" lon="2.19251">
        <ele>84</ele>
        <time>2019-02-17T16:24:48Z</time>
      </trkpt>
      <trkpt lat="48.75783" lon="2.19501">
        <ele>84</ele>
        <time>2019-02-17T16:25:19Z</time>
      </trkpt>
      <trkpt lat="48.75562" lon="2.19944">
        <ele>83</ele>
        <time>2019-02-17T16:25:44Z</time>
      </trkpt>
      <trkpt lat="48.75376" lon="2.20631">
        <ele>80</ele>
        <time>2019-02-17T16:26:15Z</time>
      </trkpt>
      <trkpt lat="48.75218" lon="2.21274">
        <ele>79</ele>
        <time>2019-02-17T16:26:46Z</time>
      </trkpt>
      <trkpt lat="48.75138" lon="2.21502">
        <ele>78</ele>
        <time>2019-02-17T16:27:05Z</time>
      </trkpt>
      <trkpt lat="48.75105" lon="2.21575">
        <ele>79</ele>
        <time>2019-02-17T16:27:21Z</time>
      </trkpt>
    </trkseg>
  </trk>
</gpx>